<?xml version='1.0' encoding='UTF-8'?><gpx version="1.1" creator="JPX - https://github.com/jenetics/jpx" xmlns="http://www.topografix.com/GPX/1/1"><trk><trkseg><trkpt lat="45.7131552" lon="8.5238215"><ele>351.0</ele><time>2026-04-18T13:37:54.713Z</time></trkpt><trkpt lat="45.7130834" lon="8.523742"><ele>351.0</ele><time>2026-04-18T13:38:00.336Z</time></trkpt><trkpt lat="45.713099" lon="8.5236525"><ele>351.0</ele><time>2026-04-18T13:38:09.34Z</time></trkpt><trkpt lat="45.7131466" lon="8.523737"><ele>351.0</ele><time>2026-04-18T13:38:21.346Z</time></trkpt><trkpt lat="45.713235" lon="8.5239483"><ele>351.0</ele><time>2026-04-18T13:38:25.294Z</time></trkpt><trkpt lat="45.7132483" lon="8.524045"><ele>351.0</ele><time>2026-04-18T13:38:36.29Z</time></trkpt><trkpt lat="45.713245" lon="8.52395"><ele>351.0</ele><time>2026-04-18T13:38:43.293Z</time></trkpt><trkpt lat="45.71321" lon="8.5238667"><ele>351.0</ele><time>2026-04-18T13:38:45.295Z</time></trkpt><trkpt lat="45.7132583" lon="8.5239917"><ele>351.0</ele><time>2026-04-18T13:38:59.294Z</time></trkpt><trkpt lat="45.71327" lon="8.5241017"><ele>351.0</ele><time>2026-04-18T13:39:01.293Z</time></trkpt><trkpt lat="45.71333" lon="8.524145"><ele>351.0</ele><time>2026-04-18T13:39:11.295Z</time></trkpt><trkpt lat="45.7132783" lon="8.52422"><ele>351.0</ele><time>2026-04-18T13:39:27.294Z</time></trkpt><trkpt lat="45.71321" lon="8.52426"><ele>351.0</ele><time>2026-04-18T13:39:29.295Z</time></trkpt><trkpt lat="45.71314" lon="8.5242983"><ele>351.0</ele><time>2026-04-18T13:39:31.295Z</time></trkpt><trkpt lat="45.713055" lon="8.5243283"><ele>351.0</ele><time>2026-04-18T13:39:33.294Z</time></trkpt><trkpt lat="45.7129667" lon="8.5243617"><ele>351.0</ele><time>2026-04-18T13:39:35.299Z</time></trkpt><trkpt lat="45.7128983" lon="8.5243483"><ele>351.0</ele><time>2026-04-18T13:39:37.294Z</time></trkpt><trkpt lat="45.7128667" lon="8.524245"><ele>351.0</ele><time>2026-04-18T13:39:39.299Z</time></trkpt><trkpt lat="45.71283" lon="8.5240967"><ele>351.0</ele><time>2026-04-18T13:39:41.288Z</time></trkpt><trkpt lat="45.7128" lon="8.5239483"><ele>351.0</ele><time>2026-04-18T13:39:43.289Z</time></trkpt><trkpt lat="45.712825" lon="8.5238617"><ele>351.0</ele><time>2026-04-18T13:39:45.297Z</time></trkpt><trkpt lat="45.712895" lon="8.5238167"><ele>351.0</ele><time>2026-04-18T13:39:47.297Z</time></trkpt><trkpt lat="45.7129733" lon="8.523765"><ele>351.0</ele><time>2026-04-18T13:39:49.294Z</time></trkpt><trkpt lat="45.713045" lon="8.52371"><ele>351.14285714285717</ele><time>2026-04-18T13:39:51.292Z</time></trkpt><trkpt lat="45.71307" lon="8.5236133"><ele>351.2857142857143</ele><time>2026-04-18T13:39:53.297Z</time></trkpt><trkpt lat="45.7130483" lon="8.5235167"><ele>351.42857142857144</ele><time>2026-04-18T13:39:55.294Z</time></trkpt><trkpt lat="45.71302" lon="8.523415"><ele>351.57142857142856</ele><time>2026-04-18T13:39:57.296Z</time></trkpt><trkpt lat="45.713" lon="8.5233267"><ele>351.7142857142857</ele><time>2026-04-18T13:39:59.294Z</time></trkpt><trkpt lat="45.713005" lon="8.5232"><ele>351.8571428571429</ele><time>2026-04-18T13:40:02.292Z</time></trkpt><trkpt lat="45.7130367" lon="8.523115"><ele>352.0</ele><time>2026-04-18T13:40:04.295Z</time></trkpt><trkpt lat="45.71308" lon="8.5230333"><ele>352.0</ele><time>2026-04-18T13:40:07.296Z</time></trkpt><trkpt lat="45.7131583" lon="8.5230617"><ele>352.0</ele><time>2026-04-18T13:40:39.295Z</time></trkpt><trkpt lat="45.7132367" lon="8.5230467"><ele>352.0</ele><time>2026-04-18T13:40:41.295Z</time></trkpt><trkpt lat="45.713325" lon="8.5230333"><ele>352.0</ele><time>2026-04-18T13:40:43.294Z</time></trkpt><trkpt lat="45.7133983" lon="8.5230267"><ele>352.0</ele><time>2026-04-18T13:40:45.294Z</time></trkpt><trkpt lat="45.713475" lon="8.522985"><ele>352.0</ele><time>2026-04-18T13:40:48.293Z</time></trkpt><trkpt lat="45.7135433" lon="8.522925"><ele>352.66666666666663</ele><time>2026-04-18T13:40:50.294Z</time></trkpt><trkpt lat="45.71362" lon="8.5228367"><ele>353.3333333333333</ele><time>2026-04-18T13:40:52.294Z</time></trkpt><trkpt lat="45.7136883" lon="8.5227333"><ele>354.0</ele><time>2026-04-18T13:40:54.294Z</time></trkpt><trkpt lat="45.71374" lon="8.5226467"><ele>354.6666666666667</ele><time>2026-04-18T13:40:56.293Z</time></trkpt><trkpt lat="45.71378" lon="8.522575"><ele>355.33333333333337</ele><time>2026-04-18T13:40:58.293Z</time></trkpt><trkpt lat="45.7138217" lon="8.522495"><ele>356.0</ele><time>2026-04-18T13:41:01.294Z</time></trkpt><trkpt lat="45.7138633" lon="8.5224217"><ele>356.0</ele><time>2026-04-18T13:41:04.293Z</time></trkpt><trkpt lat="45.713915" lon="8.522345"><ele>356.0</ele><time>2026-04-18T13:41:06.296Z</time></trkpt><trkpt lat="45.713985" lon="8.5222783"><ele>356.0</ele><time>2026-04-18T13:41:08.297Z</time></trkpt><trkpt lat="45.7140383" lon="8.52221"><ele>356.0</ele><time>2026-04-18T13:41:10.294Z</time></trkpt><trkpt lat="45.714105" lon="8.5221233"><ele>356.0</ele><time>2026-04-18T13:41:13.296Z</time></trkpt><trkpt lat="45.714155" lon="8.52206"><ele>356.0</ele><time>2026-04-18T13:41:15.293Z</time></trkpt><trkpt lat="45.7142167" lon="8.5219783"><ele>356.6666666666667</ele><time>2026-04-18T13:41:17.294Z</time></trkpt><trkpt lat="45.71428" lon="8.5219167"><ele>357.33333333333337</ele><time>2026-04-18T13:41:19.294Z</time></trkpt><trkpt lat="45.7143517" lon="8.5218367"><ele>358.0</ele><time>2026-04-18T13:41:22.294Z</time></trkpt><trkpt lat="45.7144033" lon="8.5217583"><ele>358.6666666666667</ele><time>2026-04-18T13:41:25.294Z</time></trkpt><trkpt lat="45.7144617" lon="8.5216917"><ele>359.3333333333333</ele><time>2026-04-18T13:41:28.293Z</time></trkpt><trkpt lat="45.7145217" lon="8.5216033"><ele>360.0</ele><time>2026-04-18T13:41:31.294Z</time></trkpt><trkpt lat="45.7145583" lon="8.5215267"><ele>360.0</ele><time>2026-04-18T13:41:35.298Z</time></trkpt><trkpt lat="45.7146117" lon="8.5215867"><ele>360.0</ele><time>2026-04-18T13:41:41.294Z</time></trkpt><trkpt lat="45.7146383" lon="8.5216783"><ele>360.0</ele><time>2026-04-18T13:41:44.299Z</time></trkpt><trkpt lat="45.7146683" lon="8.5217933"><ele>360.0</ele><time>2026-04-18T13:41:47.299Z</time></trkpt><trkpt lat="45.7146933" lon="8.5219083"><ele>360.0</ele><time>2026-04-18T13:41:50.295Z</time></trkpt><trkpt lat="45.7147133" lon="8.52203"><ele>360.0</ele><time>2026-04-18T13:41:53.296Z</time></trkpt><trkpt lat="45.71473" lon="8.5221183"><ele>359.4285714285714</ele><time>2026-04-18T13:41:55.295Z</time></trkpt><trkpt lat="45.71475" lon="8.5222133"><ele>358.8571428571429</ele><time>2026-04-18T13:41:57.294Z</time></trkpt><trkpt lat="45.7147717" lon="8.5223167"><ele>358.2857142857143</ele><time>2026-04-18T13:41:59.304Z</time></trkpt><trkpt lat="45.7147917" lon="8.5224217"><ele>357.71428571428567</ele><time>2026-04-18T13:42:01.298Z</time></trkpt><trkpt lat="45.7148033" lon="8.5225233"><ele>357.1428571428571</ele><time>2026-04-18T13:42:03.293Z</time></trkpt><trkpt lat="45.7148233" lon="8.522625"><ele>356.57142857142856</ele><time>2026-04-18T13:42:05.293Z</time></trkpt><trkpt lat="45.714845" lon="8.522725"><ele>356.0</ele><time>2026-04-18T13:42:07.294Z</time></trkpt><trkpt lat="45.714875" lon="8.5228267"><ele>355.6666666666667</ele><time>2026-04-18T13:42:09.295Z</time></trkpt><trkpt lat="45.7149067" lon="8.52293"><ele>355.33333333333337</ele><time>2026-04-18T13:42:11.295Z</time></trkpt><trkpt lat="45.714925" lon="8.5230367"><ele>355.0</ele><time>2026-04-18T13:42:13.293Z</time></trkpt><trkpt lat="45.7149417" lon="8.5231483"><ele>354.6666666666667</ele><time>2026-04-18T13:42:15.298Z</time></trkpt><trkpt lat="45.71496" lon="8.5232583"><ele>354.3333333333333</ele><time>2026-04-18T13:42:17.296Z</time></trkpt><trkpt lat="45.7149783" lon="8.5233783"><ele>354.0</ele><time>2026-04-18T13:42:19.295Z</time></trkpt><trkpt lat="45.7150067" lon="8.5235033"><ele>354.0</ele><time>2026-04-18T13:42:21.293Z</time></trkpt><trkpt lat="45.71504" lon="8.5236667"><ele>354.0</ele><time>2026-04-18T13:42:23.294Z</time></trkpt><trkpt lat="45.7150533" lon="8.5237683"><ele>354.0</ele><time>2026-04-18T13:42:24.296Z</time></trkpt><trkpt lat="45.7150717" lon="8.5238767"><ele>354.0</ele><time>2026-04-18T13:42:25.298Z</time></trkpt><trkpt lat="45.71509" lon="8.52399"><ele>354.0</ele><time>2026-04-18T13:42:26.302Z</time></trkpt><trkpt lat="45.71511" lon="8.524105"><ele>354.0</ele><time>2026-04-18T13:42:27.295Z</time></trkpt><trkpt lat="45.7151367" lon="8.5242217"><ele>353.0</ele><time>2026-04-18T13:42:28.292Z</time></trkpt><trkpt lat="45.7151767" lon="8.524335"><ele>352.0</ele><time>2026-04-18T13:42:29.298Z</time></trkpt><trkpt lat="45.7152217" lon="8.5244483"><ele>351.0</ele><time>2026-04-18T13:42:30.298Z</time></trkpt><trkpt lat="45.7152717" lon="8.5245567"><ele>350.0</ele><time>2026-04-18T13:42:31.295Z</time></trkpt><trkpt lat="45.715325" lon="8.524665"><ele>349.0</ele><time>2026-04-18T13:42:32.296Z</time></trkpt><trkpt lat="45.7153817" lon="8.524775"><ele>348.0</ele><time>2026-04-18T13:42:33.299Z</time></trkpt><trkpt lat="45.7154417" lon="8.5248883"><ele>347.0</ele><time>2026-04-18T13:42:34.294Z</time></trkpt><trkpt lat="45.715505" lon="8.5250033"><ele>346.0</ele><time>2026-04-18T13:42:35.295Z</time></trkpt><trkpt lat="45.71557" lon="8.5251167"><ele>345.0</ele><time>2026-04-18T13:42:36.297Z</time></trkpt><trkpt lat="45.7156317" lon="8.5252267"><ele>344.0</ele><time>2026-04-18T13:42:37.294Z</time></trkpt><trkpt lat="45.7156933" lon="8.5253383"><ele>343.2</ele><time>2026-04-18T13:42:38.295Z</time></trkpt><trkpt lat="45.7157533" lon="8.52545"><ele>342.4</ele><time>2026-04-18T13:42:39.295Z</time></trkpt><trkpt lat="45.715815" lon="8.5255633"><ele>341.6</ele><time>2026-04-18T13:42:40.293Z</time></trkpt><trkpt lat="45.7158767" lon="8.5256767"><ele>340.8</ele><time>2026-04-18T13:42:41.296Z</time></trkpt><trkpt lat="45.7159417" lon="8.525785"><ele>340.0</ele><time>2026-04-18T13:42:42.296Z</time></trkpt><trkpt lat="45.716015" lon="8.5258717"><ele>340.16666666666663</ele><time>2026-04-18T13:42:43.296Z</time></trkpt><trkpt lat="45.7160967" lon="8.525935"><ele>340.3333333333333</ele><time>2026-04-18T13:42:44.296Z</time></trkpt><trkpt lat="45.7161817" lon="8.5259767"><ele>340.5</ele><time>2026-04-18T13:42:45.293Z</time></trkpt><trkpt lat="45.716265" lon="8.526015"><ele>340.6666666666667</ele><time>2026-04-18T13:42:46.296Z</time></trkpt><trkpt lat="45.7163467" lon="8.5260483"><ele>340.83333333333337</ele><time>2026-04-18T13:42:47.297Z</time></trkpt><trkpt lat="45.716425" lon="8.526085"><ele>341.0</ele><time>2026-04-18T13:42:48.295Z</time></trkpt><trkpt lat="45.7165017" lon="8.5261233"><ele>341.0</ele><time>2026-04-18T13:42:49.295Z</time></trkpt><trkpt lat="45.7165767" lon="8.5261617"><ele>341.0</ele><time>2026-04-18T13:42:50.294Z</time></trkpt><trkpt lat="45.7166567" lon="8.5261917"><ele>341.0</ele><time>2026-04-18T13:42:51.295Z</time></trkpt><trkpt lat="45.71673" lon="8.5262383"><ele>341.0</ele><time>2026-04-18T13:42:52.289Z</time></trkpt><trkpt lat="45.7168083" lon="8.5262633"><ele>341.0</ele><time>2026-04-18T13:42:53.298Z</time></trkpt><trkpt lat="45.716885" lon="8.5263083"><ele>341.0</ele><time>2026-04-18T13:42:54.295Z</time></trkpt><trkpt lat="45.7169717" lon="8.5263317"><ele>340.20000000000005</ele><time>2026-04-18T13:42:55.296Z</time></trkpt><trkpt lat="45.717055" lon="8.5263983"><ele>339.40000000000003</ele><time>2026-04-18T13:42:56.297Z</time></trkpt><trkpt lat="45.7171467" lon="8.5264383"><ele>338.6</ele><time>2026-04-18T13:42:57.296Z</time></trkpt><trkpt lat="45.7172333" lon="8.526485"><ele>337.8</ele><time>2026-04-18T13:42:58.294Z</time></trkpt><trkpt lat="45.7173233" lon="8.52654"><ele>337.0</ele><time>2026-04-18T13:42:59.299Z</time></trkpt><trkpt lat="45.7174183" lon="8.5265683"><ele>337.0</ele><time>2026-04-18T13:43:00.295Z</time></trkpt><trkpt lat="45.717505" lon="8.52663"><ele>337.0</ele><time>2026-04-18T13:43:01.296Z</time></trkpt><trkpt lat="45.7176017" lon="8.526665"><ele>337.0</ele><time>2026-04-18T13:43:02.298Z</time></trkpt><trkpt lat="45.7176917" lon="8.526735"><ele>337.0</ele><time>2026-04-18T13:43:03.294Z</time></trkpt><trkpt lat="45.7177933" lon="8.5267617"><ele>337.0</ele><time>2026-04-18T13:43:04.297Z</time></trkpt><trkpt lat="45.7178933" lon="8.5267967"><ele>337.0</ele><time>2026-04-18T13:43:05.297Z</time></trkpt><trkpt lat="45.7179933" lon="8.5268483"><ele>337.0</ele><time>2026-04-18T13:43:06.295Z</time></trkpt><trkpt lat="45.7180917" lon="8.5269217"><ele>337.0</ele><time>2026-04-18T13:43:07.294Z</time></trkpt><trkpt lat="45.7181967" lon="8.5269883"><ele>337.0</ele><time>2026-04-18T13:43:08.297Z</time></trkpt><trkpt lat="45.718285" lon="8.5270917"><ele>337.0</ele><time>2026-04-18T13:43:09.294Z</time></trkpt><trkpt lat="45.7183833" lon="8.527175"><ele>334.75</ele><time>2026-04-18T13:43:10.293Z</time></trkpt><trkpt lat="45.71848" lon="8.5272633"><ele>332.5</ele><time>2026-04-18T13:43:11.294Z</time></trkpt><trkpt lat="45.7185683" lon="8.52737"><ele>330.25</ele><time>2026-04-18T13:43:12.293Z</time></trkpt><trkpt lat="45.7186667" lon="8.5274617"><ele>328.0</ele><time>2026-04-18T13:43:13.296Z</time></trkpt><trkpt lat="45.718755" lon="8.52757"><ele>327.5</ele><time>2026-04-18T13:43:14.295Z</time></trkpt><trkpt lat="45.7188667" lon="8.5276333"><ele>327.0</ele><time>2026-04-18T13:43:15.297Z</time></trkpt><trkpt lat="45.71895" lon="8.5277417"><ele>326.5</ele><time>2026-04-18T13:43:16.294Z</time></trkpt><trkpt lat="45.7190433" lon="8.5278383"><ele>326.0</ele><time>2026-04-18T13:43:17.298Z</time></trkpt><trkpt lat="45.7191433" lon="8.527915"><ele>326.0</ele><time>2026-04-18T13:43:18.294Z</time></trkpt><trkpt lat="45.71924" lon="8.5279983"><ele>326.0</ele><time>2026-04-18T13:43:19.295Z</time></trkpt><trkpt lat="45.71933" lon="8.5280983"><ele>326.0</ele><time>2026-04-18T13:43:20.298Z</time></trkpt><trkpt lat="45.719425" lon="8.5281833"><ele>326.0</ele><time>2026-04-18T13:43:21.297Z</time></trkpt><trkpt lat="45.7195283" lon="8.5282583"><ele>326.0</ele><time>2026-04-18T13:43:22.294Z</time></trkpt><trkpt lat="45.719615" lon="8.5283633"><ele>326.0</ele><time>2026-04-18T13:43:23.297Z</time></trkpt><trkpt lat="45.719715" lon="8.5284433"><ele>326.0</ele><time>2026-04-18T13:43:24.311Z</time></trkpt><trkpt lat="45.7198067" lon="8.52855"><ele>326.0</ele><time>2026-04-18T13:43:25.296Z</time></trkpt><trkpt lat="45.719905" lon="8.5286317"><ele>326.0</ele><time>2026-04-18T13:43:26.292Z</time></trkpt><trkpt lat="45.72" lon="8.5287167"><ele>326.0</ele><time>2026-04-18T13:43:27.292Z</time></trkpt><trkpt lat="45.72009" lon="8.5288083"><ele>326.0</ele><time>2026-04-18T13:43:28.294Z</time></trkpt><trkpt lat="45.7201817" lon="8.5289"><ele>326.0</ele><time>2026-04-18T13:43:29.292Z</time></trkpt><trkpt lat="45.7202733" lon="8.52899"><ele>326.0</ele><time>2026-04-18T13:43:30.293Z</time></trkpt><trkpt lat="45.72037" lon="8.5290733"><ele>325.0</ele><time>2026-04-18T13:43:31.292Z</time></trkpt><trkpt lat="45.7204667" lon="8.52916"><ele>324.0</ele><time>2026-04-18T13:43:32.297Z</time></trkpt><trkpt lat="45.7205617" lon="8.5292467"><ele>323.0</ele><time>2026-04-18T13:43:33.298Z</time></trkpt><trkpt lat="45.72066" lon="8.529325"><ele>322.0</ele><time>2026-04-18T13:43:34.292Z</time></trkpt><trkpt lat="45.7207533" lon="8.5294183"><ele>322.0</ele><time>2026-04-18T13:43:35.295Z</time></trkpt><trkpt lat="45.72085" lon="8.5295117"><ele>322.0</ele><time>2026-04-18T13:43:36.295Z</time></trkpt><trkpt lat="45.7209467" lon="8.5296033"><ele>322.0</ele><time>2026-04-18T13:43:37.294Z</time></trkpt><trkpt lat="45.7210417" lon="8.529695"><ele>322.0</ele><time>2026-04-18T13:43:38.295Z</time></trkpt><trkpt lat="45.7211383" lon="8.5297767"><ele>319.75</ele><time>2026-04-18T13:43:39.293Z</time></trkpt><trkpt lat="45.721225" lon="8.5298783"><ele>317.5</ele><time>2026-04-18T13:43:40.294Z</time></trkpt><trkpt lat="45.7213217" lon="8.5299617"><ele>315.25</ele><time>2026-04-18T13:43:41.294Z</time></trkpt><trkpt lat="45.7214167" lon="8.5300483"><ele>313.0</ele><time>2026-04-18T13:43:42.297Z</time></trkpt><trkpt lat="45.7215117" lon="8.530135"><ele>313.0</ele><time>2026-04-18T13:43:43.294Z</time></trkpt><trkpt lat="45.7215967" lon="8.53024"><ele>313.0</ele><time>2026-04-18T13:43:44.294Z</time></trkpt><trkpt lat="45.7216933" lon="8.5303217"><ele>313.0</ele><time>2026-04-18T13:43:45.293Z</time></trkpt><trkpt lat="45.7217933" lon="8.5304017"><ele>313.0</ele><time>2026-04-18T13:43:46.294Z</time></trkpt><trkpt lat="45.7218933" lon="8.5304717"><ele>312.2</ele><time>2026-04-18T13:43:47.292Z</time></trkpt><trkpt lat="45.7219883" lon="8.53056"><ele>311.4</ele><time>2026-04-18T13:43:48.29Z</time></trkpt><trkpt lat="45.72209" lon="8.5306167"><ele>310.59999999999997</ele><time>2026-04-18T13:43:49.293Z</time></trkpt><trkpt lat="45.722185" lon="8.5306767"><ele>309.8</ele><time>2026-04-18T13:43:50.289Z</time></trkpt><trkpt lat="45.722275" lon="8.5307367"><ele>309.0</ele><time>2026-04-18T13:43:51.29Z</time></trkpt><trkpt lat="45.7223617" lon="8.5308133"><ele>309.0</ele><time>2026-04-18T13:43:52.29Z</time></trkpt><trkpt lat="45.722455" lon="8.5308667"><ele>309.0</ele><time>2026-04-18T13:43:53.289Z</time></trkpt><trkpt lat="45.7225467" lon="8.530925"><ele>309.0</ele><time>2026-04-18T13:43:54.29Z</time></trkpt><trkpt lat="45.722635" lon="8.53098"><ele>309.0</ele><time>2026-04-18T13:43:55.29Z</time></trkpt><trkpt lat="45.7227067" lon="8.5310683"><ele>309.0</ele><time>2026-04-18T13:43:56.288Z</time></trkpt><trkpt lat="45.7227833" lon="8.5311433"><ele>308.6666666666667</ele><time>2026-04-18T13:43:57.294Z</time></trkpt><trkpt lat="45.7228367" lon="8.531245"><ele>308.3333333333333</ele><time>2026-04-18T13:43:58.288Z</time></trkpt><trkpt lat="45.7228867" lon="8.5313383"><ele>308.0</ele><time>2026-04-18T13:43:59.29Z</time></trkpt><trkpt lat="45.7229367" lon="8.53143"><ele>307.66666666666663</ele><time>2026-04-18T13:44:00.289Z</time></trkpt><trkpt lat="45.722985" lon="8.5315183"><ele>307.3333333333333</ele><time>2026-04-18T13:44:01.29Z</time></trkpt><trkpt lat="45.7230317" lon="8.531605"><ele>307.0</ele><time>2026-04-18T13:44:02.292Z</time></trkpt><trkpt lat="45.723065" lon="8.5317"><ele>307.0</ele><time>2026-04-18T13:44:03.294Z</time></trkpt><trkpt lat="45.723105" lon="8.5317833"><ele>307.0</ele><time>2026-04-18T13:44:04.297Z</time></trkpt><trkpt lat="45.7231433" lon="8.5318667"><ele>307.0</ele><time>2026-04-18T13:44:05.295Z</time></trkpt><trkpt lat="45.7231833" lon="8.5319433"><ele>307.0</ele><time>2026-04-18T13:44:06.294Z</time></trkpt><trkpt lat="45.723215" lon="8.5320267"><ele>307.0</ele><time>2026-04-18T13:44:07.294Z</time></trkpt><trkpt lat="45.7232867" lon="8.5321767"><ele>307.0</ele><time>2026-04-18T13:44:09.297Z</time></trkpt><trkpt lat="45.7233533" lon="8.5323133"><ele>307.2</ele><time>2026-04-18T13:44:11.299Z</time></trkpt><trkpt lat="45.7234217" lon="8.532435"><ele>307.4</ele><time>2026-04-18T13:44:13.293Z</time></trkpt><trkpt lat="45.7234783" lon="8.532555"><ele>307.6</ele><time>2026-04-18T13:44:15.297Z</time></trkpt><trkpt lat="45.7235367" lon="8.5326767"><ele>307.8</ele><time>2026-04-18T13:44:17.295Z</time></trkpt><trkpt lat="45.723595" lon="8.5327917"><ele>308.0</ele><time>2026-04-18T13:44:19.294Z</time></trkpt><trkpt lat="45.7236567" lon="8.5329033"><ele>309.0</ele><time>2026-04-18T13:44:21.294Z</time></trkpt><trkpt lat="45.7237233" lon="8.533025"><ele>310.0</ele><time>2026-04-18T13:44:23.295Z</time></trkpt><trkpt lat="45.72379" lon="8.5331533"><ele>311.0</ele><time>2026-04-18T13:44:25.295Z</time></trkpt><trkpt lat="45.7238533" lon="8.53327"><ele>312.0</ele><time>2026-04-18T13:44:27.294Z</time></trkpt><trkpt lat="45.7239083" lon="8.5333933"><ele>313.0</ele><time>2026-04-18T13:44:29.293Z</time></trkpt><trkpt lat="45.723975" lon="8.5334983"><ele>313.0</ele><time>2026-04-18T13:44:31.293Z</time></trkpt><trkpt lat="45.7240567" lon="8.5335867"><ele>313.0</ele><time>2026-04-18T13:44:33.299Z</time></trkpt><trkpt lat="45.7241433" lon="8.5336783"><ele>313.0</ele><time>2026-04-18T13:44:35.295Z</time></trkpt><trkpt lat="45.724235" lon="8.5337683"><ele>313.0</ele><time>2026-04-18T13:44:37.298Z</time></trkpt><trkpt lat="45.7243267" lon="8.5338617"><ele>313.0</ele><time>2026-04-18T13:44:39.288Z</time></trkpt><trkpt lat="45.72442" lon="8.5339467"><ele>312.0</ele><time>2026-04-18T13:44:41.296Z</time></trkpt><trkpt lat="45.7245167" lon="8.5340383"><ele>311.0</ele><time>2026-04-18T13:44:43.295Z</time></trkpt><trkpt lat="45.724615" lon="8.53413"><ele>310.0</ele><time>2026-04-18T13:44:45.299Z</time></trkpt><trkpt lat="45.7247117" lon="8.5342217"><ele>309.0</ele><time>2026-04-18T13:44:47.297Z</time></trkpt><trkpt lat="45.7248083" lon="8.534315"><ele>309.0</ele><time>2026-04-18T13:44:49.294Z</time></trkpt><trkpt lat="45.7249067" lon="8.534405"><ele>309.0</ele><time>2026-04-18T13:44:51.293Z</time></trkpt><trkpt lat="45.7250067" lon="8.5344967"><ele>309.0</ele><time>2026-04-18T13:44:53.294Z</time></trkpt><trkpt lat="45.725105" lon="8.5345867"><ele>309.0</ele><time>2026-04-18T13:44:55.303Z</time></trkpt><trkpt lat="45.7252033" lon="8.5346833"><ele>309.4</ele><time>2026-04-18T13:44:57.294Z</time></trkpt><trkpt lat="45.725305" lon="8.5347733"><ele>309.79999999999995</ele><time>2026-04-18T13:44:59.293Z</time></trkpt><trkpt lat="45.7254017" lon="8.5348567"><ele>310.20000000000005</ele><time>2026-04-18T13:45:01.294Z</time></trkpt><trkpt lat="45.725495" lon="8.5349417"><ele>310.6</ele><time>2026-04-18T13:45:03.296Z</time></trkpt><trkpt lat="45.7255933" lon="8.5349883"><ele>311.0</ele><time>2026-04-18T13:45:05.296Z</time></trkpt><trkpt lat="45.7256967" lon="8.5349867"><ele>311.0</ele><time>2026-04-18T13:45:07.295Z</time></trkpt><trkpt lat="45.7257933" lon="8.5349617"><ele>311.0</ele><time>2026-04-18T13:45:09.293Z</time></trkpt><trkpt lat="45.7258933" lon="8.53494"><ele>311.0</ele><time>2026-04-18T13:45:11.296Z</time></trkpt><trkpt lat="45.725995" lon="8.5349283"><ele>311.0</ele><time>2026-04-18T13:45:13.294Z</time></trkpt><trkpt lat="45.7260767" lon="8.5349017"><ele>311.0</ele><time>2026-04-18T13:45:15.294Z</time></trkpt><trkpt lat="45.7261383" lon="8.5348617"><ele>310.2</ele><time>2026-04-18T13:45:17.292Z</time></trkpt><trkpt lat="45.7261967" lon="8.5349583"><ele>309.40000000000003</ele><time>2026-04-18T13:45:20.301Z</time></trkpt><trkpt lat="45.7262367" lon="8.5350583"><ele>308.6</ele><time>2026-04-18T13:45:22.295Z</time></trkpt><trkpt lat="45.7262883" lon="8.5351817"><ele>307.8</ele><time>2026-04-18T13:45:24.298Z</time></trkpt><trkpt lat="45.7263383" lon="8.5353317"><ele>307.0</ele><time>2026-04-18T13:45:26.294Z</time></trkpt><trkpt lat="45.72639" lon="8.5354967"><ele>306.16666666666663</ele><time>2026-04-18T13:45:28.292Z</time></trkpt><trkpt lat="45.7264317" lon="8.53566"><ele>305.3333333333333</ele><time>2026-04-18T13:45:30.294Z</time></trkpt><trkpt lat="45.7264583" lon="8.5358333"><ele>304.5</ele><time>2026-04-18T13:45:32.295Z</time></trkpt><trkpt lat="45.726475" lon="8.5359217"><ele>303.6666666666667</ele><time>2026-04-18T13:45:33.294Z</time></trkpt><trkpt lat="45.726495" lon="8.53601"><ele>302.83333333333337</ele><time>2026-04-18T13:45:34.292Z</time></trkpt><trkpt lat="45.7265133" lon="8.5361017"><ele>302.0</ele><time>2026-04-18T13:45:35.291Z</time></trkpt><trkpt lat="45.72653" lon="8.5361967"><ele>301.1666666666667</ele><time>2026-04-18T13:45:36.292Z</time></trkpt><trkpt lat="45.7265467" lon="8.53629"><ele>300.33333333333337</ele><time>2026-04-18T13:45:37.296Z</time></trkpt><trkpt lat="45.72657" lon="8.5363867"><ele>299.5</ele><time>2026-04-18T13:45:38.295Z</time></trkpt><trkpt lat="45.7265933" lon="8.536485"><ele>298.6666666666667</ele><time>2026-04-18T13:45:39.293Z</time></trkpt><trkpt lat="45.7266133" lon="8.5365783"><ele>297.8333333333333</ele><time>2026-04-18T13:45:40.293Z</time></trkpt><trkpt lat="45.726635" lon="8.5366667"><ele>297.0</ele><time>2026-04-18T13:45:41.293Z</time></trkpt><trkpt lat="45.7266717" lon="8.5368333"><ele>297.0</ele><time>2026-04-18T13:45:43.294Z</time></trkpt><trkpt lat="45.72671" lon="8.5369967"><ele>297.0</ele><time>2026-04-18T13:45:45.293Z</time></trkpt><trkpt lat="45.72674" lon="8.5371533"><ele>297.0</ele><time>2026-04-18T13:45:47.292Z</time></trkpt><trkpt lat="45.7267717" lon="8.5373167"><ele>297.0</ele><time>2026-04-18T13:45:49.299Z</time></trkpt><trkpt lat="45.7268083" lon="8.5374983"><ele>295.8333333333333</ele><time>2026-04-18T13:45:51.293Z</time></trkpt><trkpt lat="45.7268317" lon="8.5375967"><ele>294.6666666666667</ele><time>2026-04-18T13:45:52.292Z</time></trkpt><trkpt lat="45.7268533" lon="8.537695"><ele>293.5</ele><time>2026-04-18T13:45:53.294Z</time></trkpt><trkpt lat="45.726875" lon="8.5378"><ele>292.33333333333337</ele><time>2026-04-18T13:45:54.292Z</time></trkpt><trkpt lat="45.726895" lon="8.5379067"><ele>291.1666666666667</ele><time>2026-04-18T13:45:55.293Z</time></trkpt><trkpt lat="45.7269183" lon="8.53802"><ele>290.0</ele><time>2026-04-18T13:45:56.295Z</time></trkpt><trkpt lat="45.7269383" lon="8.5381283"><ele>289.5</ele><time>2026-04-18T13:45:57.292Z</time></trkpt><trkpt lat="45.7269617" lon="8.5382383"><ele>289.0</ele><time>2026-04-18T13:45:58.295Z</time></trkpt><trkpt lat="45.7269867" lon="8.5383517"><ele>288.5</ele><time>2026-04-18T13:45:59.296Z</time></trkpt><trkpt lat="45.727015" lon="8.5384667"><ele>288.0</ele><time>2026-04-18T13:46:00.295Z</time></trkpt><trkpt lat="45.7270467" lon="8.53858"><ele>287.5</ele><time>2026-04-18T13:46:01.293Z</time></trkpt><trkpt lat="45.7270733" lon="8.5386933"><ele>287.0</ele><time>2026-04-18T13:46:02.293Z</time></trkpt><trkpt lat="45.7270983" lon="8.53881"><ele>285.83333333333337</ele><time>2026-04-18T13:46:03.294Z</time></trkpt><trkpt lat="45.7271267" lon="8.5389267"><ele>284.6666666666667</ele><time>2026-04-18T13:46:04.294Z</time></trkpt><trkpt lat="45.7271567" lon="8.539045"><ele>283.5</ele><time>2026-04-18T13:46:05.294Z</time></trkpt><trkpt lat="45.7271833" lon="8.53916"><ele>282.3333333333333</ele><time>2026-04-18T13:46:06.296Z</time></trkpt><trkpt lat="45.7272067" lon="8.5392683"><ele>281.16666666666663</ele><time>2026-04-18T13:46:07.296Z</time></trkpt><trkpt lat="45.7272283" lon="8.5393733"><ele>280.0</ele><time>2026-04-18T13:46:08.294Z</time></trkpt><trkpt lat="45.72725" lon="8.5394767"><ele>279.16666666666663</ele><time>2026-04-18T13:46:09.294Z</time></trkpt><trkpt lat="45.7272717" lon="8.5395783"><ele>278.3333333333333</ele><time>2026-04-18T13:46:10.292Z</time></trkpt><trkpt lat="45.7272933" lon="8.53968"><ele>277.5</ele><time>2026-04-18T13:46:11.295Z</time></trkpt><trkpt lat="45.7273167" lon="8.5397833"><ele>276.6666666666667</ele><time>2026-04-18T13:46:12.288Z</time></trkpt><trkpt lat="45.7273433" lon="8.5398867"><ele>275.83333333333337</ele><time>2026-04-18T13:46:13.294Z</time></trkpt><trkpt lat="45.727365" lon="8.53999"><ele>275.0</ele><time>2026-04-18T13:46:14.294Z</time></trkpt><trkpt lat="45.7273883" lon="8.5400917"><ele>275.0</ele><time>2026-04-18T13:46:15.291Z</time></trkpt><trkpt lat="45.72741" lon="8.5401917"><ele>275.0</ele><time>2026-04-18T13:46:16.294Z</time></trkpt><trkpt lat="45.7274317" lon="8.54029"><ele>275.0</ele><time>2026-04-18T13:46:17.294Z</time></trkpt><trkpt lat="45.7274533" lon="8.5403867"><ele>275.0</ele><time>2026-04-18T13:46:18.295Z</time></trkpt><trkpt lat="45.7274733" lon="8.54048"><ele>275.0</ele><time>2026-04-18T13:46:19.299Z</time></trkpt><trkpt lat="45.7274917" lon="8.5405717"><ele>275.0</ele><time>2026-04-18T13:46:20.296Z</time></trkpt><trkpt lat="45.7275117" lon="8.5406583"><ele>275.0</ele><time>2026-04-18T13:46:21.295Z</time></trkpt><trkpt lat="45.7275433" lon="8.5408233"><ele>274.4</ele><time>2026-04-18T13:46:23.295Z</time></trkpt><trkpt lat="45.7275733" lon="8.5409767"><ele>273.8</ele><time>2026-04-18T13:46:25.294Z</time></trkpt><trkpt lat="45.7276117" lon="8.54113"><ele>273.2</ele><time>2026-04-18T13:46:27.295Z</time></trkpt><trkpt lat="45.72763" lon="8.5412183"><ele>272.6</ele><time>2026-04-18T13:46:28.296Z</time></trkpt><trkpt lat="45.7276467" lon="8.54131"><ele>272.0</ele><time>2026-04-18T13:46:29.295Z</time></trkpt><trkpt lat="45.7276817" lon="8.5414783"><ele>272.0</ele><time>2026-04-18T13:46:31.294Z</time></trkpt><trkpt lat="45.7277167" lon="8.5416317"><ele>272.0</ele><time>2026-04-18T13:46:33.294Z</time></trkpt><trkpt lat="45.7277467" lon="8.5417667"><ele>272.0</ele><time>2026-04-18T13:46:35.295Z</time></trkpt><trkpt lat="45.7277717" lon="8.541875"><ele>272.0</ele><time>2026-04-18T13:46:37.298Z</time></trkpt><trkpt lat="45.7277983" lon="8.5419783"><ele>272.0</ele><time>2026-04-18T13:46:39.295Z</time></trkpt><trkpt lat="45.72782" lon="8.5420933"><ele>272.0</ele><time>2026-04-18T13:46:41.293Z</time></trkpt><trkpt lat="45.7278433" lon="8.5422267"><ele>272.0</ele><time>2026-04-18T13:46:43.297Z</time></trkpt><trkpt lat="45.7278617" lon="8.54235"><ele>272.0</ele><time>2026-04-18T13:46:45.294Z</time></trkpt><trkpt lat="45.7278933" lon="8.542465"><ele>272.0</ele><time>2026-04-18T13:46:47.294Z</time></trkpt><trkpt lat="45.7279217" lon="8.5425783"><ele>272.0</ele><time>2026-04-18T13:46:49.297Z</time></trkpt><trkpt lat="45.72795" lon="8.5426883"><ele>272.0</ele><time>2026-04-18T13:46:51.294Z</time></trkpt><trkpt lat="45.72795" lon="8.5428"><ele>271.83333333333337</ele><time>2026-04-18T13:46:53.294Z</time></trkpt><trkpt lat="45.7279167" lon="8.5428933"><ele>271.6666666666667</ele><time>2026-04-18T13:46:55.294Z</time></trkpt><trkpt lat="45.7278383" lon="8.5429167"><ele>271.5</ele><time>2026-04-18T13:46:57.296Z</time></trkpt><trkpt lat="45.72775" lon="8.54292"><ele>271.3333333333333</ele><time>2026-04-18T13:46:59.298Z</time></trkpt><trkpt lat="45.7276567" lon="8.5429267"><ele>271.16666666666663</ele><time>2026-04-18T13:47:01.301Z</time></trkpt><trkpt lat="45.727575" lon="8.5429717"><ele>271.0</ele><time>2026-04-18T13:47:03.294Z</time></trkpt><trkpt lat="45.7275117" lon="8.543055"><ele>271.0</ele><time>2026-04-18T13:47:05.295Z</time></trkpt><trkpt lat="45.7275017" lon="8.5431883"><ele>271.0</ele><time>2026-04-18T13:47:07.292Z</time></trkpt><trkpt lat="45.7275233" lon="8.5433217"><ele>271.0</ele><time>2026-04-18T13:47:09.296Z</time></trkpt><trkpt lat="45.72755" lon="8.5434567"><ele>271.0</ele><time>2026-04-18T13:47:11.294Z</time></trkpt><trkpt lat="45.7275867" lon="8.54359"><ele>271.0</ele><time>2026-04-18T13:47:13.295Z</time></trkpt><trkpt lat="45.7276117" lon="8.5437083"><ele>271.0</ele><time>2026-04-18T13:47:15.306Z</time></trkpt><trkpt lat="45.7276433" lon="8.5438433"><ele>271.0</ele><time>2026-04-18T13:47:17.296Z</time></trkpt><trkpt lat="45.7276683" lon="8.543975"><ele>271.0</ele><time>2026-04-18T13:47:19.296Z</time></trkpt><trkpt lat="45.7276933" lon="8.5440933"><ele>271.0</ele><time>2026-04-18T13:47:21.295Z</time></trkpt><trkpt lat="45.7277217" lon="8.54422"><ele>271.0</ele><time>2026-04-18T13:47:23.297Z</time></trkpt><trkpt lat="45.7277517" lon="8.5443433"><ele>272.0</ele><time>2026-04-18T13:47:25.297Z</time></trkpt><trkpt lat="45.7277767" lon="8.54447"><ele>273.0</ele><time>2026-04-18T13:47:27.297Z</time></trkpt><trkpt lat="45.72781" lon="8.5445983"><ele>274.0</ele><time>2026-04-18T13:47:29.298Z</time></trkpt><trkpt lat="45.7278433" lon="8.54472"><ele>275.0</ele><time>2026-04-18T13:47:31.294Z</time></trkpt><trkpt lat="45.72787" lon="8.5448433"><ele>276.0</ele><time>2026-04-18T13:47:33.293Z</time></trkpt><trkpt lat="45.7278967" lon="8.544965"><ele>277.1666666666667</ele><time>2026-04-18T13:47:35.296Z</time></trkpt><trkpt lat="45.7279233" lon="8.5450883"><ele>278.3333333333333</ele><time>2026-04-18T13:47:37.298Z</time></trkpt><trkpt lat="45.72795" lon="8.5452083"><ele>279.5</ele><time>2026-04-18T13:47:39.297Z</time></trkpt><trkpt lat="45.7279733" lon="8.5453117"><ele>280.66666666666663</ele><time>2026-04-18T13:47:41.293Z</time></trkpt><trkpt lat="45.728" lon="8.54542"><ele>281.8333333333333</ele><time>2026-04-18T13:47:44.293Z</time></trkpt><trkpt lat="45.728065" lon="8.545455"><ele>283.0</ele><time>2026-04-18T13:48:00.293Z</time></trkpt><trkpt lat="45.7281167" lon="8.5454033"><ele>283.0</ele><time>2026-04-18T13:48:02.292Z</time></trkpt><trkpt lat="45.7281717" lon="8.5453433"><ele>283.0</ele><time>2026-04-18T13:48:04.293Z</time></trkpt><trkpt lat="45.7282467" lon="8.5452683"><ele>283.0</ele><time>2026-04-18T13:48:07.293Z</time></trkpt><trkpt lat="45.728295" lon="8.54521"><ele>283.0</ele><time>2026-04-18T13:48:09.296Z</time></trkpt><trkpt lat="45.7283467" lon="8.5451367"><ele>283.0</ele><time>2026-04-18T13:48:11.288Z</time></trkpt><trkpt lat="45.7284067" lon="8.5450683"><ele>283.0</ele><time>2026-04-18T13:48:13.293Z</time></trkpt><trkpt lat="45.7284667" lon="8.5450017"><ele>283.0</ele><time>2026-04-18T13:48:15.293Z</time></trkpt><trkpt lat="45.7285417" lon="8.5449183"><ele>283.2857142857143</ele><time>2026-04-18T13:48:18.298Z</time></trkpt><trkpt lat="45.728595" lon="8.5448433"><ele>283.5714285714286</ele><time>2026-04-18T13:48:20.293Z</time></trkpt><trkpt lat="45.7286433" lon="8.5447667"><ele>283.8571428571429</ele><time>2026-04-18T13:48:22.294Z</time></trkpt><trkpt lat="45.7286967" lon="8.5447017"><ele>284.14285714285717</ele><time>2026-04-18T13:48:24.297Z</time></trkpt><trkpt lat="45.7287483" lon="8.5446367"><ele>284.42857142857144</ele><time>2026-04-18T13:48:26.295Z</time></trkpt><trkpt lat="45.728795" lon="8.5445717"><ele>284.7142857142857</ele><time>2026-04-18T13:48:28.294Z</time></trkpt><trkpt lat="45.7288483" lon="8.5445033"><ele>285.0</ele><time>2026-04-18T13:48:30.295Z</time></trkpt><trkpt lat="45.7289033" lon="8.5444533"><ele>285.0</ele><time>2026-04-18T13:48:32.298Z</time></trkpt><trkpt lat="45.7289533" lon="8.5443983"><ele>285.0</ele><time>2026-04-18T13:48:34.295Z</time></trkpt><trkpt lat="45.729005" lon="8.5443283"><ele>285.0</ele><time>2026-04-18T13:48:36.296Z</time></trkpt><trkpt lat="45.7290617" lon="8.5442667"><ele>285.0</ele><time>2026-04-18T13:48:38.295Z</time></trkpt><trkpt lat="45.7291233" lon="8.5442"><ele>285.0</ele><time>2026-04-18T13:48:40.295Z</time></trkpt><trkpt lat="45.7291833" lon="8.544135"><ele>285.0</ele><time>2026-04-18T13:48:42.297Z</time></trkpt><trkpt lat="45.729245" lon="8.5440683"><ele>285.0</ele><time>2026-04-18T13:48:44.295Z</time></trkpt><trkpt lat="45.7293033" lon="8.5440017"><ele>285.0</ele><time>2026-04-18T13:48:46.293Z</time></trkpt><trkpt lat="45.7293517" lon="8.5439417"><ele>285.0</ele><time>2026-04-18T13:48:48.293Z</time></trkpt><trkpt lat="45.7294267" lon="8.54386"><ele>285.0</ele><time>2026-04-18T13:48:51.303Z</time></trkpt><trkpt lat="45.729485" lon="8.5437817"><ele>285.0</ele><time>2026-04-18T13:48:53.296Z</time></trkpt><trkpt lat="45.7295417" lon="8.5437083"><ele>285.0</ele><time>2026-04-18T13:48:55.295Z</time></trkpt><trkpt lat="45.7295917" lon="8.54364"><ele>285.0</ele><time>2026-04-18T13:48:57.293Z</time></trkpt><trkpt lat="45.7296417" lon="8.5435817"><ele>285.0</ele><time>2026-04-18T13:48:59.294Z</time></trkpt><trkpt lat="45.7297083" lon="8.54348"><ele>285.8</ele><time>2026-04-18T13:49:02.293Z</time></trkpt><trkpt lat="45.72975" lon="8.54339"><ele>286.6</ele><time>2026-04-18T13:49:04.293Z</time></trkpt><trkpt lat="45.7298017" lon="8.5432733"><ele>287.4</ele><time>2026-04-18T13:49:06.292Z</time></trkpt><trkpt lat="45.7298667" lon="8.5431617"><ele>288.2</ele><time>2026-04-18T13:49:08.292Z</time></trkpt><trkpt lat="45.7299433" lon="8.543055"><ele>289.0</ele><time>2026-04-18T13:49:10.293Z</time></trkpt><trkpt lat="45.730015" lon="8.5429517"><ele>289.3333333333333</ele><time>2026-04-18T13:49:12.296Z</time></trkpt><trkpt lat="45.7300817" lon="8.5428733"><ele>289.66666666666663</ele><time>2026-04-18T13:49:14.294Z</time></trkpt><trkpt lat="45.7301517" lon="8.5428033"><ele>290.0</ele><time>2026-04-18T13:49:16.295Z</time></trkpt><trkpt lat="45.7302133" lon="8.5427"><ele>290.3333333333333</ele><time>2026-04-18T13:49:18.296Z</time></trkpt><trkpt lat="45.7302817" lon="8.5426183"><ele>290.6666666666667</ele><time>2026-04-18T13:49:20.297Z</time></trkpt><trkpt lat="45.730335" lon="8.54252"><ele>291.0</ele><time>2026-04-18T13:49:22.295Z</time></trkpt><trkpt lat="45.7303833" lon="8.5424433"><ele>291.0</ele><time>2026-04-18T13:49:24.294Z</time></trkpt><trkpt lat="45.7304317" lon="8.542365"><ele>291.0</ele><time>2026-04-18T13:49:26.3Z</time></trkpt><trkpt lat="45.7304733" lon="8.54229"><ele>291.0</ele><time>2026-04-18T13:49:28.297Z</time></trkpt><trkpt lat="45.7305133" lon="8.5422133"><ele>291.0</ele><time>2026-04-18T13:49:30.304Z</time></trkpt><trkpt lat="45.7305533" lon="8.5421433"><ele>291.0</ele><time>2026-04-18T13:49:32.298Z</time></trkpt><trkpt lat="45.7306033" lon="8.5420683"><ele>291.0</ele><time>2026-04-18T13:49:34.295Z</time></trkpt><trkpt lat="45.73065" lon="8.54198"><ele>291.0</ele><time>2026-04-18T13:49:36.299Z</time></trkpt><trkpt lat="45.73069" lon="8.5419017"><ele>290.1428571428571</ele><time>2026-04-18T13:49:38.294Z</time></trkpt><trkpt lat="45.730735" lon="8.541825"><ele>289.2857142857143</ele><time>2026-04-18T13:49:40.295Z</time></trkpt><trkpt lat="45.73078" lon="8.5417433"><ele>288.42857142857144</ele><time>2026-04-18T13:49:42.295Z</time></trkpt><trkpt lat="45.730825" lon="8.5416667"><ele>287.57142857142856</ele><time>2026-04-18T13:49:44.298Z</time></trkpt><trkpt lat="45.7308717" lon="8.541585"><ele>286.7142857142857</ele><time>2026-04-18T13:49:46.293Z</time></trkpt><trkpt lat="45.7309233" lon="8.541515"><ele>285.85714285714283</ele><time>2026-04-18T13:49:48.294Z</time></trkpt><trkpt lat="45.730975" lon="8.5414417"><ele>285.0</ele><time>2026-04-18T13:49:50.3Z</time></trkpt><trkpt lat="45.7310317" lon="8.5413683"><ele>286.0</ele><time>2026-04-18T13:49:52.294Z</time></trkpt><trkpt lat="45.7310867" lon="8.541285"><ele>287.0</ele><time>2026-04-18T13:49:54.294Z</time></trkpt><trkpt lat="45.7311333" lon="8.5411983"><ele>288.0</ele><time>2026-04-18T13:49:56.296Z</time></trkpt><trkpt lat="45.7311833" lon="8.5411167"><ele>289.0</ele><time>2026-04-18T13:49:58.294Z</time></trkpt><trkpt lat="45.731235" lon="8.54104"><ele>290.0</ele><time>2026-04-18T13:50:00.294Z</time></trkpt><trkpt lat="45.7312883" lon="8.5409567"><ele>291.0</ele><time>2026-04-18T13:50:02.29Z</time></trkpt><trkpt lat="45.7313433" lon="8.5408617"><ele>291.0</ele><time>2026-04-18T13:50:04.294Z</time></trkpt><trkpt lat="45.731405" lon="8.540765"><ele>291.0</ele><time>2026-04-18T13:50:06.294Z</time></trkpt><trkpt lat="45.73146" lon="8.54067"><ele>291.0</ele><time>2026-04-18T13:50:08.294Z</time></trkpt><trkpt lat="45.7315333" lon="8.54056"><ele>291.0</ele><time>2026-04-18T13:50:10.291Z</time></trkpt><trkpt lat="45.7316017" lon="8.5404517"><ele>291.0</ele><time>2026-04-18T13:50:12.291Z</time></trkpt><trkpt lat="45.731675" lon="8.5403433"><ele>291.5</ele><time>2026-04-18T13:50:14.295Z</time></trkpt><trkpt lat="45.731745" lon="8.5402517"><ele>292.0</ele><time>2026-04-18T13:50:16.287Z</time></trkpt><trkpt lat="45.7318133" lon="8.5401767"><ele>292.5</ele><time>2026-04-18T13:50:18.289Z</time></trkpt><trkpt lat="45.73188" lon="8.5400983"><ele>293.0</ele><time>2026-04-18T13:50:20.294Z</time></trkpt><trkpt lat="45.7319533" lon="8.5400333"><ele>293.5</ele><time>2026-04-18T13:50:22.294Z</time></trkpt><trkpt lat="45.7320283" lon="8.5399817"><ele>294.0</ele><time>2026-04-18T13:50:24.296Z</time></trkpt><trkpt lat="45.7320917" lon="8.5399233"><ele>294.0</ele><time>2026-04-18T13:50:26.293Z</time></trkpt><trkpt lat="45.7321517" lon="8.53986"><ele>294.0</ele><time>2026-04-18T13:50:28.295Z</time></trkpt><trkpt lat="45.732215" lon="8.5398017"><ele>294.0</ele><time>2026-04-18T13:50:30.298Z</time></trkpt><trkpt lat="45.7322767" lon="8.5397383"><ele>294.0</ele><time>2026-04-18T13:50:32.292Z</time></trkpt><trkpt lat="45.7323367" lon="8.53968"><ele>294.0</ele><time>2026-04-18T13:50:34.295Z</time></trkpt><trkpt lat="45.7323983" lon="8.539615"><ele>294.0</ele><time>2026-04-18T13:50:36.294Z</time></trkpt><trkpt lat="45.7324533" lon="8.5395417"><ele>293.14285714285717</ele><time>2026-04-18T13:50:38.294Z</time></trkpt><trkpt lat="45.73251" lon="8.539465"><ele>292.2857142857143</ele><time>2026-04-18T13:50:40.297Z</time></trkpt><trkpt lat="45.7325683" lon="8.5393983"><ele>291.42857142857144</ele><time>2026-04-18T13:50:42.295Z</time></trkpt><trkpt lat="45.7326217" lon="8.5393367"><ele>290.57142857142856</ele><time>2026-04-18T13:50:44.298Z</time></trkpt><trkpt lat="45.7326733" lon="8.5392767"><ele>289.7142857142857</ele><time>2026-04-18T13:50:46.293Z</time></trkpt><trkpt lat="45.73272" lon="8.53919"><ele>288.8571428571429</ele><time>2026-04-18T13:50:48.298Z</time></trkpt><trkpt lat="45.7327733" lon="8.5391033"><ele>288.0</ele><time>2026-04-18T13:50:50.297Z</time></trkpt><trkpt lat="45.7328283" lon="8.53901"><ele>289.8333333333333</ele><time>2026-04-18T13:50:52.291Z</time></trkpt><trkpt lat="45.7328817" lon="8.538915"><ele>291.6666666666667</ele><time>2026-04-18T13:50:54.293Z</time></trkpt><trkpt lat="45.7329283" lon="8.538825"><ele>293.5</ele><time>2026-04-18T13:50:56.295Z</time></trkpt><trkpt lat="45.732965" lon="8.5387317"><ele>295.33333333333337</ele><time>2026-04-18T13:50:58.296Z</time></trkpt><trkpt lat="45.733" lon="8.538635"><ele>297.1666666666667</ele><time>2026-04-18T13:51:00.296Z</time></trkpt><trkpt lat="45.7330383" lon="8.538545"><ele>299.0</ele><time>2026-04-18T13:51:02.294Z</time></trkpt><trkpt lat="45.7330767" lon="8.5384667"><ele>299.0</ele><time>2026-04-18T13:51:04.292Z</time></trkpt><trkpt lat="45.7331217" lon="8.5383833"><ele>299.0</ele><time>2026-04-18T13:51:06.294Z</time></trkpt><trkpt lat="45.7331633" lon="8.5382933"><ele>299.0</ele><time>2026-04-18T13:51:08.294Z</time></trkpt><trkpt lat="45.7332033" lon="8.5381983"><ele>299.0</ele><time>2026-04-18T13:51:10.294Z</time></trkpt><trkpt lat="45.7332383" lon="8.53811"><ele>299.0</ele><time>2026-04-18T13:51:12.296Z</time></trkpt><trkpt lat="45.733275" lon="8.538035"><ele>299.0</ele><time>2026-04-18T13:51:14.293Z</time></trkpt><trkpt lat="45.73332" lon="8.5379217"><ele>297.57142857142856</ele><time>2026-04-18T13:51:17.296Z</time></trkpt><trkpt lat="45.7333583" lon="8.5378333"><ele>296.14285714285717</ele><time>2026-04-18T13:51:19.292Z</time></trkpt><trkpt lat="45.7334" lon="8.53774"><ele>294.7142857142857</ele><time>2026-04-18T13:51:21.298Z</time></trkpt><trkpt lat="45.73343" lon="8.537635"><ele>293.2857142857143</ele><time>2026-04-18T13:51:23.303Z</time></trkpt><trkpt lat="45.733465" lon="8.5375433"><ele>291.85714285714283</ele><time>2026-04-18T13:51:25.297Z</time></trkpt><trkpt lat="45.7334983" lon="8.53745"><ele>290.42857142857144</ele><time>2026-04-18T13:51:27.297Z</time></trkpt><trkpt lat="45.7335317" lon="8.5373583"><ele>289.0</ele><time>2026-04-18T13:51:29.29Z</time></trkpt><trkpt lat="45.7335617" lon="8.537265"><ele>291.0</ele><time>2026-04-18T13:51:31.294Z</time></trkpt><trkpt lat="45.7335917" lon="8.5371683"><ele>293.0</ele><time>2026-04-18T13:51:33.295Z</time></trkpt><trkpt lat="45.73362" lon="8.537085"><ele>295.0</ele><time>2026-04-18T13:51:35.298Z</time></trkpt><trkpt lat="45.7336467" lon="8.5369967"><ele>297.0</ele><time>2026-04-18T13:51:37.294Z</time></trkpt><trkpt lat="45.7336717" lon="8.5368983"><ele>299.0</ele><time>2026-04-18T13:51:39.292Z</time></trkpt><trkpt lat="45.7336983" lon="8.536805"><ele>301.0</ele><time>2026-04-18T13:51:41.295Z</time></trkpt><trkpt lat="45.7337267" lon="8.5367233"><ele>303.0</ele><time>2026-04-18T13:51:43.293Z</time></trkpt><trkpt lat="45.73375" lon="8.536635"><ele>303.0</ele><time>2026-04-18T13:51:45.293Z</time></trkpt><trkpt lat="45.7337833" lon="8.5365467"><ele>303.0</ele><time>2026-04-18T13:51:47.295Z</time></trkpt><trkpt lat="45.73381" lon="8.5364417"><ele>303.0</ele><time>2026-04-18T13:51:49.296Z</time></trkpt><trkpt lat="45.733845" lon="8.5363433"><ele>303.0</ele><time>2026-04-18T13:51:51.294Z</time></trkpt><trkpt lat="45.733885" lon="8.5362417"><ele>303.0</ele><time>2026-04-18T13:51:53.294Z</time></trkpt><trkpt lat="45.733935" lon="8.5361617"><ele>303.0</ele><time>2026-04-18T13:51:55.295Z</time></trkpt><trkpt lat="45.7339783" lon="8.5360683"><ele>301.5</ele><time>2026-04-18T13:51:57.298Z</time></trkpt><trkpt lat="45.7340167" lon="8.535965"><ele>300.0</ele><time>2026-04-18T13:51:59.299Z</time></trkpt><trkpt lat="45.7340617" lon="8.535865"><ele>298.5</ele><time>2026-04-18T13:52:01.292Z</time></trkpt><trkpt lat="45.734105" lon="8.5357583"><ele>297.0</ele><time>2026-04-18T13:52:03.294Z</time></trkpt><trkpt lat="45.7341517" lon="8.53565"><ele>295.5</ele><time>2026-04-18T13:52:05.294Z</time></trkpt><trkpt lat="45.7341917" lon="8.53554"><ele>294.0</ele><time>2026-04-18T13:52:07.294Z</time></trkpt><trkpt lat="45.734235" lon="8.535435"><ele>295.2</ele><time>2026-04-18T13:52:09.293Z</time></trkpt><trkpt lat="45.7342933" lon="8.535345"><ele>296.4</ele><time>2026-04-18T13:52:11.294Z</time></trkpt><trkpt lat="45.7343633" lon="8.5352683"><ele>297.6</ele><time>2026-04-18T13:52:13.295Z</time></trkpt><trkpt lat="45.7344317" lon="8.5351767"><ele>298.8</ele><time>2026-04-18T13:52:15.29Z</time></trkpt><trkpt lat="45.7345067" lon="8.5350917"><ele>300.0</ele><time>2026-04-18T13:52:17.294Z</time></trkpt><trkpt lat="45.7345767" lon="8.535005"><ele>300.0</ele><time>2026-04-18T13:52:19.294Z</time></trkpt><trkpt lat="45.7346467" lon="8.5349167"><ele>300.0</ele><time>2026-04-18T13:52:21.294Z</time></trkpt><trkpt lat="45.7347117" lon="8.5348267"><ele>300.0</ele><time>2026-04-18T13:52:23.294Z</time></trkpt><trkpt lat="45.7347733" lon="8.5347283"><ele>300.0</ele><time>2026-04-18T13:52:25.295Z</time></trkpt><trkpt lat="45.73484" lon="8.53464"><ele>300.0</ele><time>2026-04-18T13:52:27.294Z</time></trkpt><trkpt lat="45.734915" lon="8.5345817"><ele>300.8</ele><time>2026-04-18T13:52:29.297Z</time></trkpt><trkpt lat="45.7349717" lon="8.5344683"><ele>301.6</ele><time>2026-04-18T13:52:31.293Z</time></trkpt><trkpt lat="45.7350383" lon="8.534375"><ele>302.4</ele><time>2026-04-18T13:52:33.295Z</time></trkpt><trkpt lat="45.7351083" lon="8.5342733"><ele>303.2</ele><time>2026-04-18T13:52:35.293Z</time></trkpt><trkpt lat="45.7351833" lon="8.5341717"><ele>304.0</ele><time>2026-04-18T13:52:37.293Z</time></trkpt><trkpt lat="45.73526" lon="8.5340767"><ele>304.0</ele><time>2026-04-18T13:52:39.292Z</time></trkpt><trkpt lat="45.73534" lon="8.5339817"><ele>304.0</ele><time>2026-04-18T13:52:41.293Z</time></trkpt><trkpt lat="45.735415" lon="8.53389"><ele>304.0</ele><time>2026-04-18T13:52:43.294Z</time></trkpt><trkpt lat="45.735495" lon="8.5338083"><ele>304.0</ele><time>2026-04-18T13:52:45.295Z</time></trkpt><trkpt lat="45.7355717" lon="8.5337133"><ele>304.0</ele><time>2026-04-18T13:52:47.294Z</time></trkpt><trkpt lat="45.7356467" lon="8.5336267"><ele>301.0</ele><time>2026-04-18T13:52:49.296Z</time></trkpt><trkpt lat="45.7357283" lon="8.5335567"><ele>298.0</ele><time>2026-04-18T13:52:51.294Z</time></trkpt><trkpt lat="45.7358083" lon="8.5334867"><ele>295.0</ele><time>2026-04-18T13:52:53.294Z</time></trkpt><trkpt lat="45.7358917" lon="8.5334183"><ele>292.0</ele><time>2026-04-18T13:52:55.294Z</time></trkpt><trkpt lat="45.73597" lon="8.53335"><ele>289.0</ele><time>2026-04-18T13:52:57.294Z</time></trkpt><trkpt lat="45.736045" lon="8.5332783"><ele>289.3333333333333</ele><time>2026-04-18T13:52:59.294Z</time></trkpt><trkpt lat="45.736115" lon="8.5332067"><ele>289.66666666666663</ele><time>2026-04-18T13:53:01.293Z</time></trkpt><trkpt lat="45.7361933" lon="8.5331467"><ele>290.0</ele><time>2026-04-18T13:53:03.293Z</time></trkpt><trkpt lat="45.73627" lon="8.53308"><ele>290.3333333333333</ele><time>2026-04-18T13:53:05.294Z</time></trkpt><trkpt lat="45.73634" lon="8.5330017"><ele>290.6666666666667</ele><time>2026-04-18T13:53:07.296Z</time></trkpt><trkpt lat="45.736405" lon="8.53291"><ele>291.0</ele><time>2026-04-18T13:53:09.297Z</time></trkpt><trkpt lat="45.7364683" lon="8.5328183"><ele>291.0</ele><time>2026-04-18T13:53:11.294Z</time></trkpt><trkpt lat="45.7365317" lon="8.532735"><ele>291.0</ele><time>2026-04-18T13:53:13.297Z</time></trkpt><trkpt lat="45.736585" lon="8.5326333"><ele>291.0</ele><time>2026-04-18T13:53:15.292Z</time></trkpt><trkpt lat="45.736645" lon="8.53253"><ele>291.0</ele><time>2026-04-18T13:53:17.293Z</time></trkpt><trkpt lat="45.7367033" lon="8.5324133"><ele>291.0</ele><time>2026-04-18T13:53:19.293Z</time></trkpt><trkpt lat="45.73678" lon="8.5323283"><ele>291.0</ele><time>2026-04-18T13:53:21.294Z</time></trkpt><trkpt lat="45.7368533" lon="8.5322367"><ele>291.0</ele><time>2026-04-18T13:53:23.294Z</time></trkpt><trkpt lat="45.73693" lon="8.532145"><ele>291.0</ele><time>2026-04-18T13:53:25.294Z</time></trkpt><trkpt lat="45.7370083" lon="8.5320533"><ele>291.0</ele><time>2026-04-18T13:53:27.294Z</time></trkpt><trkpt lat="45.7370917" lon="8.5319533"><ele>291.0</ele><time>2026-04-18T13:53:29.295Z</time></trkpt><trkpt lat="45.7371767" lon="8.5318633"><ele>291.2</ele><time>2026-04-18T13:53:31.297Z</time></trkpt><trkpt lat="45.7372717" lon="8.53181"><ele>291.40000000000003</ele><time>2026-04-18T13:53:33.294Z</time></trkpt><trkpt lat="45.7373583" lon="8.531755"><ele>291.6</ele><time>2026-04-18T13:53:35.294Z</time></trkpt><trkpt lat="45.737445" lon="8.5317033"><ele>291.8</ele><time>2026-04-18T13:53:37.296Z</time></trkpt><trkpt lat="45.7375417" lon="8.5316583"><ele>292.0</ele><time>2026-04-18T13:53:39.297Z</time></trkpt><trkpt lat="45.7376383" lon="8.53161"><ele>293.8</ele><time>2026-04-18T13:53:41.299Z</time></trkpt><trkpt lat="45.73773" lon="8.531565"><ele>295.6</ele><time>2026-04-18T13:53:43.294Z</time></trkpt><trkpt lat="45.7378267" lon="8.5315183"><ele>297.40000000000003</ele><time>2026-04-18T13:53:45.298Z</time></trkpt><trkpt lat="45.7379217" lon="8.531465"><ele>299.2</ele><time>2026-04-18T13:53:47.293Z</time></trkpt><trkpt lat="45.738015" lon="8.531415"><ele>301.0</ele><time>2026-04-18T13:53:49.296Z</time></trkpt><trkpt lat="45.73811" lon="8.531365"><ele>301.0</ele><time>2026-04-18T13:53:51.293Z</time></trkpt><trkpt lat="45.738205" lon="8.531335"><ele>301.0</ele><time>2026-04-18T13:53:53.293Z</time></trkpt><trkpt lat="45.7382933" lon="8.531275"><ele>301.0</ele><time>2026-04-18T13:53:55.294Z</time></trkpt><trkpt lat="45.7383917" lon="8.5312433"><ele>301.0</ele><time>2026-04-18T13:53:57.295Z</time></trkpt><trkpt lat="45.7384883" lon="8.5312033"><ele>301.0</ele><time>2026-04-18T13:53:59.294Z</time></trkpt><trkpt lat="45.7385817" lon="8.5311633"><ele>299.40000000000003</ele><time>2026-04-18T13:54:01.294Z</time></trkpt><trkpt lat="45.73866" lon="8.5311217"><ele>297.8</ele><time>2026-04-18T13:54:03.293Z</time></trkpt><trkpt lat="45.7387417" lon="8.5310783"><ele>296.20000000000005</ele><time>2026-04-18T13:54:05.297Z</time></trkpt><trkpt lat="45.73883" lon="8.5310417"><ele>294.6</ele><time>2026-04-18T13:54:07.294Z</time></trkpt><trkpt lat="45.7389183" lon="8.5309883"><ele>293.0</ele><time>2026-04-18T13:54:09.297Z</time></trkpt><trkpt lat="45.7390083" lon="8.5309517"><ele>293.0</ele><time>2026-04-18T13:54:11.296Z</time></trkpt><trkpt lat="45.7390917" lon="8.5309133"><ele>293.0</ele><time>2026-04-18T13:54:13.294Z</time></trkpt><trkpt lat="45.7391783" lon="8.5308817"><ele>293.0</ele><time>2026-04-18T13:54:15.295Z</time></trkpt><trkpt lat="45.7392633" lon="8.5308317"><ele>293.0</ele><time>2026-04-18T13:54:17.293Z</time></trkpt><trkpt lat="45.7393433" lon="8.530795"><ele>293.0</ele><time>2026-04-18T13:54:19.293Z</time></trkpt><trkpt lat="45.739415" lon="8.5307483"><ele>293.0</ele><time>2026-04-18T13:54:21.294Z</time></trkpt><trkpt lat="45.7394817" lon="8.5307017"><ele>294.33333333333337</ele><time>2026-04-18T13:54:23.294Z</time></trkpt><trkpt lat="45.7395483" lon="8.5306483"><ele>295.6666666666667</ele><time>2026-04-18T13:54:25.294Z</time></trkpt><trkpt lat="45.7396183" lon="8.530635"><ele>297.0</ele><time>2026-04-18T13:54:28.292Z</time></trkpt><trkpt lat="45.7396667" lon="8.53057"><ele>298.3333333333333</ele><time>2026-04-18T13:54:51.292Z</time></trkpt><trkpt lat="45.739745" lon="8.5305417"><ele>299.66666666666663</ele><time>2026-04-18T13:54:53.294Z</time></trkpt><trkpt lat="45.73985" lon="8.5304717"><ele>301.0</ele><time>2026-04-18T13:54:55.292Z</time></trkpt><trkpt lat="45.7399467" lon="8.530395"><ele>299.5</ele><time>2026-04-18T13:54:57.293Z</time></trkpt><trkpt lat="45.7400483" lon="8.5303233"><ele>298.0</ele><time>2026-04-18T13:54:59.294Z</time></trkpt><trkpt lat="45.7401133" lon="8.5302917"><ele>296.5</ele><time>2026-04-18T13:55:00.291Z</time></trkpt><trkpt lat="45.7401833" lon="8.5302517"><ele>295.0</ele><time>2026-04-18T13:55:01.292Z</time></trkpt><trkpt lat="45.740255" lon="8.5302167"><ele>293.5</ele><time>2026-04-18T13:55:02.293Z</time></trkpt><trkpt lat="45.7403267" lon="8.5301833"><ele>292.0</ele><time>2026-04-18T13:55:03.295Z</time></trkpt><trkpt lat="45.740405" lon="8.53016"><ele>292.0</ele><time>2026-04-18T13:55:04.295Z</time></trkpt><trkpt lat="45.7404867" lon="8.5301467"><ele>292.0</ele><time>2026-04-18T13:55:05.297Z</time></trkpt><trkpt lat="45.7405683" lon="8.5301383"><ele>292.0</ele><time>2026-04-18T13:55:06.3Z</time></trkpt><trkpt lat="45.740645" lon="8.530125"><ele>292.0</ele><time>2026-04-18T13:55:07.295Z</time></trkpt><trkpt lat="45.7407233" lon="8.5301117"><ele>292.0</ele><time>2026-04-18T13:55:08.292Z</time></trkpt><trkpt lat="45.7408" lon="8.5301033"><ele>292.0</ele><time>2026-04-18T13:55:09.294Z</time></trkpt><trkpt lat="45.7408733" lon="8.5300883"><ele>292.0</ele><time>2026-04-18T13:55:10.297Z</time></trkpt><trkpt lat="45.7409433" lon="8.53007"><ele>292.0</ele><time>2026-04-18T13:55:11.296Z</time></trkpt><trkpt lat="45.7410083" lon="8.5300467"><ele>292.0</ele><time>2026-04-18T13:55:12.296Z</time></trkpt><trkpt lat="45.7410733" lon="8.5300217"><ele>292.0</ele><time>2026-04-18T13:55:13.295Z</time></trkpt><trkpt lat="45.7411383" lon="8.5299983"><ele>292.0</ele><time>2026-04-18T13:55:14.296Z</time></trkpt><trkpt lat="45.7412017" lon="8.5299817"><ele>292.0</ele><time>2026-04-18T13:55:15.295Z</time></trkpt><trkpt lat="45.7412633" lon="8.5299617"><ele>292.0</ele><time>2026-04-18T13:55:16.294Z</time></trkpt><trkpt lat="45.7413817" lon="8.5299183"><ele>293.4</ele><time>2026-04-18T13:55:18.293Z</time></trkpt><trkpt lat="45.7414867" lon="8.529875"><ele>294.79999999999995</ele><time>2026-04-18T13:55:20.295Z</time></trkpt><trkpt lat="45.741585" lon="8.5298367"><ele>296.2</ele><time>2026-04-18T13:55:22.295Z</time></trkpt><trkpt lat="45.7416817" lon="8.5297917"><ele>297.59999999999997</ele><time>2026-04-18T13:55:24.295Z</time></trkpt><trkpt lat="45.7417767" lon="8.5297417"><ele>299.0</ele><time>2026-04-18T13:55:26.297Z</time></trkpt><trkpt lat="45.7418733" lon="8.5296867"><ele>299.0</ele><time>2026-04-18T13:55:28.295Z</time></trkpt><trkpt lat="45.7419567" lon="8.5296317"><ele>299.0</ele><time>2026-04-18T13:55:30.297Z</time></trkpt><trkpt lat="45.7420367" lon="8.5295733"><ele>299.0</ele><time>2026-04-18T13:55:32.298Z</time></trkpt><trkpt lat="45.7421067" lon="8.529515"><ele>299.0</ele><time>2026-04-18T13:55:34.292Z</time></trkpt><trkpt lat="45.7421733" lon="8.5294733"><ele>299.0</ele><time>2026-04-18T13:55:37.3Z</time></trkpt><trkpt lat="45.7421383" lon="8.5295833"><ele>299.0</ele><time>2026-04-18T13:55:46.295Z</time></trkpt><trkpt lat="45.742075" lon="8.529665"><ele>299.0</ele><time>2026-04-18T13:55:48.293Z</time></trkpt><trkpt lat="45.74203" lon="8.5297567"><ele>299.0</ele><time>2026-04-18T13:55:50.295Z</time></trkpt><trkpt lat="45.7420017" lon="8.5298883"><ele>299.0</ele><time>2026-04-18T13:55:53.298Z</time></trkpt><trkpt lat="45.74199" lon="8.53008"><ele>299.0</ele><time>2026-04-18T13:56:14.294Z</time></trkpt><trkpt lat="45.7419633" lon="8.5301667"><ele>299.0</ele><time>2026-04-18T13:56:17.293Z</time></trkpt><trkpt lat="45.7419283" lon="8.530255"><ele>299.0</ele><time>2026-04-18T13:56:20.299Z</time></trkpt><trkpt lat="45.7418767" lon="8.5303317"><ele>301.0</ele><time>2026-04-18T13:56:23.295Z</time></trkpt><trkpt lat="45.74181" lon="8.5303983"><ele>303.0</ele><time>2026-04-18T13:56:26.294Z</time></trkpt><trkpt lat="45.7417217" lon="8.5304333"><ele>305.0</ele><time>2026-04-18T13:56:29.296Z</time></trkpt><trkpt lat="45.7416383" lon="8.530495"><ele>307.0</ele><time>2026-04-18T13:56:32.297Z</time></trkpt><trkpt lat="45.7415783" lon="8.53053"><ele>309.0</ele><time>2026-04-18T13:56:34.294Z</time></trkpt><trkpt lat="45.7415067" lon="8.5305683"><ele>311.0</ele><time>2026-04-18T13:56:37.293Z</time></trkpt><trkpt lat="45.7414333" lon="8.5306233"><ele>311.0</ele><time>2026-04-18T13:56:41.297Z</time></trkpt><trkpt lat="45.741375" lon="8.5306633"><ele>311.0</ele><time>2026-04-18T13:56:44.294Z</time></trkpt><trkpt lat="45.7413167" lon="8.5307067"><ele>311.0</ele><time>2026-04-18T13:56:47.294Z</time></trkpt><trkpt lat="45.7412417" lon="8.5307483"><ele>311.0</ele><time>2026-04-18T13:56:50.294Z</time></trkpt><trkpt lat="45.7411683" lon="8.5307883"><ele>311.0</ele><time>2026-04-18T13:56:53.294Z</time></trkpt><trkpt lat="45.7410867" lon="8.530845"><ele>311.0</ele><time>2026-04-18T13:56:56.295Z</time></trkpt><trkpt lat="45.741005" lon="8.5308933"><ele>310.33333333333337</ele><time>2026-04-18T13:56:59.292Z</time></trkpt><trkpt lat="45.74092" lon="8.5309367"><ele>309.6666666666667</ele><time>2026-04-18T13:57:02.294Z</time></trkpt><trkpt lat="45.740855" lon="8.531"><ele>309.0</ele><time>2026-04-18T13:57:05.294Z</time></trkpt><trkpt lat="45.7407967" lon="8.5310383"><ele>308.3333333333333</ele><time>2026-04-18T13:57:07.291Z</time></trkpt><trkpt lat="45.7407267" lon="8.5310733"><ele>307.66666666666663</ele><time>2026-04-18T13:57:09.296Z</time></trkpt><trkpt lat="45.7406633" lon="8.5310967"><ele>307.0</ele><time>2026-04-18T13:57:11.295Z</time></trkpt><trkpt lat="45.7405783" lon="8.5311167"><ele>306.99999999999994</ele><time>2026-04-18T13:57:13.298Z</time></trkpt><trkpt lat="45.740515" lon="8.5311283"><ele>307.0</ele><time>2026-04-18T13:57:15.294Z</time></trkpt><trkpt lat="45.7404533" lon="8.531155"><ele>307.0</ele><time>2026-04-18T13:57:17.294Z</time></trkpt><trkpt lat="45.7403667" lon="8.5311867"><ele>307.0</ele><time>2026-04-18T13:57:20.296Z</time></trkpt><trkpt lat="45.7402883" lon="8.53121"><ele>307.0</ele><time>2026-04-18T13:57:23.293Z</time></trkpt><trkpt lat="45.740225" lon="8.5312317"><ele>306.99999999999994</ele><time>2026-04-18T13:57:26.295Z</time></trkpt><trkpt lat="45.7401433" lon="8.5312517"><ele>307.0</ele><time>2026-04-18T13:57:30.294Z</time></trkpt><trkpt lat="45.7400583" lon="8.5312683"><ele>307.3333333333333</ele><time>2026-04-18T13:57:33.298Z</time></trkpt><trkpt lat="45.73999" lon="8.531305"><ele>307.66666666666663</ele><time>2026-04-18T13:57:35.296Z</time></trkpt><trkpt lat="45.7399083" lon="8.531355"><ele>308.0</ele><time>2026-04-18T13:57:38.295Z</time></trkpt><trkpt lat="45.7398283" lon="8.5314067"><ele>308.3333333333333</ele><time>2026-04-18T13:57:41.295Z</time></trkpt><trkpt lat="45.7397567" lon="8.5314767"><ele>308.6666666666667</ele><time>2026-04-18T13:57:44.296Z</time></trkpt><trkpt lat="45.739675" lon="8.531535"><ele>309.0</ele><time>2026-04-18T13:57:47.294Z</time></trkpt><trkpt lat="45.7395933" lon="8.5316133"><ele>309.0</ele><time>2026-04-18T13:57:50.291Z</time></trkpt><trkpt lat="45.7395383" lon="8.531665"><ele>309.0</ele><time>2026-04-18T13:57:52.293Z</time></trkpt><trkpt lat="45.7394617" lon="8.531725"><ele>309.0</ele><time>2026-04-18T13:57:55.296Z</time></trkpt><trkpt lat="45.7394" lon="8.5318"><ele>309.0</ele><time>2026-04-18T13:57:58.292Z</time></trkpt><trkpt lat="45.7393467" lon="8.5318617"><ele>309.0</ele><time>2026-04-18T13:58:01.294Z</time></trkpt><trkpt lat="45.7392733" lon="8.5318917"><ele>309.0</ele><time>2026-04-18T13:58:04.296Z</time></trkpt><trkpt lat="45.7392083" lon="8.531945"><ele>308.8571428571429</ele><time>2026-04-18T13:58:07.294Z</time></trkpt><trkpt lat="45.7391467" lon="8.5319933"><ele>308.7142857142857</ele><time>2026-04-18T13:58:10.293Z</time></trkpt><trkpt lat="45.739075" lon="8.53204"><ele>308.57142857142856</ele><time>2026-04-18T13:58:13.296Z</time></trkpt><trkpt lat="45.73902" lon="8.5320883"><ele>308.42857142857144</ele><time>2026-04-18T13:58:15.292Z</time></trkpt><trkpt lat="45.7389667" lon="8.5321367"><ele>308.2857142857143</ele><time>2026-04-18T13:58:17.294Z</time></trkpt><trkpt lat="45.7389033" lon="8.5321783"><ele>308.14285714285717</ele><time>2026-04-18T13:58:19.295Z</time></trkpt><trkpt lat="45.7388133" lon="8.532235"><ele>308.0</ele><time>2026-04-18T13:58:22.293Z</time></trkpt><trkpt lat="45.7387517" lon="8.5322733"><ele>308.5</ele><time>2026-04-18T13:58:24.295Z</time></trkpt><trkpt lat="45.738685" lon="8.5323483"><ele>309.0</ele><time>2026-04-18T13:58:27.292Z</time></trkpt><trkpt lat="45.73862" lon="8.5324117"><ele>309.5</ele><time>2026-04-18T13:58:30.296Z</time></trkpt><trkpt lat="45.7385633" lon="8.5324733"><ele>310.0</ele><time>2026-04-18T13:58:33.293Z</time></trkpt><trkpt lat="45.73848" lon="8.532535"><ele>310.5</ele><time>2026-04-18T13:58:36.294Z</time></trkpt><trkpt lat="45.7384017" lon="8.5326"><ele>311.0</ele><time>2026-04-18T13:58:38.297Z</time></trkpt><trkpt lat="45.73834" lon="8.5326467"><ele>311.0</ele><time>2026-04-18T13:58:40.291Z</time></trkpt><trkpt lat="45.738255" lon="8.5326817"><ele>311.0</ele><time>2026-04-18T13:58:43.297Z</time></trkpt><trkpt lat="45.7381833" lon="8.532765"><ele>311.0</ele><time>2026-04-18T13:58:46.3Z</time></trkpt><trkpt lat="45.73812" lon="8.5328367"><ele>311.0</ele><time>2026-04-18T13:58:49.292Z</time></trkpt><trkpt lat="45.7380517" lon="8.5328967"><ele>311.0</ele><time>2026-04-18T13:58:52.294Z</time></trkpt><trkpt lat="45.7379717" lon="8.53296"><ele>311.0</ele><time>2026-04-18T13:58:55.298Z</time></trkpt><trkpt lat="45.7379117" lon="8.5330067"><ele>311.1666666666667</ele><time>2026-04-18T13:58:57.292Z</time></trkpt><trkpt lat="45.7378467" lon="8.5330533"><ele>311.33333333333337</ele><time>2026-04-18T13:59:00.296Z</time></trkpt><trkpt lat="45.7377733" lon="8.5331083"><ele>311.5</ele><time>2026-04-18T13:59:03.291Z</time></trkpt><trkpt lat="45.7377133" lon="8.53316"><ele>311.6666666666667</ele><time>2026-04-18T13:59:05.293Z</time></trkpt><trkpt lat="45.7376283" lon="8.533215"><ele>311.8333333333333</ele><time>2026-04-18T13:59:08.296Z</time></trkpt><trkpt lat="45.7375767" lon="8.5332767"><ele>312.0</ele><time>2026-04-18T13:59:10.295Z</time></trkpt><trkpt lat="45.7375017" lon="8.5333"><ele>312.0</ele><time>2026-04-18T13:59:12.293Z</time></trkpt><trkpt lat="45.7374367" lon="8.5333583"><ele>312.0</ele><time>2026-04-18T13:59:15.293Z</time></trkpt><trkpt lat="45.7373767" lon="8.5333883"><ele>312.0</ele><time>2026-04-18T13:59:19.3Z</time></trkpt><trkpt lat="45.7373067" lon="8.5334317"><ele>312.0</ele><time>2026-04-18T13:59:22.294Z</time></trkpt><trkpt lat="45.73723" lon="8.533535"><ele>312.0</ele><time>2026-04-18T13:59:26.292Z</time></trkpt><trkpt lat="45.73716" lon="8.5335917"><ele>312.0</ele><time>2026-04-18T13:59:28.294Z</time></trkpt><trkpt lat="45.737085" lon="8.53365"><ele>312.0</ele><time>2026-04-18T13:59:30.299Z</time></trkpt><trkpt lat="45.7370217" lon="8.5336983"><ele>312.0</ele><time>2026-04-18T13:59:32.294Z</time></trkpt><trkpt lat="45.7369517" lon="8.5337717"><ele>312.0</ele><time>2026-04-18T13:59:35.294Z</time></trkpt><trkpt lat="45.7369083" lon="8.533845"><ele>312.0</ele><time>2026-04-18T13:59:38.298Z</time></trkpt><trkpt lat="45.73687" lon="8.533935"><ele>312.0</ele><time>2026-04-18T13:59:43.294Z</time></trkpt><trkpt lat="45.7368383" lon="8.53403"><ele>312.0</ele><time>2026-04-18T13:59:47.293Z</time></trkpt><trkpt lat="45.7367967" lon="8.5341217"><ele>312.0</ele><time>2026-04-18T13:59:50.293Z</time></trkpt><trkpt lat="45.7367383" lon="8.5342167"><ele>312.1666666666667</ele><time>2026-04-18T13:59:53.294Z</time></trkpt><trkpt lat="45.73668" lon="8.5343033"><ele>312.3333333333333</ele><time>2026-04-18T13:59:56.303Z</time></trkpt><trkpt lat="45.7366417" lon="8.5343983"><ele>312.5</ele><time>2026-04-18T13:59:59.292Z</time></trkpt><trkpt lat="45.7365883" lon="8.5345033"><ele>312.66666666666663</ele><time>2026-04-18T14:00:02.288Z</time></trkpt><trkpt lat="45.7365633" lon="8.53459"><ele>312.8333333333333</ele><time>2026-04-18T14:00:04.286Z</time></trkpt><trkpt lat="45.7365417" lon="8.53468"><ele>313.0</ele><time>2026-04-18T14:00:06.295Z</time></trkpt><trkpt lat="45.736515" lon="8.53477"><ele>313.8333333333333</ele><time>2026-04-18T14:00:08.295Z</time></trkpt><trkpt lat="45.7364617" lon="8.5348883"><ele>314.66666666666663</ele><time>2026-04-18T14:00:11.294Z</time></trkpt><trkpt lat="45.7364217" lon="8.535"><ele>315.5</ele><time>2026-04-18T14:00:14.294Z</time></trkpt><trkpt lat="45.7364017" lon="8.535105"><ele>316.3333333333333</ele><time>2026-04-18T14:00:17.297Z</time></trkpt><trkpt lat="45.7363817" lon="8.5352117"><ele>317.1666666666667</ele><time>2026-04-18T14:00:20.296Z</time></trkpt><trkpt lat="45.736345" lon="8.53531"><ele>318.0</ele><time>2026-04-18T14:00:23.293Z</time></trkpt><trkpt lat="45.7363067" lon="8.535415"><ele>318.0</ele><time>2026-04-18T14:00:26.29Z</time></trkpt><trkpt lat="45.73626" lon="8.5355083"><ele>318.0</ele><time>2026-04-18T14:00:29.293Z</time></trkpt><trkpt lat="45.73623" lon="8.535635"><ele>318.0</ele><time>2026-04-18T14:00:32.297Z</time></trkpt><trkpt lat="45.736185" lon="8.53573"><ele>318.0</ele><time>2026-04-18T14:00:35.295Z</time></trkpt><trkpt lat="45.73613" lon="8.5358167"><ele>318.0</ele><time>2026-04-18T14:00:38.295Z</time></trkpt><trkpt lat="45.736055" lon="8.5358967"><ele>318.0</ele><time>2026-04-18T14:00:41.293Z</time></trkpt><trkpt lat="45.7359967" lon="8.53599"><ele>318.0</ele><time>2026-04-18T14:00:44.295Z</time></trkpt><trkpt lat="45.7359333" lon="8.5360933"><ele>318.0</ele><time>2026-04-18T14:00:47.295Z</time></trkpt><trkpt lat="45.7358833" lon="8.5361567"><ele>318.0</ele><time>2026-04-18T14:00:49.297Z</time></trkpt><trkpt lat="45.7358233" lon="8.5362283"><ele>318.0</ele><time>2026-04-18T14:00:52.293Z</time></trkpt><trkpt lat="45.7357683" lon="8.5362983"><ele>318.0</ele><time>2026-04-18T14:00:55.296Z</time></trkpt><trkpt lat="45.7357033" lon="8.5363633"><ele>318.0</ele><time>2026-04-18T14:00:58.292Z</time></trkpt><trkpt lat="45.7356467" lon="8.536425"><ele>318.6666666666667</ele><time>2026-04-18T14:01:01.295Z</time></trkpt><trkpt lat="45.735575" lon="8.5365117"><ele>319.3333333333333</ele><time>2026-04-18T14:01:04.297Z</time></trkpt><trkpt lat="45.7355067" lon="8.5366017"><ele>320.0</ele><time>2026-04-18T14:01:07.293Z</time></trkpt><trkpt lat="45.73545" lon="8.5366617"><ele>320.66666666666663</ele><time>2026-04-18T14:01:09.292Z</time></trkpt><trkpt lat="45.7353817" lon="8.5367417"><ele>321.3333333333333</ele><time>2026-04-18T14:01:12.293Z</time></trkpt><trkpt lat="45.7352983" lon="8.5367983"><ele>322.0</ele><time>2026-04-18T14:01:15.293Z</time></trkpt><trkpt lat="45.7352417" lon="8.536885"><ele>321.8333333333333</ele><time>2026-04-18T14:01:18.294Z</time></trkpt><trkpt lat="45.735175" lon="8.5370017"><ele>321.66666666666663</ele><time>2026-04-18T14:01:24.294Z</time></trkpt><trkpt lat="45.735095" lon="8.5370683"><ele>321.5</ele><time>2026-04-18T14:01:27.302Z</time></trkpt><trkpt lat="45.7350317" lon="8.5371383"><ele>321.3333333333333</ele><time>2026-04-18T14:01:30.297Z</time></trkpt><trkpt lat="45.73497" lon="8.5371867"><ele>321.1666666666667</ele><time>2026-04-18T14:01:32.296Z</time></trkpt><trkpt lat="45.7349017" lon="8.53724"><ele>321.0</ele><time>2026-04-18T14:01:35.295Z</time></trkpt><trkpt lat="45.73483" lon="8.53726"><ele>321.0</ele><time>2026-04-18T14:01:37.295Z</time></trkpt><trkpt lat="45.73477" lon="8.5373467"><ele>321.0</ele><time>2026-04-18T14:01:40.298Z</time></trkpt><trkpt lat="45.7346917" lon="8.5374033"><ele>321.0</ele><time>2026-04-18T14:01:43.296Z</time></trkpt><trkpt lat="45.7346267" lon="8.5374833"><ele>321.0</ele><time>2026-04-18T14:01:46.295Z</time></trkpt><trkpt lat="45.73458" lon="8.5375467"><ele>321.0</ele><time>2026-04-18T14:01:48.297Z</time></trkpt><trkpt lat="45.734535" lon="8.53761"><ele>321.0</ele><time>2026-04-18T14:01:50.295Z</time></trkpt><trkpt lat="45.7344817" lon="8.53768"><ele>321.0</ele><time>2026-04-18T14:01:52.294Z</time></trkpt><trkpt lat="45.734415" lon="8.5377667"><ele>321.0</ele><time>2026-04-18T14:01:55.295Z</time></trkpt><trkpt lat="45.7343583" lon="8.53786"><ele>321.0</ele><time>2026-04-18T14:01:58.296Z</time></trkpt><trkpt lat="45.7343133" lon="8.5379667"><ele>321.0</ele><time>2026-04-18T14:02:01.292Z</time></trkpt><trkpt lat="45.734275" lon="8.5380817"><ele>321.0</ele><time>2026-04-18T14:02:04.295Z</time></trkpt><trkpt lat="45.734235" lon="8.53819"><ele>321.0</ele><time>2026-04-18T14:02:07.294Z</time></trkpt><trkpt lat="45.7341967" lon="8.5383233"><ele>321.0</ele><time>2026-04-18T14:02:10.295Z</time></trkpt><trkpt lat="45.7341467" lon="8.5384217"><ele>321.0</ele><time>2026-04-18T14:02:13.294Z</time></trkpt><trkpt lat="45.734105" lon="8.538545"><ele>321.0</ele><time>2026-04-18T14:02:16.294Z</time></trkpt><trkpt lat="45.7340717" lon="8.5386617"><ele>321.0</ele><time>2026-04-18T14:02:19.294Z</time></trkpt><trkpt lat="45.734045" lon="8.538745"><ele>321.0</ele><time>2026-04-18T14:02:21.294Z</time></trkpt><trkpt lat="45.7340283" lon="8.5388433"><ele>321.0</ele><time>2026-04-18T14:02:23.296Z</time></trkpt><trkpt lat="45.7340033" lon="8.53898"><ele>321.6666666666667</ele><time>2026-04-18T14:02:26.295Z</time></trkpt><trkpt lat="45.7339633" lon="8.53908"><ele>322.3333333333333</ele><time>2026-04-18T14:02:29.296Z</time></trkpt><trkpt lat="45.7339683" lon="8.5392"><ele>323.0</ele><time>2026-04-18T14:02:32.294Z</time></trkpt><trkpt lat="45.733965" lon="8.5393117"><ele>323.66666666666663</ele><time>2026-04-18T14:02:34.295Z</time></trkpt><trkpt lat="45.733965" lon="8.5394133"><ele>324.3333333333333</ele><time>2026-04-18T14:02:36.29Z</time></trkpt><trkpt lat="45.733955" lon="8.5395533"><ele>325.0</ele><time>2026-04-18T14:02:39.295Z</time></trkpt><trkpt lat="45.7339483" lon="8.5396717"><ele>325.16666666666663</ele><time>2026-04-18T14:02:42.294Z</time></trkpt><trkpt lat="45.7339533" lon="8.5398067"><ele>325.3333333333333</ele><time>2026-04-18T14:02:45.295Z</time></trkpt><trkpt lat="45.7339433" lon="8.5399"><ele>325.5</ele><time>2026-04-18T14:02:47.294Z</time></trkpt><trkpt lat="45.73395" lon="8.5400283"><ele>325.6666666666667</ele><time>2026-04-18T14:02:50.295Z</time></trkpt><trkpt lat="45.733935" lon="8.5401167"><ele>325.83333333333337</ele><time>2026-04-18T14:02:52.295Z</time></trkpt><trkpt lat="45.7339083" lon="8.54023"><ele>326.0</ele><time>2026-04-18T14:02:55.294Z</time></trkpt><trkpt lat="45.7339083" lon="8.5403433"><ele>325.7142857142857</ele><time>2026-04-18T14:02:58.295Z</time></trkpt><trkpt lat="45.7339067" lon="8.5404367"><ele>325.4285714285714</ele><time>2026-04-18T14:03:00.295Z</time></trkpt><trkpt lat="45.7339083" lon="8.5405317"><ele>325.1428571428571</ele><time>2026-04-18T14:03:02.296Z</time></trkpt><trkpt lat="45.7339167" lon="8.540625"><ele>324.8571428571429</ele><time>2026-04-18T14:03:04.296Z</time></trkpt><trkpt lat="45.7338967" lon="8.5407167"><ele>324.57142857142856</ele><time>2026-04-18T14:03:06.295Z</time></trkpt><trkpt lat="45.7338817" lon="8.5408433"><ele>324.2857142857143</ele><time>2026-04-18T14:03:09.298Z</time></trkpt><trkpt lat="45.733855" lon="8.54094"><ele>324.0</ele><time>2026-04-18T14:03:12.296Z</time></trkpt><trkpt lat="45.7338617" lon="8.5411283"><ele>324.1666666666667</ele><time>2026-04-18T14:03:26.297Z</time></trkpt><trkpt lat="45.73388" lon="8.5412183"><ele>324.3333333333333</ele><time>2026-04-18T14:03:29.293Z</time></trkpt><trkpt lat="45.7339083" lon="8.5413167"><ele>324.5</ele><time>2026-04-18T14:03:32.294Z</time></trkpt><trkpt lat="45.7339367" lon="8.5414133"><ele>324.66666666666663</ele><time>2026-04-18T14:03:35.291Z</time></trkpt><trkpt lat="45.7340067" lon="8.5415083"><ele>324.8333333333333</ele><time>2026-04-18T14:03:38.295Z</time></trkpt><trkpt lat="45.7340633" lon="8.54156"><ele>325.0</ele><time>2026-04-18T14:03:40.293Z</time></trkpt><trkpt lat="45.7341467" lon="8.5415983"><ele>325.0</ele><time>2026-04-18T14:03:43.294Z</time></trkpt><trkpt lat="45.7342283" lon="8.5416117"><ele>325.0</ele><time>2026-04-18T14:03:47.293Z</time></trkpt><trkpt lat="45.734295" lon="8.5416433"><ele>325.0</ele><time>2026-04-18T14:03:51.295Z</time></trkpt><trkpt lat="45.7343567" lon="8.5416933"><ele>325.0</ele><time>2026-04-18T14:03:55.293Z</time></trkpt><trkpt lat="45.734435" lon="8.5417417"><ele>325.0</ele><time>2026-04-18T14:03:59.295Z</time></trkpt><trkpt lat="45.7344883" lon="8.5417933"><ele>325.0</ele><time>2026-04-18T14:04:01.295Z</time></trkpt><trkpt lat="45.7345417" lon="8.5418533"><ele>325.0</ele><time>2026-04-18T14:04:03.294Z</time></trkpt><trkpt lat="45.7346033" lon="8.54192"><ele>324.8</ele><time>2026-04-18T14:04:05.294Z</time></trkpt><trkpt lat="45.73467" lon="8.5419833"><ele>324.6</ele><time>2026-04-18T14:04:07.295Z</time></trkpt><trkpt lat="45.7347467" lon="8.54207"><ele>324.4</ele><time>2026-04-18T14:04:09.294Z</time></trkpt><trkpt lat="45.7348233" lon="8.5421783"><ele>324.2</ele><time>2026-04-18T14:04:11.295Z</time></trkpt><trkpt lat="45.7349017" lon="8.542275"><ele>324.0</ele><time>2026-04-18T14:04:13.295Z</time></trkpt><trkpt lat="45.73497" lon="8.5423567"><ele>324.0</ele><time>2026-04-18T14:04:15.293Z</time></trkpt><trkpt lat="45.735045" lon="8.5424367"><ele>324.0</ele><time>2026-04-18T14:04:17.293Z</time></trkpt><trkpt lat="45.7351367" lon="8.542535"><ele>324.0</ele><time>2026-04-18T14:04:19.296Z</time></trkpt><trkpt lat="45.73521" lon="8.542615"><ele>324.0</ele><time>2026-04-18T14:04:21.297Z</time></trkpt><trkpt lat="45.73527" lon="8.5426767"><ele>324.0</ele><time>2026-04-18T14:04:23.295Z</time></trkpt><trkpt lat="45.7353267" lon="8.5427533"><ele>323.3333333333333</ele><time>2026-04-18T14:04:25.301Z</time></trkpt><trkpt lat="45.7354" lon="8.5428367"><ele>322.6666666666667</ele><time>2026-04-18T14:04:27.293Z</time></trkpt><trkpt lat="45.7354683" lon="8.54292"><ele>322.0</ele><time>2026-04-18T14:04:29.295Z</time></trkpt><trkpt lat="45.7355283" lon="8.5429867"><ele>321.33333333333337</ele><time>2026-04-18T14:04:31.296Z</time></trkpt><trkpt lat="45.7355967" lon="8.5430417"><ele>320.6666666666667</ele><time>2026-04-18T14:04:33.295Z</time></trkpt><trkpt lat="45.73565" lon="8.5431083"><ele>320.0</ele><time>2026-04-18T14:04:35.296Z</time></trkpt><trkpt lat="45.7357117" lon="8.54317"><ele>320.0</ele><time>2026-04-18T14:04:37.294Z</time></trkpt><trkpt lat="45.7357783" lon="8.5432267"><ele>320.0</ele><time>2026-04-18T14:04:39.297Z</time></trkpt><trkpt lat="45.735845" lon="8.5432967"><ele>320.0</ele><time>2026-04-18T14:04:41.294Z</time></trkpt><trkpt lat="45.735905" lon="8.5433633"><ele>320.0</ele><time>2026-04-18T14:04:43.296Z</time></trkpt><trkpt lat="45.7359583" lon="8.5434333"><ele>320.0</ele><time>2026-04-18T14:04:45.294Z</time></trkpt><trkpt lat="45.7360283" lon="8.543525"><ele>320.0</ele><time>2026-04-18T14:04:47.296Z</time></trkpt><trkpt lat="45.7361233" lon="8.5436367"><ele>319.0</ele><time>2026-04-18T14:04:49.3Z</time></trkpt><trkpt lat="45.7361783" lon="8.5437017"><ele>318.0</ele><time>2026-04-18T14:04:50.298Z</time></trkpt><trkpt lat="45.7362333" lon="8.543765"><ele>317.0</ele><time>2026-04-18T14:04:51.296Z</time></trkpt><trkpt lat="45.736285" lon="8.5438283"><ele>316.0</ele><time>2026-04-18T14:04:52.293Z</time></trkpt><trkpt lat="45.7363467" lon="8.5438917"><ele>315.0</ele><time>2026-04-18T14:04:53.296Z</time></trkpt><trkpt lat="45.736405" lon="8.54396"><ele>314.0</ele><time>2026-04-18T14:04:54.3Z</time></trkpt><trkpt lat="45.7364767" lon="8.5440367"><ele>313.5</ele><time>2026-04-18T14:04:55.299Z</time></trkpt><trkpt lat="45.7365517" lon="8.5441117"><ele>313.0</ele><time>2026-04-18T14:04:56.296Z</time></trkpt><trkpt lat="45.73662" lon="8.5441883"><ele>312.5</ele><time>2026-04-18T14:04:57.293Z</time></trkpt><trkpt lat="45.73669" lon="8.544265"><ele>312.0</ele><time>2026-04-18T14:04:58.293Z</time></trkpt><trkpt lat="45.7367533" lon="8.544335"><ele>311.5</ele><time>2026-04-18T14:04:59.293Z</time></trkpt><trkpt lat="45.7368167" lon="8.5443983"><ele>311.0</ele><time>2026-04-18T14:05:00.295Z</time></trkpt><trkpt lat="45.7368733" lon="8.5444567"><ele>310.8</ele><time>2026-04-18T14:05:01.293Z</time></trkpt><trkpt lat="45.7369317" lon="8.544515"><ele>310.6</ele><time>2026-04-18T14:05:02.296Z</time></trkpt><trkpt lat="45.736985" lon="8.54457"><ele>310.4</ele><time>2026-04-18T14:05:03.294Z</time></trkpt><trkpt lat="45.73706" lon="8.5446967"><ele>310.2</ele><time>2026-04-18T14:05:05.297Z</time></trkpt><trkpt lat="45.7370217" lon="8.5448217"><ele>310.0</ele><time>2026-04-18T14:05:08.297Z</time></trkpt><trkpt lat="45.736925" lon="8.5448717"><ele>310.0</ele><time>2026-04-18T14:05:10.294Z</time></trkpt><trkpt lat="45.7368617" lon="8.5449433"><ele>310.0</ele><time>2026-04-18T14:05:12.292Z</time></trkpt><trkpt lat="45.736805" lon="8.5450133"><ele>310.0</ele><time>2026-04-18T14:05:14.297Z</time></trkpt><trkpt lat="45.7367433" lon="8.545075"><ele>310.0</ele><time>2026-04-18T14:05:16.294Z</time></trkpt><trkpt lat="45.7367" lon="8.5451617"><ele>310.0</ele><time>2026-04-18T14:05:18.295Z</time></trkpt><trkpt lat="45.736665" lon="8.5452533"><ele>310.0</ele><time>2026-04-18T14:05:20.294Z</time></trkpt><trkpt lat="45.7366317" lon="8.54534"><ele>310.0</ele><time>2026-04-18T14:05:22.293Z</time></trkpt><trkpt lat="45.7365683" lon="8.545435"><ele>310.2857142857143</ele><time>2026-04-18T14:05:25.295Z</time></trkpt><trkpt lat="45.7365133" lon="8.5455217"><ele>310.57142857142856</ele><time>2026-04-18T14:05:27.297Z</time></trkpt><trkpt lat="45.7364567" lon="8.5455967"><ele>310.8571428571429</ele><time>2026-04-18T14:05:29.298Z</time></trkpt><trkpt lat="45.736405" lon="8.54568"><ele>311.1428571428571</ele><time>2026-04-18T14:05:31.294Z</time></trkpt><trkpt lat="45.7363683" lon="8.5457567"><ele>311.4285714285714</ele><time>2026-04-18T14:05:33.297Z</time></trkpt><trkpt lat="45.73633" lon="8.54583"><ele>311.7142857142857</ele><time>2026-04-18T14:05:35.301Z</time></trkpt><trkpt lat="45.736275" lon="8.5459017"><ele>312.0</ele><time>2026-04-18T14:05:37.295Z</time></trkpt><trkpt lat="45.7362133" lon="8.5459967"><ele>312.0</ele><time>2026-04-18T14:05:39.296Z</time></trkpt><trkpt lat="45.73615" lon="8.546075"><ele>312.0</ele><time>2026-04-18T14:05:41.296Z</time></trkpt><trkpt lat="45.7360917" lon="8.5461633"><ele>312.0</ele><time>2026-04-18T14:05:43.295Z</time></trkpt><trkpt lat="45.736035" lon="8.5462433"><ele>312.0</ele><time>2026-04-18T14:05:45.292Z</time></trkpt><trkpt lat="45.735975" lon="8.54633"><ele>312.0</ele><time>2026-04-18T14:05:47.295Z</time></trkpt><trkpt lat="45.7359283" lon="8.54641"><ele>312.0</ele><time>2026-04-18T14:05:49.294Z</time></trkpt><trkpt lat="45.735875" lon="8.5465"><ele>311.3333333333333</ele><time>2026-04-18T14:05:51.295Z</time></trkpt><trkpt lat="45.7358183" lon="8.5465983"><ele>310.6666666666667</ele><time>2026-04-18T14:05:53.295Z</time></trkpt><trkpt lat="45.7357583" lon="8.54669"><ele>310.0</ele><time>2026-04-18T14:05:55.297Z</time></trkpt><trkpt lat="45.7357217" lon="8.5467817"><ele>309.33333333333337</ele><time>2026-04-18T14:05:57.294Z</time></trkpt><trkpt lat="45.735685" lon="8.5468667"><ele>308.6666666666667</ele><time>2026-04-18T14:05:59.293Z</time></trkpt><trkpt lat="45.7356383" lon="8.54697"><ele>308.0</ele><time>2026-04-18T14:06:01.293Z</time></trkpt><trkpt lat="45.7355933" lon="8.547075"><ele>307.5</ele><time>2026-04-18T14:06:03.296Z</time></trkpt><trkpt lat="45.7355483" lon="8.5471633"><ele>307.0</ele><time>2026-04-18T14:06:05.294Z</time></trkpt><trkpt lat="45.7354967" lon="8.5472583"><ele>306.5</ele><time>2026-04-18T14:06:07.292Z</time></trkpt><trkpt lat="45.73546" lon="8.5473467"><ele>306.0</ele><time>2026-04-18T14:06:09.294Z</time></trkpt><trkpt lat="45.7354183" lon="8.547435"><ele>305.5</ele><time>2026-04-18T14:06:11.291Z</time></trkpt><trkpt lat="45.73537" lon="8.5475333"><ele>305.0</ele><time>2026-04-18T14:06:13.295Z</time></trkpt><trkpt lat="45.7352983" lon="8.54764"><ele>304.4</ele><time>2026-04-18T14:06:15.295Z</time></trkpt><trkpt lat="45.73521" lon="8.5477433"><ele>303.8</ele><time>2026-04-18T14:06:17.294Z</time></trkpt><trkpt lat="45.7351467" lon="8.5478617"><ele>303.2</ele><time>2026-04-18T14:06:19.298Z</time></trkpt><trkpt lat="45.7350833" lon="8.54799"><ele>302.6</ele><time>2026-04-18T14:06:21.295Z</time></trkpt><trkpt lat="45.7350183" lon="8.5481117"><ele>302.0</ele><time>2026-04-18T14:06:23.294Z</time></trkpt><trkpt lat="45.7349533" lon="8.548215"><ele>301.6</ele><time>2026-04-18T14:06:25.296Z</time></trkpt><trkpt lat="45.7348883" lon="8.548295"><ele>301.2</ele><time>2026-04-18T14:06:27.297Z</time></trkpt><trkpt lat="45.7348317" lon="8.5484"><ele>300.8</ele><time>2026-04-18T14:06:29.296Z</time></trkpt><trkpt lat="45.7347783" lon="8.5485083"><ele>300.4</ele><time>2026-04-18T14:06:31.295Z</time></trkpt><trkpt lat="45.7347267" lon="8.548625"><ele>300.0</ele><time>2026-04-18T14:06:33.298Z</time></trkpt><trkpt lat="45.7346733" lon="8.5487417"><ele>300.0</ele><time>2026-04-18T14:06:35.295Z</time></trkpt><trkpt lat="45.7346217" lon="8.5488367"><ele>300.0</ele><time>2026-04-18T14:06:37.297Z</time></trkpt><trkpt lat="45.7345583" lon="8.548925"><ele>300.0</ele><time>2026-04-18T14:06:39.295Z</time></trkpt><trkpt lat="45.734505" lon="8.549035"><ele>300.0</ele><time>2026-04-18T14:06:41.294Z</time></trkpt><trkpt lat="45.7344433" lon="8.54913"><ele>300.0</ele><time>2026-04-18T14:06:43.292Z</time></trkpt><trkpt lat="45.7343783" lon="8.5492267"><ele>299.8333333333333</ele><time>2026-04-18T14:06:45.294Z</time></trkpt><trkpt lat="45.7343317" lon="8.549325"><ele>299.6666666666667</ele><time>2026-04-18T14:06:47.303Z</time></trkpt><trkpt lat="45.73426" lon="8.5494167"><ele>299.5</ele><time>2026-04-18T14:06:49.295Z</time></trkpt><trkpt lat="45.7341733" lon="8.5494467"><ele>299.33333333333337</ele><time>2026-04-18T14:06:51.294Z</time></trkpt><trkpt lat="45.7340933" lon="8.5493933"><ele>299.1666666666667</ele><time>2026-04-18T14:06:53.294Z</time></trkpt><trkpt lat="45.7340183" lon="8.54936"><ele>299.0</ele><time>2026-04-18T14:06:55.295Z</time></trkpt><trkpt lat="45.73394" lon="8.5493417"><ele>299.0</ele><time>2026-04-18T14:06:57.295Z</time></trkpt><trkpt lat="45.7338717" lon="8.5493167"><ele>299.0</ele><time>2026-04-18T14:06:59.327Z</time></trkpt><trkpt lat="45.7337867" lon="8.54931"><ele>299.0</ele><time>2026-04-18T14:07:01.291Z</time></trkpt><trkpt lat="45.7337033" lon="8.5493083"><ele>299.0</ele><time>2026-04-18T14:07:03.292Z</time></trkpt><trkpt lat="45.73362" lon="8.5492967"><ele>299.0</ele><time>2026-04-18T14:07:05.29Z</time></trkpt><trkpt lat="45.733535" lon="8.54929"><ele>299.0</ele><time>2026-04-18T14:07:07.307Z</time></trkpt><trkpt lat="45.733445" lon="8.5493017"><ele>299.1666666666667</ele><time>2026-04-18T14:07:09.29Z</time></trkpt><trkpt lat="45.7333533" lon="8.5493067"><ele>299.33333333333337</ele><time>2026-04-18T14:07:11.303Z</time></trkpt><trkpt lat="45.7332717" lon="8.549315"><ele>299.5</ele><time>2026-04-18T14:07:14.294Z</time></trkpt><trkpt lat="45.7332017" lon="8.54935"><ele>299.6666666666667</ele><time>2026-04-18T14:07:16.288Z</time></trkpt><trkpt lat="45.7331333" lon="8.5493933"><ele>299.8333333333333</ele><time>2026-04-18T14:07:18.297Z</time></trkpt><trkpt lat="45.733055" lon="8.5494467"><ele>300.0</ele><time>2026-04-18T14:07:20.288Z</time></trkpt><trkpt lat="45.732995" lon="8.5495117"><ele>298.8</ele><time>2026-04-18T14:07:22.292Z</time></trkpt><trkpt lat="45.7329383" lon="8.5496133"><ele>297.6</ele><time>2026-04-18T14:07:24.296Z</time></trkpt><trkpt lat="45.7328783" lon="8.5497283"><ele>296.4</ele><time>2026-04-18T14:07:26.289Z</time></trkpt><trkpt lat="45.7328283" lon="8.5498333"><ele>295.2</ele><time>2026-04-18T14:07:28.293Z</time></trkpt><trkpt lat="45.732785" lon="8.5499583"><ele>294.0</ele><time>2026-04-18T14:07:30.295Z</time></trkpt><trkpt lat="45.7327417" lon="8.5500583"><ele>294.0</ele><time>2026-04-18T14:07:32.296Z</time></trkpt><trkpt lat="45.7327333" lon="8.5501883"><ele>294.0</ele><time>2026-04-18T14:07:35.292Z</time></trkpt><trkpt lat="45.7327117" lon="8.5502917"><ele>294.0</ele><time>2026-04-18T14:07:37.293Z</time></trkpt><trkpt lat="45.7326783" lon="8.5503833"><ele>294.0</ele><time>2026-04-18T14:07:39.29Z</time></trkpt><trkpt lat="45.732655" lon="8.550485"><ele>294.0</ele><time>2026-04-18T14:07:41.29Z</time></trkpt><trkpt lat="45.7326367" lon="8.5505833"><ele>294.0</ele><time>2026-04-18T14:07:43.294Z</time></trkpt><trkpt lat="45.732615" lon="8.5506817"><ele>294.1666666666667</ele><time>2026-04-18T14:07:45.293Z</time></trkpt><trkpt lat="45.732595" lon="8.5507817"><ele>294.3333333333333</ele><time>2026-04-18T14:07:47.293Z</time></trkpt><trkpt lat="45.732585" lon="8.5508833"><ele>294.5</ele><time>2026-04-18T14:07:49.294Z</time></trkpt><trkpt lat="45.7325783" lon="8.5510017"><ele>294.66666666666663</ele><time>2026-04-18T14:07:51.293Z</time></trkpt><trkpt lat="45.7325733" lon="8.551105"><ele>294.8333333333333</ele><time>2026-04-18T14:07:53.294Z</time></trkpt><trkpt lat="45.7325567" lon="8.5512383"><ele>295.0</ele><time>2026-04-18T14:07:56.294Z</time></trkpt><trkpt lat="45.7325633" lon="8.5513433"><ele>295.4</ele><time>2026-04-18T14:07:58.299Z</time></trkpt><trkpt lat="45.7325767" lon="8.551475"><ele>295.8</ele><time>2026-04-18T14:08:00.295Z</time></trkpt><trkpt lat="45.7325817" lon="8.5516167"><ele>296.2</ele><time>2026-04-18T14:08:02.296Z</time></trkpt><trkpt lat="45.7325883" lon="8.5517467"><ele>296.6</ele><time>2026-04-18T14:08:04.297Z</time></trkpt><trkpt lat="45.7325983" lon="8.5518817"><ele>297.0</ele><time>2026-04-18T14:08:06.296Z</time></trkpt><trkpt lat="45.732615" lon="8.5519917"><ele>297.5</ele><time>2026-04-18T14:08:08.298Z</time></trkpt><trkpt lat="45.7326233" lon="8.5520983"><ele>298.0</ele><time>2026-04-18T14:08:10.293Z</time></trkpt><trkpt lat="45.7326133" lon="8.5521983"><ele>298.5</ele><time>2026-04-18T14:08:12.29Z</time></trkpt><trkpt lat="45.7326033" lon="8.5523067"><ele>299.0</ele><time>2026-04-18T14:08:14.296Z</time></trkpt><trkpt lat="45.7325817" lon="8.5524167"><ele>299.5</ele><time>2026-04-18T14:08:16.293Z</time></trkpt><trkpt lat="45.7325583" lon="8.55252"><ele>300.0</ele><time>2026-04-18T14:08:18.296Z</time></trkpt><trkpt lat="45.732535" lon="8.5526217"><ele>300.0</ele><time>2026-04-18T14:08:20.3Z</time></trkpt><trkpt lat="45.7325117" lon="8.55271"><ele>300.0</ele><time>2026-04-18T14:08:22.295Z</time></trkpt><trkpt lat="45.732475" lon="8.5528133"><ele>300.0</ele><time>2026-04-18T14:08:24.296Z</time></trkpt><trkpt lat="45.7324467" lon="8.5529383"><ele>300.0</ele><time>2026-04-18T14:08:26.294Z</time></trkpt><trkpt lat="45.7324083" lon="8.5530417"><ele>300.0</ele><time>2026-04-18T14:08:28.293Z</time></trkpt><trkpt lat="45.7323533" lon="8.5531533"><ele>300.0</ele><time>2026-04-18T14:08:30.297Z</time></trkpt><trkpt lat="45.7323" lon="8.553245"><ele>298.75</ele><time>2026-04-18T14:08:32.295Z</time></trkpt><trkpt lat="45.73215" lon="8.5532717"><ele>297.5</ele><time>2026-04-18T14:08:53.294Z</time></trkpt><trkpt lat="45.7320583" lon="8.553165"><ele>296.25</ele><time>2026-04-18T14:08:55.294Z</time></trkpt><trkpt lat="45.7319767" lon="8.5530733"><ele>295.0</ele><time>2026-04-18T14:08:57.296Z</time></trkpt><trkpt lat="45.7319033" lon="8.5529867"><ele>295.4</ele><time>2026-04-18T14:08:59.292Z</time></trkpt><trkpt lat="45.7318283" lon="8.552905"><ele>295.8</ele><time>2026-04-18T14:09:01.291Z</time></trkpt><trkpt lat="45.731765" lon="8.552815"><ele>296.2</ele><time>2026-04-18T14:09:04.293Z</time></trkpt><trkpt lat="45.7316967" lon="8.55274"><ele>296.6</ele><time>2026-04-18T14:09:07.295Z</time></trkpt><trkpt lat="45.7316483" lon="8.5526783"><ele>297.0</ele><time>2026-04-18T14:09:11.294Z</time></trkpt><trkpt lat="45.7317416" lon="8.5528105"><ele>297.0</ele><time>2026-04-18T14:09:30.298Z</time></trkpt><trkpt lat="45.7318025" lon="8.552874"><ele>297.0</ele><time>2026-04-18T14:09:31.294Z</time></trkpt><trkpt lat="45.7318633" lon="8.55293"><ele>297.0</ele><time>2026-04-18T14:09:32.289Z</time></trkpt><trkpt lat="45.7319667" lon="8.5530383"><ele>297.0</ele><time>2026-04-18T14:09:34.298Z</time></trkpt><trkpt lat="45.7320567" lon="8.5531467"><ele>297.0</ele><time>2026-04-18T14:09:36.294Z</time></trkpt><trkpt lat="45.7321367" lon="8.5532583"><ele>296.6</ele><time>2026-04-18T14:09:38.302Z</time></trkpt><trkpt lat="45.73222" lon="8.5533283"><ele>296.2</ele><time>2026-04-18T14:09:40.293Z</time></trkpt><trkpt lat="45.7323" lon="8.5532917"><ele>295.8</ele><time>2026-04-18T14:09:42.294Z</time></trkpt><trkpt lat="45.732385" lon="8.553195"><ele>295.4</ele><time>2026-04-18T14:09:44.297Z</time></trkpt><trkpt lat="45.732435" lon="8.5530683"><ele>295.0</ele><time>2026-04-18T14:09:46.297Z</time></trkpt><trkpt lat="45.7324667" lon="8.5529317"><ele>296.0</ele><time>2026-04-18T14:09:48.295Z</time></trkpt><trkpt lat="45.73249" lon="8.5527883"><ele>297.0</ele><time>2026-04-18T14:09:50.296Z</time></trkpt><trkpt lat="45.7325267" lon="8.5526367"><ele>298.0</ele><time>2026-04-18T14:09:52.295Z</time></trkpt><trkpt lat="45.7325667" lon="8.55251"><ele>299.0</ele><time>2026-04-18T14:09:54.295Z</time></trkpt><trkpt lat="45.7326017" lon="8.5523917"><ele>300.0</ele><time>2026-04-18T14:09:56.294Z</time></trkpt><trkpt lat="45.7326183" lon="8.5522417"><ele>300.0</ele><time>2026-04-18T14:09:58.293Z</time></trkpt><trkpt lat="45.7326117" lon="8.5520733"><ele>300.0</ele><time>2026-04-18T14:10:00.295Z</time></trkpt><trkpt lat="45.7325883" lon="8.5519033"><ele>300.0</ele><time>2026-04-18T14:10:02.296Z</time></trkpt><trkpt lat="45.7325783" lon="8.5517567"><ele>300.0</ele><time>2026-04-18T14:10:04.293Z</time></trkpt><trkpt lat="45.7325767" lon="8.551625"><ele>300.0</ele><time>2026-04-18T14:10:06.294Z</time></trkpt><trkpt lat="45.73256" lon="8.5514783"><ele>299.4</ele><time>2026-04-18T14:10:08.297Z</time></trkpt><trkpt lat="45.7325617" lon="8.5513483"><ele>298.8</ele><time>2026-04-18T14:10:10.297Z</time></trkpt><trkpt lat="45.7325683" lon="8.5512317"><ele>298.2</ele><time>2026-04-18T14:10:12.296Z</time></trkpt><trkpt lat="45.732575" lon="8.5511"><ele>297.6</ele><time>2026-04-18T14:10:14.297Z</time></trkpt><trkpt lat="45.7325617" lon="8.5509667"><ele>297.0</ele><time>2026-04-18T14:10:16.292Z</time></trkpt><trkpt lat="45.7325833" lon="8.5508333"><ele>296.6666666666667</ele><time>2026-04-18T14:10:18.293Z</time></trkpt><trkpt lat="45.7325983" lon="8.55072"><ele>296.3333333333333</ele><time>2026-04-18T14:10:20.288Z</time></trkpt><trkpt lat="45.73262" lon="8.550605"><ele>296.0</ele><time>2026-04-18T14:10:22.297Z</time></trkpt><trkpt lat="45.73264" lon="8.5504717"><ele>295.66666666666663</ele><time>2026-04-18T14:10:24.295Z</time></trkpt><trkpt lat="45.7326667" lon="8.55036"><ele>295.3333333333333</ele><time>2026-04-18T14:10:26.296Z</time></trkpt><trkpt lat="45.7326783" lon="8.5502383"><ele>295.0</ele><time>2026-04-18T14:10:28.294Z</time></trkpt><trkpt lat="45.73269" lon="8.5501183"><ele>294.8</ele><time>2026-04-18T14:10:30.294Z</time></trkpt><trkpt lat="45.7327217" lon="8.5499817"><ele>294.6</ele><time>2026-04-18T14:10:32.296Z</time></trkpt><trkpt lat="45.7327733" lon="8.5498667"><ele>294.4</ele><time>2026-04-18T14:10:34.295Z</time></trkpt><trkpt lat="45.7328217" lon="8.5497717"><ele>294.2</ele><time>2026-04-18T14:10:36.288Z</time></trkpt><trkpt lat="45.7328917" lon="8.549675"><ele>294.0</ele><time>2026-04-18T14:10:38.294Z</time></trkpt><trkpt lat="45.7329367" lon="8.54955"><ele>295.0</ele><time>2026-04-18T14:10:40.295Z</time></trkpt><trkpt lat="45.733005" lon="8.549495"><ele>296.0</ele><time>2026-04-18T14:10:42.292Z</time></trkpt><trkpt lat="45.7330633" lon="8.549415"><ele>297.0</ele><time>2026-04-18T14:10:46.295Z</time></trkpt><trkpt lat="45.73312" lon="8.549375"><ele>298.0</ele><time>2026-04-18T14:10:48.297Z</time></trkpt><trkpt lat="45.7331883" lon="8.549335"><ele>299.0</ele><time>2026-04-18T14:10:50.294Z</time></trkpt><trkpt lat="45.73327" lon="8.5493083"><ele>300.0</ele><time>2026-04-18T14:10:52.296Z</time></trkpt><trkpt lat="45.733345" lon="8.5493017"><ele>300.0</ele><time>2026-04-18T14:10:54.294Z</time></trkpt><trkpt lat="45.7334317" lon="8.5492967"><ele>300.0</ele><time>2026-04-18T14:10:56.297Z</time></trkpt><trkpt lat="45.73352" lon="8.54929"><ele>300.0</ele><time>2026-04-18T14:10:58.296Z</time></trkpt><trkpt lat="45.7335967" lon="8.549285"><ele>300.0</ele><time>2026-04-18T14:11:00.295Z</time></trkpt><trkpt lat="45.73368" lon="8.5492833"><ele>300.0</ele><time>2026-04-18T14:11:02.296Z</time></trkpt><trkpt lat="45.7337767" lon="8.549295"><ele>300.0</ele><time>2026-04-18T14:11:04.294Z</time></trkpt><trkpt lat="45.7338783" lon="8.5493267"><ele>299.8</ele><time>2026-04-18T14:11:06.297Z</time></trkpt><trkpt lat="45.733975" lon="8.5493617"><ele>299.6</ele><time>2026-04-18T14:11:08.295Z</time></trkpt><trkpt lat="45.73406" lon="8.54941"><ele>299.4</ele><time>2026-04-18T14:11:10.292Z</time></trkpt><trkpt lat="45.7341433" lon="8.5494483"><ele>299.2</ele><time>2026-04-18T14:11:12.292Z</time></trkpt><trkpt lat="45.734215" lon="8.5494283"><ele>299.0</ele><time>2026-04-18T14:11:14.292Z</time></trkpt><trkpt lat="45.7342917" lon="8.5493317"><ele>299.0</ele><time>2026-04-18T14:11:17.295Z</time></trkpt><trkpt lat="45.734355" lon="8.5492583"><ele>299.0</ele><time>2026-04-18T14:11:19.297Z</time></trkpt><trkpt lat="45.7344333" lon="8.5491383"><ele>299.0</ele><time>2026-04-18T14:11:21.294Z</time></trkpt><trkpt lat="45.734505" lon="8.549025"><ele>299.0</ele><time>2026-04-18T14:11:23.292Z</time></trkpt><trkpt lat="45.73456" lon="8.5489283"><ele>299.0</ele><time>2026-04-18T14:11:25.297Z</time></trkpt><trkpt lat="45.73461" lon="8.5488417"><ele>299.0</ele><time>2026-04-18T14:11:27.293Z</time></trkpt><trkpt lat="45.734665" lon="8.548755"><ele>299.0</ele><time>2026-04-18T14:11:29.293Z</time></trkpt><trkpt lat="45.73472" lon="8.5486417"><ele>299.0</ele><time>2026-04-18T14:11:32.292Z</time></trkpt><trkpt lat="45.7347617" lon="8.5485417"><ele>299.0</ele><time>2026-04-18T14:11:34.293Z</time></trkpt><trkpt lat="45.734795" lon="8.548465"><ele>299.0</ele><time>2026-04-18T14:11:36.294Z</time></trkpt><trkpt lat="45.73484" lon="8.5483917"><ele>299.0</ele><time>2026-04-18T14:11:38.295Z</time></trkpt><trkpt lat="45.734885" lon="8.548325"><ele>299.0</ele><time>2026-04-18T14:11:40.293Z</time></trkpt><trkpt lat="45.7349283" lon="8.548235"><ele>299.0</ele><time>2026-04-18T14:11:42.292Z</time></trkpt><trkpt lat="45.73497" lon="8.5481583"><ele>299.0</ele><time>2026-04-18T14:11:44.295Z</time></trkpt><trkpt lat="45.7350133" lon="8.54808"><ele>299.0</ele><time>2026-04-18T14:11:46.296Z</time></trkpt><trkpt lat="45.7350567" lon="8.5479917"><ele>299.0</ele><time>2026-04-18T14:11:50.297Z</time></trkpt><trkpt lat="45.7351067" lon="8.5479183"><ele>299.0</ele><time>2026-04-18T14:11:54.293Z</time></trkpt><trkpt lat="45.7351333" lon="8.5478267"><ele>299.0</ele><time>2026-04-18T14:11:58.299Z</time></trkpt><trkpt lat="45.7350967" lon="8.5479133"><ele>299.0</ele><time>2026-04-18T14:14:04.295Z</time></trkpt><trkpt lat="45.735055" lon="8.548015"><ele>299.0</ele><time>2026-04-18T14:14:08.296Z</time></trkpt><trkpt lat="45.7350083" lon="8.5481033"><ele>299.0</ele><time>2026-04-18T14:14:15.295Z</time></trkpt><trkpt lat="45.7349283" lon="8.5482067"><ele>299.0</ele><time>2026-04-18T14:14:17.295Z</time></trkpt><trkpt lat="45.7348617" lon="8.548315"><ele>299.0</ele><time>2026-04-18T14:14:19.296Z</time></trkpt><trkpt lat="45.7347867" lon="8.5484433"><ele>299.0</ele><time>2026-04-18T14:14:21.296Z</time></trkpt><trkpt lat="45.7347233" lon="8.5485833"><ele>299.0</ele><time>2026-04-18T14:14:23.295Z</time></trkpt><trkpt lat="45.73468" lon="8.548695"><ele>299.0</ele><time>2026-04-18T14:14:25.295Z</time></trkpt><trkpt lat="45.734635" lon="8.5488067"><ele>299.0</ele><time>2026-04-18T14:14:27.294Z</time></trkpt><trkpt lat="45.73457" lon="8.5489033"><ele>299.0</ele><time>2026-04-18T14:14:29.291Z</time></trkpt><trkpt lat="45.734505" lon="8.5490117"><ele>299.0</ele><time>2026-04-18T14:14:31.295Z</time></trkpt><trkpt lat="45.7344383" lon="8.5491317"><ele>299.0</ele><time>2026-04-18T14:14:33.295Z</time></trkpt><trkpt lat="45.73438" lon="8.5492183"><ele>299.0</ele><time>2026-04-18T14:14:35.293Z</time></trkpt><trkpt lat="45.73433" lon="8.5492983"><ele>299.0</ele><time>2026-04-18T14:14:37.297Z</time></trkpt><trkpt lat="45.7342683" lon="8.5493917"><ele>299.0</ele><time>2026-04-18T14:14:39.294Z</time></trkpt><trkpt lat="45.734205" lon="8.5494317"><ele>299.0</ele><time>2026-04-18T14:14:41.296Z</time></trkpt><trkpt lat="45.734125" lon="8.54943"><ele>299.0</ele><time>2026-04-18T14:14:43.293Z</time></trkpt><trkpt lat="45.7340417" lon="8.54938"><ele>299.0</ele><time>2026-04-18T14:14:46.293Z</time></trkpt><trkpt lat="45.7339783" lon="8.5493517"><ele>299.0</ele><time>2026-04-18T14:14:48.291Z</time></trkpt><trkpt lat="45.7339067" lon="8.5493233"><ele>299.0</ele><time>2026-04-18T14:14:50.296Z</time></trkpt><trkpt lat="45.7338267" lon="8.5492983"><ele>299.0</ele><time>2026-04-18T14:14:52.295Z</time></trkpt><trkpt lat="45.73375" lon="8.5492767"><ele>299.0</ele><time>2026-04-18T14:14:54.297Z</time></trkpt><trkpt lat="45.7336717" lon="8.549255"><ele>299.0</ele><time>2026-04-18T14:14:56.296Z</time></trkpt><trkpt lat="45.7335867" lon="8.5492433"><ele>299.0</ele><time>2026-04-18T14:14:58.293Z</time></trkpt><trkpt lat="45.7334917" lon="8.5492567"><ele>299.0</ele><time>2026-04-18T14:15:00.293Z</time></trkpt><trkpt lat="45.7334067" lon="8.549275"><ele>299.0</ele><time>2026-04-18T14:15:02.295Z</time></trkpt><trkpt lat="45.7333117" lon="8.5493"><ele>299.0</ele><time>2026-04-18T14:15:04.297Z</time></trkpt><trkpt lat="45.7332333" lon="8.5493233"><ele>299.0</ele><time>2026-04-18T14:15:06.294Z</time></trkpt><trkpt lat="45.7331467" lon="8.54937"><ele>299.2</ele><time>2026-04-18T14:15:08.294Z</time></trkpt><trkpt lat="45.7330583" lon="8.5494283"><ele>299.4</ele><time>2026-04-18T14:15:10.292Z</time></trkpt><trkpt lat="45.7329867" lon="8.549515"><ele>299.6</ele><time>2026-04-18T14:15:12.294Z</time></trkpt><trkpt lat="45.7329183" lon="8.5496133"><ele>299.8</ele><time>2026-04-18T14:15:14.296Z</time></trkpt><trkpt lat="45.7328767" lon="8.5497483"><ele>300.0</ele><time>2026-04-18T14:15:16.294Z</time></trkpt><trkpt lat="45.73281" lon="8.549835"><ele>300.0</ele><time>2026-04-18T14:15:18.297Z</time></trkpt><trkpt lat="45.7327683" lon="8.5499317"><ele>300.0</ele><time>2026-04-18T14:15:20.295Z</time></trkpt><trkpt lat="45.732725" lon="8.5500167"><ele>300.0</ele><time>2026-04-18T14:15:22.294Z</time></trkpt><trkpt lat="45.7326967" lon="8.550125"><ele>300.0</ele><time>2026-04-18T14:15:24.295Z</time></trkpt><trkpt lat="45.7326717" lon="8.5502333"><ele>300.0</ele><time>2026-04-18T14:15:26.298Z</time></trkpt><trkpt lat="45.7326683" lon="8.5503433"><ele>300.0</ele><time>2026-04-18T14:15:28.295Z</time></trkpt><trkpt lat="45.73264" lon="8.5504533"><ele>299.1666666666667</ele><time>2026-04-18T14:15:30.294Z</time></trkpt><trkpt lat="45.7326183" lon="8.5505783"><ele>298.3333333333333</ele><time>2026-04-18T14:15:32.296Z</time></trkpt><trkpt lat="45.7325917" lon="8.5507"><ele>297.5</ele><time>2026-04-18T14:15:34.294Z</time></trkpt><trkpt lat="45.73258" lon="8.550815"><ele>296.66666666666663</ele><time>2026-04-18T14:15:36.295Z</time></trkpt><trkpt lat="45.7325567" lon="8.55094"><ele>295.8333333333333</ele><time>2026-04-18T14:15:38.297Z</time></trkpt><trkpt lat="45.73256" lon="8.5510633"><ele>295.0</ele><time>2026-04-18T14:15:40.293Z</time></trkpt><trkpt lat="45.7325633" lon="8.5511933"><ele>295.3333333333333</ele><time>2026-04-18T14:15:42.293Z</time></trkpt><trkpt lat="45.7325683" lon="8.5513067"><ele>295.66666666666663</ele><time>2026-04-18T14:15:44.297Z</time></trkpt><trkpt lat="45.7325767" lon="8.5514317"><ele>296.0</ele><time>2026-04-18T14:15:46.292Z</time></trkpt><trkpt lat="45.7325817" lon="8.5515467"><ele>296.3333333333333</ele><time>2026-04-18T14:15:48.291Z</time></trkpt><trkpt lat="45.7325983" lon="8.551665"><ele>296.6666666666667</ele><time>2026-04-18T14:15:50.294Z</time></trkpt><trkpt lat="45.7326" lon="8.5517817"><ele>297.0</ele><time>2026-04-18T14:15:52.296Z</time></trkpt><trkpt lat="45.7326033" lon="8.55191"><ele>297.0</ele><time>2026-04-18T14:15:54.298Z</time></trkpt><trkpt lat="45.7326083" lon="8.55203"><ele>297.0</ele><time>2026-04-18T14:15:56.294Z</time></trkpt><trkpt lat="45.73263" lon="8.55215"><ele>297.0</ele><time>2026-04-18T14:15:58.293Z</time></trkpt><trkpt lat="45.7326233" lon="8.5522683"><ele>297.0</ele><time>2026-04-18T14:16:00.29Z</time></trkpt><trkpt lat="45.732605" lon="8.552395"><ele>297.0</ele><time>2026-04-18T14:16:02.295Z</time></trkpt><trkpt lat="45.7325633" lon="8.5525083"><ele>297.0</ele><time>2026-04-18T14:16:04.295Z</time></trkpt><trkpt lat="45.73252" lon="8.552615"><ele>296.6666666666667</ele><time>2026-04-18T14:16:06.305Z</time></trkpt><trkpt lat="45.7324817" lon="8.5527367"><ele>296.3333333333333</ele><time>2026-04-18T14:16:08.298Z</time></trkpt><trkpt lat="45.73245" lon="8.552845"><ele>296.0</ele><time>2026-04-18T14:16:10.297Z</time></trkpt><trkpt lat="45.7324233" lon="8.5529633"><ele>295.66666666666663</ele><time>2026-04-18T14:16:12.298Z</time></trkpt><trkpt lat="45.732385" lon="8.5530667"><ele>295.3333333333333</ele><time>2026-04-18T14:16:14.297Z</time></trkpt><trkpt lat="45.7323383" lon="8.553145"><ele>295.0</ele><time>2026-04-18T14:16:16.293Z</time></trkpt><trkpt lat="45.7322883" lon="8.5532267"><ele>295.00000000000006</ele><time>2026-04-18T14:16:18.295Z</time></trkpt><trkpt lat="45.7322317" lon="8.553275"><ele>295.0</ele><time>2026-04-18T14:16:20.296Z</time></trkpt><trkpt lat="45.73216" lon="8.55325"><ele>295.0</ele><time>2026-04-18T14:16:23.297Z</time></trkpt><trkpt lat="45.7321033" lon="8.5531883"><ele>295.0</ele><time>2026-04-18T14:16:26.298Z</time></trkpt><trkpt lat="45.7320433" lon="8.5531233"><ele>295.0</ele><time>2026-04-18T14:16:28.296Z</time></trkpt><trkpt lat="45.731985" lon="8.5530567"><ele>295.00000000000006</ele><time>2026-04-18T14:16:30.297Z</time></trkpt><trkpt lat="45.7319233" lon="8.5529833"><ele>295.0</ele><time>2026-04-18T14:16:32.297Z</time></trkpt><trkpt lat="45.7318667" lon="8.5529133"><ele>296.00000000000006</ele><time>2026-04-18T14:16:34.294Z</time></trkpt><trkpt lat="45.7318133" lon="8.5528417"><ele>297.0</ele><time>2026-04-18T14:16:36.296Z</time></trkpt><trkpt lat="45.731755" lon="8.5527733"><ele>298.0</ele><time>2026-04-18T14:16:38.297Z</time></trkpt><trkpt lat="45.7316717" lon="8.5527117"><ele>299.0</ele><time>2026-04-18T14:16:41.296Z</time></trkpt><trkpt lat="45.73162" lon="8.5526583"><ele>300.0</ele><time>2026-04-18T14:16:43.293Z</time></trkpt><trkpt lat="45.7315733" lon="8.5525917"><ele>301.00000000000006</ele><time>2026-04-18T14:16:45.293Z</time></trkpt><trkpt lat="45.7315083" lon="8.5525383"><ele>302.0</ele><time>2026-04-18T14:16:47.296Z</time></trkpt><trkpt lat="45.7314567" lon="8.5524567"><ele>302.0</ele><time>2026-04-18T14:16:49.294Z</time></trkpt><trkpt lat="45.7313983" lon="8.5524"><ele>302.0</ele><time>2026-04-18T14:16:51.295Z</time></trkpt><trkpt lat="45.7313217" lon="8.552325"><ele>302.0</ele><time>2026-04-18T14:16:54.3Z</time></trkpt><trkpt lat="45.7312633" lon="8.55226"><ele>302.0</ele><time>2026-04-18T14:16:56.297Z</time></trkpt><trkpt lat="45.73121" lon="8.5521633"><ele>302.0</ele><time>2026-04-18T14:16:59.304Z</time></trkpt><trkpt lat="45.731155" lon="8.5520767"><ele>302.0</ele><time>2026-04-18T14:17:02.296Z</time></trkpt><trkpt lat="45.7310683" lon="8.55209"><ele>301.5</ele><time>2026-04-18T14:17:18.294Z</time></trkpt><trkpt lat="45.7310133" lon="8.5521717"><ele>301.0</ele><time>2026-04-18T14:17:20.296Z</time></trkpt><trkpt lat="45.7309417" lon="8.552265"><ele>300.5</ele><time>2026-04-18T14:17:22.293Z</time></trkpt><trkpt lat="45.7308767" lon="8.552355"><ele>300.0</ele><time>2026-04-18T14:17:24.295Z</time></trkpt><trkpt lat="45.7308217" lon="8.5524333"><ele>299.5</ele><time>2026-04-18T14:17:26.293Z</time></trkpt><trkpt lat="45.7307483" lon="8.5524933"><ele>299.0</ele><time>2026-04-18T14:17:28.294Z</time></trkpt><trkpt lat="45.7306833" lon="8.5525067"><ele>299.0</ele><time>2026-04-18T14:17:30.295Z</time></trkpt><trkpt lat="45.7306083" lon="8.5525233"><ele>299.0</ele><time>2026-04-18T14:17:32.3Z</time></trkpt><trkpt lat="45.7305267" lon="8.5525133"><ele>299.0</ele><time>2026-04-18T14:17:34.295Z</time></trkpt><trkpt lat="45.7304417" lon="8.5525267"><ele>299.0</ele><time>2026-04-18T14:17:36.295Z</time></trkpt><trkpt lat="45.7303583" lon="8.552555"><ele>299.0</ele><time>2026-04-18T14:17:38.295Z</time></trkpt><trkpt lat="45.7302767" lon="8.55259"><ele>299.0</ele><time>2026-04-18T14:17:40.294Z</time></trkpt><trkpt lat="45.7301983" lon="8.55262"><ele>299.5</ele><time>2026-04-18T14:17:42.298Z</time></trkpt><trkpt lat="45.730125" lon="8.5526233"><ele>300.0</ele><time>2026-04-18T14:17:44.298Z</time></trkpt><trkpt lat="45.7300267" lon="8.552605"><ele>300.5</ele><time>2026-04-18T14:17:47.294Z</time></trkpt><trkpt lat="45.7299517" lon="8.5525783"><ele>301.0</ele><time>2026-04-18T14:17:49.294Z</time></trkpt><trkpt lat="45.7298633" lon="8.5525433"><ele>301.5</ele><time>2026-04-18T14:17:52.291Z</time></trkpt><trkpt lat="45.7297933" lon="8.5525267"><ele>302.0</ele><time>2026-04-18T14:17:54.295Z</time></trkpt><trkpt lat="45.729725" lon="8.552515"><ele>302.00000000000006</ele><time>2026-04-18T14:17:56.296Z</time></trkpt><trkpt lat="45.72965" lon="8.5524983"><ele>302.0</ele><time>2026-04-18T14:17:58.295Z</time></trkpt><trkpt lat="45.729575" lon="8.55248"><ele>302.0</ele><time>2026-04-18T14:18:00.295Z</time></trkpt><trkpt lat="45.729505" lon="8.5524667"><ele>302.0</ele><time>2026-04-18T14:18:02.295Z</time></trkpt><trkpt lat="45.7294317" lon="8.5524533"><ele>302.0</ele><time>2026-04-18T14:18:04.293Z</time></trkpt><trkpt lat="45.7293683" lon="8.5524267"><ele>302.00000000000006</ele><time>2026-04-18T14:18:06.295Z</time></trkpt><trkpt lat="45.7293017" lon="8.552385"><ele>302.0</ele><time>2026-04-18T14:18:09.295Z</time></trkpt><trkpt lat="45.7292267" lon="8.5523433"><ele>301.6</ele><time>2026-04-18T14:18:12.297Z</time></trkpt><trkpt lat="45.7290667" lon="8.552285"><ele>301.2</ele><time>2026-04-18T14:18:29.296Z</time></trkpt><trkpt lat="45.7289917" lon="8.5522417"><ele>300.8</ele><time>2026-04-18T14:18:32.298Z</time></trkpt><trkpt lat="45.7289133" lon="8.5521683"><ele>300.4</ele><time>2026-04-18T14:18:35.301Z</time></trkpt><trkpt lat="45.7288583" lon="8.5521133"><ele>300.0</ele><time>2026-04-18T14:18:37.295Z</time></trkpt><trkpt lat="45.728785" lon="8.5520583"><ele>300.71428571428567</ele><time>2026-04-18T14:18:40.294Z</time></trkpt><trkpt lat="45.7287067" lon="8.551985"><ele>301.42857142857144</ele><time>2026-04-18T14:18:43.292Z</time></trkpt><trkpt lat="45.7286417" lon="8.5519333"><ele>302.1428571428571</ele><time>2026-04-18T14:18:45.295Z</time></trkpt><trkpt lat="45.7285817" lon="8.5518967"><ele>302.85714285714283</ele><time>2026-04-18T14:18:47.296Z</time></trkpt><trkpt lat="45.72852" lon="8.5518433"><ele>303.57142857142856</ele><time>2026-04-18T14:18:49.293Z</time></trkpt><trkpt lat="45.728455" lon="8.5518117"><ele>304.2857142857143</ele><time>2026-04-18T14:18:51.297Z</time></trkpt><trkpt lat="45.7284033" lon="8.55175"><ele>305.0</ele><time>2026-04-18T14:18:53.293Z</time></trkpt><trkpt lat="45.7283533" lon="8.5516867"><ele>305.0</ele><time>2026-04-18T14:18:55.299Z</time></trkpt><trkpt lat="45.7283" lon="8.5516083"><ele>305.0</ele><time>2026-04-18T14:18:58.294Z</time></trkpt><trkpt lat="45.7282117" lon="8.5514467"><ele>305.0</ele><time>2026-04-18T14:19:09.295Z</time></trkpt><trkpt lat="45.72817" lon="8.5513633"><ele>305.0</ele><time>2026-04-18T14:19:11.291Z</time></trkpt><trkpt lat="45.728125" lon="8.5512667"><ele>305.0</ele><time>2026-04-18T14:19:14.299Z</time></trkpt><trkpt lat="45.728045" lon="8.551225"><ele>305.0</ele><time>2026-04-18T14:19:23.293Z</time></trkpt><trkpt lat="45.7279483" lon="8.5512633"><ele>305.0</ele><time>2026-04-18T14:19:26.298Z</time></trkpt><trkpt lat="45.72786" lon="8.5513417"><ele>305.0</ele><time>2026-04-18T14:19:28.294Z</time></trkpt><trkpt lat="45.7277583" lon="8.5513717"><ele>305.0</ele><time>2026-04-18T14:19:30.297Z</time></trkpt><trkpt lat="45.7276917" lon="8.551365"><ele>305.0</ele><time>2026-04-18T14:19:31.294Z</time></trkpt><trkpt lat="45.7275733" lon="8.5513633"><ele>303.8</ele><time>2026-04-18T14:19:33.293Z</time></trkpt><trkpt lat="45.7275067" lon="8.5513783"><ele>302.6</ele><time>2026-04-18T14:19:34.295Z</time></trkpt><trkpt lat="45.7274" lon="8.5514417"><ele>301.4</ele><time>2026-04-18T14:19:36.296Z</time></trkpt><trkpt lat="45.7273183" lon="8.5515417"><ele>300.2</ele><time>2026-04-18T14:19:38.294Z</time></trkpt><trkpt lat="45.7272333" lon="8.5516417"><ele>299.0</ele><time>2026-04-18T14:19:40.292Z</time></trkpt><trkpt lat="45.72715" lon="8.5517383"><ele>299.0</ele><time>2026-04-18T14:19:42.295Z</time></trkpt><trkpt lat="45.7270717" lon="8.5518117"><ele>299.0</ele><time>2026-04-18T14:19:44.295Z</time></trkpt><trkpt lat="45.7270033" lon="8.5518733"><ele>299.0</ele><time>2026-04-18T14:19:46.297Z</time></trkpt><trkpt lat="45.72694" lon="8.5519417"><ele>299.0</ele><time>2026-04-18T14:19:48.298Z</time></trkpt><trkpt lat="45.7268867" lon="8.5519967"><ele>299.0</ele><time>2026-04-18T14:19:50.295Z</time></trkpt><trkpt lat="45.726835" lon="8.552065"><ele>299.0</ele><time>2026-04-18T14:19:52.294Z</time></trkpt><trkpt lat="45.726755" lon="8.552135"><ele>299.33333333333337</ele><time>2026-04-18T14:19:55.293Z</time></trkpt><trkpt lat="45.72669" lon="8.5521917"><ele>299.6666666666667</ele><time>2026-04-18T14:19:58.293Z</time></trkpt><trkpt lat="45.7266033" lon="8.5522633"><ele>300.0</ele><time>2026-04-18T14:20:01.296Z</time></trkpt><trkpt lat="45.7265433" lon="8.55232"><ele>300.3333333333333</ele><time>2026-04-18T14:20:03.295Z</time></trkpt><trkpt lat="45.7264783" lon="8.5523567"><ele>300.66666666666663</ele><time>2026-04-18T14:20:06.295Z</time></trkpt><trkpt lat="45.7264217" lon="8.5524083"><ele>301.0</ele><time>2026-04-18T14:20:10.294Z</time></trkpt><trkpt lat="45.726375" lon="8.55248"><ele>301.0</ele><time>2026-04-18T14:20:13.295Z</time></trkpt><trkpt lat="45.7263317" lon="8.5525533"><ele>301.0</ele><time>2026-04-18T14:20:15.296Z</time></trkpt><trkpt lat="45.72627" lon="8.552675"><ele>301.0</ele><time>2026-04-18T14:20:17.294Z</time></trkpt><trkpt lat="45.7262167" lon="8.5528067"><ele>301.0</ele><time>2026-04-18T14:20:19.296Z</time></trkpt><trkpt lat="45.72613" lon="8.5529183"><ele>301.0</ele><time>2026-04-18T14:20:21.296Z</time></trkpt><trkpt lat="45.7260483" lon="8.5529767"><ele>301.0</ele><time>2026-04-18T14:20:23.293Z</time></trkpt><trkpt lat="45.72597" lon="8.5529433"><ele>301.0</ele><time>2026-04-18T14:20:25.294Z</time></trkpt><trkpt lat="45.7259083" lon="8.5528467"><ele>301.0</ele><time>2026-04-18T14:20:27.294Z</time></trkpt><trkpt lat="45.725855" lon="8.55275"><ele>301.0</ele><time>2026-04-18T14:20:29.295Z</time></trkpt><trkpt lat="45.7257933" lon="8.55268"><ele>301.0</ele><time>2026-04-18T14:20:31.293Z</time></trkpt><trkpt lat="45.72569" lon="8.5526933"><ele>301.0</ele><time>2026-04-18T14:20:33.293Z</time></trkpt><trkpt lat="45.7256217" lon="8.5527317"><ele>301.0</ele><time>2026-04-18T14:20:35.294Z</time></trkpt><trkpt lat="45.72555" lon="8.5527433"><ele>301.0</ele><time>2026-04-18T14:20:38.298Z</time></trkpt><trkpt lat="45.7254467" lon="8.5528033"><ele>301.0</ele><time>2026-04-18T14:20:48.292Z</time></trkpt><trkpt lat="45.7253217" lon="8.5528867"><ele>301.0</ele><time>2026-04-18T14:21:41.29Z</time></trkpt><trkpt lat="45.7252783" lon="8.5530333"><ele>301.0</ele><time>2026-04-18T14:21:57.293Z</time></trkpt><trkpt lat="45.7252383" lon="8.553145"><ele>301.3333333333333</ele><time>2026-04-18T14:22:03.293Z</time></trkpt><trkpt lat="45.72522" lon="8.5532567"><ele>301.66666666666663</ele><time>2026-04-18T14:22:07.295Z</time></trkpt><trkpt lat="45.7251917" lon="8.55334"><ele>302.0</ele><time>2026-04-18T14:22:09.291Z</time></trkpt><trkpt lat="45.725175" lon="8.55344"><ele>302.3333333333333</ele><time>2026-04-18T14:22:11.293Z</time></trkpt><trkpt lat="45.72516" lon="8.553575"><ele>302.6666666666667</ele><time>2026-04-18T14:22:14.296Z</time></trkpt><trkpt lat="45.72514" lon="8.5536967"><ele>303.0</ele><time>2026-04-18T14:22:17.293Z</time></trkpt><trkpt lat="45.725105" lon="8.5537983"><ele>303.0</ele><time>2026-04-18T14:22:21.292Z</time></trkpt><trkpt lat="45.725095" lon="8.553915"><ele>303.0</ele><time>2026-04-18T14:22:24.295Z</time></trkpt><trkpt lat="45.7250733" lon="8.5540383"><ele>303.0</ele><time>2026-04-18T14:22:27.29Z</time></trkpt><trkpt lat="45.7250567" lon="8.554145"><ele>303.0</ele><time>2026-04-18T14:22:30.293Z</time></trkpt><trkpt lat="45.725035" lon="8.5542467"><ele>303.0</ele><time>2026-04-18T14:22:35.291Z</time></trkpt><trkpt lat="45.72504" lon="8.5543417"><ele>303.0</ele><time>2026-04-18T14:22:38.295Z</time></trkpt><trkpt lat="45.72504" lon="8.55444"><ele>302.6666666666667</ele><time>2026-04-18T14:22:41.293Z</time></trkpt><trkpt lat="45.7250467" lon="8.5545567"><ele>302.3333333333333</ele><time>2026-04-18T14:22:44.296Z</time></trkpt><trkpt lat="45.7250617" lon="8.5546733"><ele>302.0</ele><time>2026-04-18T14:22:47.291Z</time></trkpt><trkpt lat="45.725075" lon="8.5547883"><ele>301.66666666666663</ele><time>2026-04-18T14:22:50.297Z</time></trkpt><trkpt lat="45.725095" lon="8.5548817"><ele>301.3333333333333</ele><time>2026-04-18T14:22:53.292Z</time></trkpt><trkpt lat="45.7251317" lon="8.5549967"><ele>301.0</ele><time>2026-04-18T14:22:56.296Z</time></trkpt><trkpt lat="45.7251717" lon="8.55508"><ele>301.0</ele><time>2026-04-18T14:22:59.29Z</time></trkpt><trkpt lat="45.7252267" lon="8.555145"><ele>301.0</ele><time>2026-04-18T14:23:02.296Z</time></trkpt><trkpt lat="45.72527" lon="8.55522"><ele>301.0</ele><time>2026-04-18T14:23:05.293Z</time></trkpt><trkpt lat="45.7253167" lon="8.5553117"><ele>301.0</ele><time>2026-04-18T14:23:08.296Z</time></trkpt><trkpt lat="45.7253867" lon="8.5553917"><ele>301.0</ele><time>2026-04-18T14:23:11.292Z</time></trkpt><trkpt lat="45.72544" lon="8.55548"><ele>301.0</ele><time>2026-04-18T14:23:14.299Z</time></trkpt><trkpt lat="45.725475" lon="8.5555583"><ele>301.3333333333333</ele><time>2026-04-18T14:23:16.293Z</time></trkpt><trkpt lat="45.7255067" lon="8.5556467"><ele>301.66666666666663</ele><time>2026-04-18T14:23:18.297Z</time></trkpt><trkpt lat="45.7255467" lon="8.5557717"><ele>302.0</ele><time>2026-04-18T14:23:21.294Z</time></trkpt><trkpt lat="45.7255867" lon="8.5558883"><ele>302.3333333333333</ele><time>2026-04-18T14:23:24.297Z</time></trkpt><trkpt lat="45.7256283" lon="8.556"><ele>302.6666666666667</ele><time>2026-04-18T14:23:27.294Z</time></trkpt><trkpt lat="45.7256817" lon="8.5560917"><ele>303.0</ele><time>2026-04-18T14:23:30.293Z</time></trkpt><trkpt lat="45.7257333" lon="8.55619"><ele>303.0</ele><time>2026-04-18T14:23:33.292Z</time></trkpt><trkpt lat="45.7257817" lon="8.5562733"><ele>303.0</ele><time>2026-04-18T14:23:36.294Z</time></trkpt><trkpt lat="45.7258217" lon="8.55637"><ele>303.0</ele><time>2026-04-18T14:23:39.289Z</time></trkpt><trkpt lat="45.7258517" lon="8.55646"><ele>303.0</ele><time>2026-04-18T14:23:42.295Z</time></trkpt><trkpt lat="45.7258933" lon="8.5565817"><ele>303.0</ele><time>2026-04-18T14:23:45.294Z</time></trkpt><trkpt lat="45.725935" lon="8.55674"><ele>303.0</ele><time>2026-04-18T14:23:47.296Z</time></trkpt><trkpt lat="45.7259717" lon="8.5568283"><ele>303.0</ele><time>2026-04-18T14:23:48.298Z</time></trkpt><trkpt lat="45.726005" lon="8.556915"><ele>303.0</ele><time>2026-04-18T14:23:49.294Z</time></trkpt><trkpt lat="45.7260333" lon="8.5570033"><ele>303.0</ele><time>2026-04-18T14:23:50.293Z</time></trkpt><trkpt lat="45.7260567" lon="8.5571717"><ele>303.0</ele><time>2026-04-18T14:23:52.294Z</time></trkpt><trkpt lat="45.7260283" lon="8.5572717"><ele>303.0</ele><time>2026-04-18T14:23:54.295Z</time></trkpt><trkpt lat="45.725955" lon="8.5572917"><ele>303.0</ele><time>2026-04-18T14:23:57.296Z</time></trkpt><trkpt lat="45.7259117" lon="8.5572083"><ele>303.6666666666667</ele><time>2026-04-18T14:24:01.293Z</time></trkpt><trkpt lat="45.7258283" lon="8.55713"><ele>304.3333333333333</ele><time>2026-04-18T14:24:18.295Z</time></trkpt><trkpt lat="45.725745" lon="8.55713"><ele>305.0</ele><time>2026-04-18T14:24:22.293Z</time></trkpt><trkpt lat="45.7256767" lon="8.5571283"><ele>305.66666666666663</ele><time>2026-04-18T14:24:24.299Z</time></trkpt><trkpt lat="45.7255917" lon="8.55713"><ele>306.3333333333333</ele><time>2026-04-18T14:24:27.295Z</time></trkpt><trkpt lat="45.72553" lon="8.5571833"><ele>307.0</ele><time>2026-04-18T14:24:30.296Z</time></trkpt><trkpt lat="45.7254583" lon="8.5572433"><ele>307.0</ele><time>2026-04-18T14:24:32.29Z</time></trkpt><trkpt lat="45.7253783" lon="8.5572717"><ele>307.0</ele><time>2026-04-18T14:24:34.297Z</time></trkpt><trkpt lat="45.7253033" lon="8.557265"><ele>307.0</ele><time>2026-04-18T14:24:36.295Z</time></trkpt><trkpt lat="45.7252317" lon="8.5572267"><ele>307.0</ele><time>2026-04-18T14:24:38.296Z</time></trkpt><trkpt lat="45.725155" lon="8.5572183"><ele>307.0</ele><time>2026-04-18T14:24:40.298Z</time></trkpt><trkpt lat="45.7250883" lon="8.5571933"><ele>307.0</ele><time>2026-04-18T14:24:42.295Z</time></trkpt><trkpt lat="45.7250033" lon="8.5571683"><ele>306.66666666666663</ele><time>2026-04-18T14:24:45.291Z</time></trkpt><trkpt lat="45.7249217" lon="8.5571617"><ele>306.3333333333333</ele><time>2026-04-18T14:24:47.293Z</time></trkpt><trkpt lat="45.7248267" lon="8.5571533"><ele>306.0</ele><time>2026-04-18T14:24:49.294Z</time></trkpt><trkpt lat="45.7247467" lon="8.5571133"><ele>305.6666666666667</ele><time>2026-04-18T14:24:51.295Z</time></trkpt><trkpt lat="45.7246733" lon="8.557055"><ele>305.33333333333337</ele><time>2026-04-18T14:24:53.294Z</time></trkpt><trkpt lat="45.724585" lon="8.557"><ele>305.0</ele><time>2026-04-18T14:24:55.295Z</time></trkpt><trkpt lat="45.7244983" lon="8.5569667"><ele>304.1666666666667</ele><time>2026-04-18T14:24:57.295Z</time></trkpt><trkpt lat="45.7244217" lon="8.556925"><ele>303.33333333333337</ele><time>2026-04-18T14:24:59.294Z</time></trkpt><trkpt lat="45.7243467" lon="8.5568683"><ele>302.5</ele><time>2026-04-18T14:25:01.296Z</time></trkpt><trkpt lat="45.7242783" lon="8.5568133"><ele>301.6666666666667</ele><time>2026-04-18T14:25:03.294Z</time></trkpt><trkpt lat="45.724215" lon="8.5567617"><ele>300.8333333333333</ele><time>2026-04-18T14:25:05.293Z</time></trkpt><trkpt lat="45.7241283" lon="8.5566967"><ele>300.0</ele><time>2026-04-18T14:25:07.295Z</time></trkpt><trkpt lat="45.7240667" lon="8.556655"><ele>299.3333333333333</ele><time>2026-04-18T14:25:09.294Z</time></trkpt><trkpt lat="45.7240067" lon="8.5566067"><ele>298.6666666666667</ele><time>2026-04-18T14:25:11.294Z</time></trkpt><trkpt lat="45.72395" lon="8.5565583"><ele>298.0</ele><time>2026-04-18T14:25:13.294Z</time></trkpt><trkpt lat="45.7238867" lon="8.5564967"><ele>297.33333333333337</ele><time>2026-04-18T14:25:15.297Z</time></trkpt><trkpt lat="45.7238217" lon="8.5564267"><ele>296.6666666666667</ele><time>2026-04-18T14:25:17.293Z</time></trkpt><trkpt lat="45.7237433" lon="8.5563567"><ele>296.0</ele><time>2026-04-18T14:25:19.294Z</time></trkpt><trkpt lat="45.72368" lon="8.5563"><ele>296.0</ele><time>2026-04-18T14:25:21.293Z</time></trkpt><trkpt lat="45.7236" lon="8.5562183"><ele>296.0</ele><time>2026-04-18T14:25:23.295Z</time></trkpt><trkpt lat="45.7235317" lon="8.55615"><ele>296.0</ele><time>2026-04-18T14:25:25.29Z</time></trkpt><trkpt lat="45.7234617" lon="8.5560967"><ele>296.0</ele><time>2026-04-18T14:25:27.295Z</time></trkpt><trkpt lat="45.723395" lon="8.5560567"><ele>296.0</ele><time>2026-04-18T14:25:29.293Z</time></trkpt><trkpt lat="45.7233217" lon="8.5560083"><ele>296.0</ele><time>2026-04-18T14:25:31.294Z</time></trkpt><trkpt lat="45.72325" lon="8.555955"><ele>295.8</ele><time>2026-04-18T14:25:33.294Z</time></trkpt><trkpt lat="45.7231733" lon="8.555895"><ele>295.6</ele><time>2026-04-18T14:25:35.295Z</time></trkpt><trkpt lat="45.723095" lon="8.555835"><ele>295.4</ele><time>2026-04-18T14:25:37.292Z</time></trkpt><trkpt lat="45.7230183" lon="8.5557783"><ele>295.2</ele><time>2026-04-18T14:25:39.295Z</time></trkpt><trkpt lat="45.7229333" lon="8.5557217"><ele>295.0</ele><time>2026-04-18T14:25:41.294Z</time></trkpt><trkpt lat="45.72284" lon="8.5556717"><ele>295.00000000000006</ele><time>2026-04-18T14:25:43.293Z</time></trkpt><trkpt lat="45.72277" lon="8.5556267"><ele>295.0</ele><time>2026-04-18T14:25:45.293Z</time></trkpt><trkpt lat="45.7227033" lon="8.55558"><ele>295.0</ele><time>2026-04-18T14:25:47.291Z</time></trkpt><trkpt lat="45.7226433" lon="8.5555217"><ele>295.0</ele><time>2026-04-18T14:25:49.294Z</time></trkpt><trkpt lat="45.7225867" lon="8.5554617"><ele>295.0</ele><time>2026-04-18T14:25:51.294Z</time></trkpt><trkpt lat="45.7225267" lon="8.555405"><ele>295.00000000000006</ele><time>2026-04-18T14:25:53.294Z</time></trkpt><trkpt lat="45.7224617" lon="8.5553333"><ele>295.0</ele><time>2026-04-18T14:25:55.296Z</time></trkpt><trkpt lat="45.72239" lon="8.55527"><ele>295.16666666666663</ele><time>2026-04-18T14:25:57.297Z</time></trkpt><trkpt lat="45.7223283" lon="8.5552067"><ele>295.3333333333333</ele><time>2026-04-18T14:25:59.293Z</time></trkpt><trkpt lat="45.7222567" lon="8.5551533"><ele>295.5</ele><time>2026-04-18T14:26:01.295Z</time></trkpt><trkpt lat="45.7222017" lon="8.5550967"><ele>295.6666666666667</ele><time>2026-04-18T14:26:03.298Z</time></trkpt><trkpt lat="45.7221217" lon="8.5550133"><ele>295.83333333333337</ele><time>2026-04-18T14:26:06.297Z</time></trkpt><trkpt lat="45.72203" lon="8.5549533"><ele>296.0</ele><time>2026-04-18T14:26:08.292Z</time></trkpt><trkpt lat="45.7219317" lon="8.55489"><ele>295.2</ele><time>2026-04-18T14:26:10.295Z</time></trkpt><trkpt lat="45.7218417" lon="8.5548433"><ele>294.40000000000003</ele><time>2026-04-18T14:26:12.296Z</time></trkpt><trkpt lat="45.7217417" lon="8.5547717"><ele>293.6</ele><time>2026-04-18T14:26:14.293Z</time></trkpt><trkpt lat="45.72165" lon="8.5546883"><ele>292.8</ele><time>2026-04-18T14:26:16.294Z</time></trkpt><trkpt lat="45.7215467" lon="8.5546167"><ele>292.0</ele><time>2026-04-18T14:26:18.29Z</time></trkpt><trkpt lat="45.7214483" lon="8.5545667"><ele>291.2</ele><time>2026-04-18T14:26:20.296Z</time></trkpt><trkpt lat="45.7213467" lon="8.5544917"><ele>290.4</ele><time>2026-04-18T14:26:22.294Z</time></trkpt><trkpt lat="45.7212483" lon="8.55442"><ele>289.6</ele><time>2026-04-18T14:26:24.294Z</time></trkpt><trkpt lat="45.7211583" lon="8.5543467"><ele>288.8</ele><time>2026-04-18T14:26:26.297Z</time></trkpt><trkpt lat="45.7210683" lon="8.5542467"><ele>288.0</ele><time>2026-04-18T14:26:28.293Z</time></trkpt><trkpt lat="45.7209933" lon="8.5541267"><ele>285.75</ele><time>2026-04-18T14:26:30.293Z</time></trkpt><trkpt lat="45.720925" lon="8.5539967"><ele>283.5</ele><time>2026-04-18T14:26:32.295Z</time></trkpt><trkpt lat="45.7208633" lon="8.5538583"><ele>281.25</ele><time>2026-04-18T14:26:34.291Z</time></trkpt><trkpt lat="45.720805" lon="8.553715"><ele>279.0</ele><time>2026-04-18T14:26:36.294Z</time></trkpt><trkpt lat="45.72076" lon="8.5535483"><ele>279.0</ele><time>2026-04-18T14:26:38.295Z</time></trkpt><trkpt lat="45.7207267" lon="8.5534683"><ele>279.0</ele><time>2026-04-18T14:26:39.299Z</time></trkpt><trkpt lat="45.7206883" lon="8.553395"><ele>279.0</ele><time>2026-04-18T14:26:40.294Z</time></trkpt><trkpt lat="45.7206" lon="8.5532783"><ele>279.0</ele><time>2026-04-18T14:26:42.291Z</time></trkpt><trkpt lat="45.72052" lon="8.553165"><ele>279.0</ele><time>2026-04-18T14:26:44.295Z</time></trkpt><trkpt lat="45.72044" lon="8.5530533"><ele>279.0</ele><time>2026-04-18T14:26:46.293Z</time></trkpt><trkpt lat="45.7203783" lon="8.5529567"><ele>279.0</ele><time>2026-04-18T14:26:48.293Z</time></trkpt><trkpt lat="45.7203383" lon="8.5528533"><ele>279.0</ele><time>2026-04-18T14:26:50.295Z</time></trkpt><trkpt lat="45.720295" lon="8.5527783"><ele>279.0</ele><time>2026-04-18T14:26:53.29Z</time></trkpt><trkpt lat="45.720325" lon="8.5526867"><ele>279.0</ele><time>2026-04-18T14:26:58.293Z</time></trkpt><trkpt lat="45.720375" lon="8.5525833"><ele>279.0</ele><time>2026-04-18T14:27:01.298Z</time></trkpt><trkpt lat="45.7204067" lon="8.5525033"><ele>278.85714285714283</ele><time>2026-04-18T14:27:03.293Z</time></trkpt><trkpt lat="45.7204417" lon="8.55241"><ele>278.7142857142857</ele><time>2026-04-18T14:27:05.293Z</time></trkpt><trkpt lat="45.7204817" lon="8.55233"><ele>278.57142857142856</ele><time>2026-04-18T14:27:07.294Z</time></trkpt><trkpt lat="45.7205183" lon="8.5522533"><ele>278.42857142857144</ele><time>2026-04-18T14:27:09.293Z</time></trkpt><trkpt lat="45.7205533" lon="8.55217"><ele>278.2857142857143</ele><time>2026-04-18T14:27:11.292Z</time></trkpt><trkpt lat="45.7205933" lon="8.5520817"><ele>278.1428571428571</ele><time>2026-04-18T14:27:13.297Z</time></trkpt><trkpt lat="45.7206317" lon="8.5519883"><ele>278.0</ele><time>2026-04-18T14:27:15.293Z</time></trkpt><trkpt lat="45.7206733" lon="8.5518933"><ele>277.5</ele><time>2026-04-18T14:27:17.295Z</time></trkpt><trkpt lat="45.7207117" lon="8.5517983"><ele>277.0</ele><time>2026-04-18T14:27:19.295Z</time></trkpt><trkpt lat="45.7207517" lon="8.5516883"><ele>276.5</ele><time>2026-04-18T14:27:21.296Z</time></trkpt><trkpt lat="45.7207867" lon="8.5515817"><ele>276.0</ele><time>2026-04-18T14:27:23.297Z</time></trkpt><trkpt lat="45.7208333" lon="8.5514883"><ele>275.5</ele><time>2026-04-18T14:27:25.297Z</time></trkpt><trkpt lat="45.7208833" lon="8.5513867"><ele>275.0</ele><time>2026-04-18T14:27:27.296Z</time></trkpt><trkpt lat="45.7209317" lon="8.55128"><ele>274.5</ele><time>2026-04-18T14:27:29.294Z</time></trkpt><trkpt lat="45.72098" lon="8.5511717"><ele>274.0</ele><time>2026-04-18T14:27:31.293Z</time></trkpt><trkpt lat="45.72103" lon="8.5510717"><ele>273.5</ele><time>2026-04-18T14:27:33.294Z</time></trkpt><trkpt lat="45.7210833" lon="8.5509767"><ele>273.0</ele><time>2026-04-18T14:27:35.295Z</time></trkpt><trkpt lat="45.7211367" lon="8.5508783"><ele>272.5</ele><time>2026-04-18T14:27:37.293Z</time></trkpt><trkpt lat="45.7211833" lon="8.5507667"><ele>272.0</ele><time>2026-04-18T14:27:39.298Z</time></trkpt><trkpt lat="45.7212383" lon="8.5506583"><ele>272.0</ele><time>2026-04-18T14:27:41.295Z</time></trkpt><trkpt lat="45.721295" lon="8.5505667"><ele>272.0</ele><time>2026-04-18T14:27:43.294Z</time></trkpt><trkpt lat="45.72136" lon="8.5504983"><ele>272.0</ele><time>2026-04-18T14:27:45.293Z</time></trkpt><trkpt lat="45.7214383" lon="8.5504517"><ele>272.0</ele><time>2026-04-18T14:27:47.293Z</time></trkpt><trkpt lat="45.7215067" lon="8.5503983"><ele>272.0</ele><time>2026-04-18T14:27:49.296Z</time></trkpt><trkpt lat="45.7215733" lon="8.5503517"><ele>272.0</ele><time>2026-04-18T14:27:51.297Z</time></trkpt><trkpt lat="45.7216383" lon="8.5503217"><ele>272.0</ele><time>2026-04-18T14:27:53.297Z</time></trkpt><trkpt lat="45.7217167" lon="8.550305"><ele>272.0</ele><time>2026-04-18T14:27:55.294Z</time></trkpt><trkpt lat="45.721795" lon="8.5502783"><ele>272.0</ele><time>2026-04-18T14:27:57.293Z</time></trkpt><trkpt lat="45.72187" lon="8.5502717"><ele>272.0</ele><time>2026-04-18T14:27:59.295Z</time></trkpt><trkpt lat="45.721945" lon="8.5502583"><ele>272.0</ele><time>2026-04-18T14:28:01.291Z</time></trkpt><trkpt lat="45.7220217" lon="8.5502367"><ele>272.0</ele><time>2026-04-18T14:28:03.294Z</time></trkpt><trkpt lat="45.7221033" lon="8.5502167"><ele>272.33333333333337</ele><time>2026-04-18T14:28:05.294Z</time></trkpt><trkpt lat="45.72219" lon="8.5501933"><ele>272.6666666666667</ele><time>2026-04-18T14:28:07.296Z</time></trkpt><trkpt lat="45.7222683" lon="8.5501733"><ele>273.0</ele><time>2026-04-18T14:28:09.294Z</time></trkpt><trkpt lat="45.72235" lon="8.5501583"><ele>273.3333333333333</ele><time>2026-04-18T14:28:11.295Z</time></trkpt><trkpt lat="45.7224183" lon="8.5501567"><ele>273.66666666666663</ele><time>2026-04-18T14:28:13.295Z</time></trkpt><trkpt lat="45.7225" lon="8.55015"><ele>274.0</ele><time>2026-04-18T14:28:15.296Z</time></trkpt><trkpt lat="45.72258" lon="8.5501633"><ele>274.0</ele><time>2026-04-18T14:28:17.291Z</time></trkpt><trkpt lat="45.7226633" lon="8.5501767"><ele>274.0</ele><time>2026-04-18T14:28:19.295Z</time></trkpt><trkpt lat="45.722745" lon="8.5502"><ele>274.0</ele><time>2026-04-18T14:28:21.295Z</time></trkpt><trkpt lat="45.7228267" lon="8.5502183"><ele>274.0</ele><time>2026-04-18T14:28:23.291Z</time></trkpt><trkpt lat="45.7229083" lon="8.5502417"><ele>274.0</ele><time>2026-04-18T14:28:25.294Z</time></trkpt><trkpt lat="45.72299" lon="8.5502633"><ele>274.0</ele><time>2026-04-18T14:28:27.293Z</time></trkpt><trkpt lat="45.7230717" lon="8.5502633"><ele>273.5</ele><time>2026-04-18T14:28:29.29Z</time></trkpt><trkpt lat="45.7231467" lon="8.5502917"><ele>273.0</ele><time>2026-04-18T14:28:31.295Z</time></trkpt><trkpt lat="45.7232217" lon="8.5503017"><ele>272.5</ele><time>2026-04-18T14:28:33.292Z</time></trkpt><trkpt lat="45.7232917" lon="8.550325"><ele>272.0</ele><time>2026-04-18T14:28:35.293Z</time></trkpt><trkpt lat="45.723375" lon="8.5503367"><ele>271.5</ele><time>2026-04-18T14:28:37.294Z</time></trkpt><trkpt lat="45.723455" lon="8.55035"><ele>271.0</ele><time>2026-04-18T14:28:39.293Z</time></trkpt><trkpt lat="45.7235317" lon="8.5503767"><ele>271.8333333333333</ele><time>2026-04-18T14:28:41.294Z</time></trkpt><trkpt lat="45.7236133" lon="8.5503717"><ele>272.66666666666663</ele><time>2026-04-18T14:28:43.294Z</time></trkpt><trkpt lat="45.72369" lon="8.5503767"><ele>273.5</ele><time>2026-04-18T14:28:45.294Z</time></trkpt><trkpt lat="45.7237633" lon="8.5503767"><ele>274.3333333333333</ele><time>2026-04-18T14:28:47.295Z</time></trkpt><trkpt lat="45.7238417" lon="8.55037"><ele>275.1666666666667</ele><time>2026-04-18T14:28:49.298Z</time></trkpt><trkpt lat="45.7239167" lon="8.5503483"><ele>276.0</ele><time>2026-04-18T14:28:51.296Z</time></trkpt><trkpt lat="45.7239917" lon="8.5502983"><ele>276.0</ele><time>2026-04-18T14:28:53.296Z</time></trkpt><trkpt lat="45.7240717" lon="8.55022"><ele>276.0</ele><time>2026-04-18T14:28:55.295Z</time></trkpt><trkpt lat="45.724155" lon="8.5501533"><ele>276.0</ele><time>2026-04-18T14:28:57.301Z</time></trkpt><trkpt lat="45.72423" lon="8.5500917"><ele>276.0</ele><time>2026-04-18T14:28:59.294Z</time></trkpt><trkpt lat="45.724285" lon="8.55001"><ele>276.0</ele><time>2026-04-18T14:29:01.292Z</time></trkpt><trkpt lat="45.7243567" lon="8.5499167"><ele>276.8333333333333</ele><time>2026-04-18T14:29:03.293Z</time></trkpt><trkpt lat="45.7244283" lon="8.5498383"><ele>277.6666666666667</ele><time>2026-04-18T14:29:05.298Z</time></trkpt><trkpt lat="45.7244883" lon="8.5497433"><ele>278.5</ele><time>2026-04-18T14:29:07.297Z</time></trkpt><trkpt lat="45.72455" lon="8.549625"><ele>279.33333333333337</ele><time>2026-04-18T14:29:09.291Z</time></trkpt><trkpt lat="45.7246233" lon="8.549565"><ele>280.1666666666667</ele><time>2026-04-18T14:29:11.294Z</time></trkpt><trkpt lat="45.7246867" lon="8.5494933"><ele>281.0</ele><time>2026-04-18T14:29:13.296Z</time></trkpt><trkpt lat="45.7247517" lon="8.5494283"><ele>281.0</ele><time>2026-04-18T14:29:15.295Z</time></trkpt><trkpt lat="45.7248067" lon="8.54935"><ele>281.0</ele><time>2026-04-18T14:29:17.294Z</time></trkpt><trkpt lat="45.7248683" lon="8.5492617"><ele>281.0</ele><time>2026-04-18T14:29:19.293Z</time></trkpt><trkpt lat="45.7249367" lon="8.5491733"><ele>281.0</ele><time>2026-04-18T14:29:21.297Z</time></trkpt><trkpt lat="45.7250017" lon="8.54908"><ele>281.0</ele><time>2026-04-18T14:29:23.292Z</time></trkpt><trkpt lat="45.7250733" lon="8.5489833"><ele>281.0</ele><time>2026-04-18T14:29:25.293Z</time></trkpt><trkpt lat="45.7251433" lon="8.5488833"><ele>281.0</ele><time>2026-04-18T14:29:27.294Z</time></trkpt><trkpt lat="45.7252133" lon="8.548785"><ele>281.0</ele><time>2026-04-18T14:29:29.291Z</time></trkpt><trkpt lat="45.7252867" lon="8.54869"><ele>281.0</ele><time>2026-04-18T14:29:31.295Z</time></trkpt><trkpt lat="45.7253567" lon="8.5485983"><ele>281.0</ele><time>2026-04-18T14:29:33.294Z</time></trkpt><trkpt lat="45.7254283" lon="8.548505"><ele>281.0</ele><time>2026-04-18T14:29:35.293Z</time></trkpt><trkpt lat="45.7254983" lon="8.5484233"><ele>282.0</ele><time>2026-04-18T14:29:37.294Z</time></trkpt><trkpt lat="45.7255717" lon="8.548335"><ele>283.0</ele><time>2026-04-18T14:29:39.295Z</time></trkpt><trkpt lat="45.725645" lon="8.54826"><ele>284.0</ele><time>2026-04-18T14:29:41.296Z</time></trkpt><trkpt lat="45.7257217" lon="8.5481917"><ele>285.0</ele><time>2026-04-18T14:29:43.292Z</time></trkpt><trkpt lat="45.7257933" lon="8.5481183"><ele>286.0</ele><time>2026-04-18T14:29:45.293Z</time></trkpt><trkpt lat="45.7258617" lon="8.548045"><ele>286.0</ele><time>2026-04-18T14:29:47.293Z</time></trkpt><trkpt lat="45.7259333" lon="8.5479683"><ele>286.0</ele><time>2026-04-18T14:29:49.296Z</time></trkpt><trkpt lat="45.7260033" lon="8.5478833"><ele>286.0</ele><time>2026-04-18T14:29:51.294Z</time></trkpt><trkpt lat="45.7260717" lon="8.54779"><ele>286.0</ele><time>2026-04-18T14:29:53.295Z</time></trkpt><trkpt lat="45.726145" lon="8.54771"><ele>286.0</ele><time>2026-04-18T14:29:55.293Z</time></trkpt><trkpt lat="45.7262117" lon="8.547625"><ele>286.4285714285714</ele><time>2026-04-18T14:29:57.293Z</time></trkpt><trkpt lat="45.7262783" lon="8.5475567"><ele>286.85714285714283</ele><time>2026-04-18T14:29:59.292Z</time></trkpt><trkpt lat="45.7263383" lon="8.5474867"><ele>287.2857142857143</ele><time>2026-04-18T14:30:01.296Z</time></trkpt><trkpt lat="45.72639" lon="8.5474283"><ele>287.71428571428567</ele><time>2026-04-18T14:30:03.295Z</time></trkpt><trkpt lat="45.7264417" lon="8.5473717"><ele>288.1428571428571</ele><time>2026-04-18T14:30:05.293Z</time></trkpt><trkpt lat="45.7264933" lon="8.5472917"><ele>288.57142857142856</ele><time>2026-04-18T14:30:07.292Z</time></trkpt><trkpt lat="45.7265433" lon="8.5472317"><ele>289.0</ele><time>2026-04-18T14:30:09.293Z</time></trkpt><trkpt lat="45.7265933" lon="8.5471767"><ele>289.0</ele><time>2026-04-18T14:30:11.292Z</time></trkpt><trkpt lat="45.7266433" lon="8.5471133"><ele>289.0</ele><time>2026-04-18T14:30:13.292Z</time></trkpt><trkpt lat="45.7266933" lon="8.547045"><ele>289.0</ele><time>2026-04-18T14:30:15.293Z</time></trkpt><trkpt lat="45.726745" lon="8.5469833"><ele>289.0</ele><time>2026-04-18T14:30:17.297Z</time></trkpt><trkpt lat="45.7268033" lon="8.5469233"><ele>289.0</ele><time>2026-04-18T14:30:19.295Z</time></trkpt><trkpt lat="45.7268617" lon="8.546855"><ele>289.0</ele><time>2026-04-18T14:30:21.296Z</time></trkpt><trkpt lat="45.7269233" lon="8.54679"><ele>289.0</ele><time>2026-04-18T14:30:23.296Z</time></trkpt><trkpt lat="45.7269883" lon="8.54673"><ele>288.66666666666663</ele><time>2026-04-18T14:30:25.294Z</time></trkpt><trkpt lat="45.7270467" lon="8.5466567"><ele>288.3333333333333</ele><time>2026-04-18T14:30:27.294Z</time></trkpt><trkpt lat="45.7271117" lon="8.54659"><ele>288.0</ele><time>2026-04-18T14:30:29.294Z</time></trkpt><trkpt lat="45.727175" lon="8.5465133"><ele>287.6666666666667</ele><time>2026-04-18T14:30:31.296Z</time></trkpt><trkpt lat="45.7272417" lon="8.54644"><ele>287.33333333333337</ele><time>2026-04-18T14:30:33.298Z</time></trkpt><trkpt lat="45.7273033" lon="8.54636"><ele>287.0</ele><time>2026-04-18T14:30:35.293Z</time></trkpt><trkpt lat="45.7273633" lon="8.5462767"><ele>285.83333333333337</ele><time>2026-04-18T14:30:37.295Z</time></trkpt><trkpt lat="45.7274317" lon="8.5461933"><ele>284.6666666666667</ele><time>2026-04-18T14:30:39.294Z</time></trkpt><trkpt lat="45.7275" lon="8.5461167"><ele>283.5</ele><time>2026-04-18T14:30:41.298Z</time></trkpt><trkpt lat="45.72757" lon="8.54604"><ele>282.3333333333333</ele><time>2026-04-18T14:30:43.293Z</time></trkpt><trkpt lat="45.7276383" lon="8.545965"><ele>281.16666666666663</ele><time>2026-04-18T14:30:45.295Z</time></trkpt><trkpt lat="45.7277033" lon="8.545885"><ele>280.0</ele><time>2026-04-18T14:30:47.293Z</time></trkpt><trkpt lat="45.7277533" lon="8.5457833"><ele>280.6</ele><time>2026-04-18T14:30:49.293Z</time></trkpt><trkpt lat="45.72783" lon="8.5456767"><ele>281.2</ele><time>2026-04-18T14:30:52.294Z</time></trkpt><trkpt lat="45.7279033" lon="8.5456033"><ele>281.8</ele><time>2026-04-18T14:30:54.294Z</time></trkpt><trkpt lat="45.727965" lon="8.545515"><ele>282.4</ele><time>2026-04-18T14:30:56.294Z</time></trkpt><trkpt lat="45.7279917" lon="8.5453967"><ele>283.0</ele><time>2026-04-18T14:30:58.293Z</time></trkpt><trkpt lat="45.7279717" lon="8.5452633"><ele>283.0</ele><time>2026-04-18T14:31:00.301Z</time></trkpt><trkpt lat="45.7279483" lon="8.5451383"><ele>283.0</ele><time>2026-04-18T14:31:02.294Z</time></trkpt><trkpt lat="45.7279233" lon="8.5450233"><ele>283.0</ele><time>2026-04-18T14:31:04.295Z</time></trkpt><trkpt lat="45.7278917" lon="8.5449167"><ele>283.0</ele><time>2026-04-18T14:31:06.296Z</time></trkpt><trkpt lat="45.72787" lon="8.5448117"><ele>283.0</ele><time>2026-04-18T14:31:08.295Z</time></trkpt><trkpt lat="45.72784" lon="8.544725"><ele>283.0</ele><time>2026-04-18T14:31:10.294Z</time></trkpt><trkpt lat="45.7278067" lon="8.544615"><ele>281.8333333333333</ele><time>2026-04-18T14:31:13.292Z</time></trkpt><trkpt lat="45.7277933" lon="8.5445117"><ele>280.66666666666663</ele><time>2026-04-18T14:31:16.29Z</time></trkpt><trkpt lat="45.7277717" lon="8.54441"><ele>279.5</ele><time>2026-04-18T14:31:19.294Z</time></trkpt><trkpt lat="45.72774" lon="8.5443017"><ele>278.3333333333333</ele><time>2026-04-18T14:31:22.291Z</time></trkpt><trkpt lat="45.72772" lon="8.5441867"><ele>277.1666666666667</ele><time>2026-04-18T14:31:25.29Z</time></trkpt><trkpt lat="45.7276917" lon="8.5440617"><ele>276.0</ele><time>2026-04-18T14:31:28.294Z</time></trkpt><trkpt lat="45.7276767" lon="8.543935"><ele>275.2857142857143</ele><time>2026-04-18T14:31:31.293Z</time></trkpt><trkpt lat="45.7276483" lon="8.5438517"><ele>274.5714285714286</ele><time>2026-04-18T14:31:33.294Z</time></trkpt><trkpt lat="45.72762" lon="8.5437233"><ele>273.8571428571429</ele><time>2026-04-18T14:31:36.294Z</time></trkpt><trkpt lat="45.7276033" lon="8.543635"><ele>273.14285714285717</ele><time>2026-04-18T14:31:38.295Z</time></trkpt><trkpt lat="45.7275833" lon="8.5435433"><ele>272.42857142857144</ele><time>2026-04-18T14:31:40.295Z</time></trkpt><trkpt lat="45.727555" lon="8.5434133"><ele>271.7142857142857</ele><time>2026-04-18T14:31:43.296Z</time></trkpt><trkpt lat="45.727525" lon="8.5433317"><ele>271.0</ele><time>2026-04-18T14:31:45.297Z</time></trkpt><trkpt lat="45.7275017" lon="8.54324"><ele>271.0</ele><time>2026-04-18T14:31:47.293Z</time></trkpt><trkpt lat="45.7274883" lon="8.5431417"><ele>271.0</ele><time>2026-04-18T14:31:49.292Z</time></trkpt><trkpt lat="45.72751" lon="8.5430433"><ele>271.0</ele><time>2026-04-18T14:31:51.29Z</time></trkpt><trkpt lat="45.727575" lon="8.5429983"><ele>271.0</ele><time>2026-04-18T14:31:53.293Z</time></trkpt><trkpt lat="45.7276617" lon="8.5429417"><ele>271.0</ele><time>2026-04-18T14:31:56.293Z</time></trkpt><trkpt lat="45.7277567" lon="8.5429283"><ele>271.0</ele><time>2026-04-18T14:31:59.293Z</time></trkpt><trkpt lat="45.72782" lon="8.5429417"><ele>271.16666666666663</ele><time>2026-04-18T14:32:01.294Z</time></trkpt><trkpt lat="45.727905" lon="8.5429267"><ele>271.3333333333333</ele><time>2026-04-18T14:32:04.295Z</time></trkpt><trkpt lat="45.72797" lon="8.5428417"><ele>271.5</ele><time>2026-04-18T14:32:07.296Z</time></trkpt><trkpt lat="45.72797" lon="8.5427167"><ele>271.6666666666667</ele><time>2026-04-18T14:32:10.296Z</time></trkpt><trkpt lat="45.727945" lon="8.542615"><ele>271.83333333333337</ele><time>2026-04-18T14:32:13.295Z</time></trkpt><trkpt lat="45.7279217" lon="8.5425033"><ele>272.0</ele><time>2026-04-18T14:32:18.294Z</time></trkpt><trkpt lat="45.7278983" lon="8.542405"><ele>272.0</ele><time>2026-04-18T14:32:21.293Z</time></trkpt><trkpt lat="45.7278767" lon="8.5422917"><ele>272.0</ele><time>2026-04-18T14:32:24.294Z</time></trkpt><trkpt lat="45.7278433" lon="8.5421817"><ele>272.0</ele><time>2026-04-18T14:32:27.295Z</time></trkpt><trkpt lat="45.72782" lon="8.54206"><ele>272.0</ele><time>2026-04-18T14:32:30.296Z</time></trkpt><trkpt lat="45.7277983" lon="8.5419433"><ele>272.0</ele><time>2026-04-18T14:32:33.296Z</time></trkpt><trkpt lat="45.7277717" lon="8.54182"><ele>272.0</ele><time>2026-04-18T14:32:36.296Z</time></trkpt><trkpt lat="45.7277367" lon="8.5417033"><ele>272.0</ele><time>2026-04-18T14:32:39.297Z</time></trkpt><trkpt lat="45.7277233" lon="8.5415833"><ele>272.0</ele><time>2026-04-18T14:32:42.293Z</time></trkpt><trkpt lat="45.7276933" lon="8.54147"><ele>272.0</ele><time>2026-04-18T14:32:45.293Z</time></trkpt><trkpt lat="45.7276667" lon="8.5413533"><ele>272.0</ele><time>2026-04-18T14:32:48.293Z</time></trkpt><trkpt lat="45.7276433" lon="8.5412417"><ele>272.0</ele><time>2026-04-18T14:32:51.295Z</time></trkpt><trkpt lat="45.7276217" lon="8.5411317"><ele>272.0</ele><time>2026-04-18T14:32:54.293Z</time></trkpt><trkpt lat="45.7276083" lon="8.5410333"><ele>272.0</ele><time>2026-04-18T14:32:57.294Z</time></trkpt><trkpt lat="45.7275867" lon="8.5409217"><ele>272.0</ele><time>2026-04-18T14:33:00.292Z</time></trkpt><trkpt lat="45.7275617" lon="8.5408133"><ele>272.0</ele><time>2026-04-18T14:33:03.296Z</time></trkpt><trkpt lat="45.72754" lon="8.5407083"><ele>272.0</ele><time>2026-04-18T14:33:06.293Z</time></trkpt><trkpt lat="45.72752" lon="8.5406017"><ele>272.0</ele><time>2026-04-18T14:33:09.294Z</time></trkpt><trkpt lat="45.727495" lon="8.5404867"><ele>272.0</ele><time>2026-04-18T14:33:12.295Z</time></trkpt><trkpt lat="45.72747" lon="8.5403683"><ele>272.5</ele><time>2026-04-18T14:33:15.293Z</time></trkpt><trkpt lat="45.727455" lon="8.5402533"><ele>273.0</ele><time>2026-04-18T14:33:18.297Z</time></trkpt><trkpt lat="45.7274333" lon="8.5401433"><ele>273.5</ele><time>2026-04-18T14:33:21.292Z</time></trkpt><trkpt lat="45.7274133" lon="8.5400267"><ele>274.0</ele><time>2026-04-18T14:33:24.292Z</time></trkpt><trkpt lat="45.727385" lon="8.5399267"><ele>274.5</ele><time>2026-04-18T14:33:27.294Z</time></trkpt><trkpt lat="45.72735" lon="8.5398083"><ele>275.0</ele><time>2026-04-18T14:33:30.295Z</time></trkpt><trkpt lat="45.7273267" lon="8.5397233"><ele>275.0</ele><time>2026-04-18T14:33:32.295Z</time></trkpt><trkpt lat="45.7273017" lon="8.5396083"><ele>275.0</ele><time>2026-04-18T14:33:35.29Z</time></trkpt><trkpt lat="45.72728" lon="8.53951"><ele>275.0</ele><time>2026-04-18T14:33:38.292Z</time></trkpt><trkpt lat="45.7272383" lon="8.5394233"><ele>275.0</ele><time>2026-04-18T14:33:42.29Z</time></trkpt><trkpt lat="45.7272217" lon="8.539335"><ele>275.0</ele><time>2026-04-18T14:33:46.291Z</time></trkpt><trkpt lat="45.7272067" lon="8.53924"><ele>275.0</ele><time>2026-04-18T14:33:50.294Z</time></trkpt><trkpt lat="45.7271867" lon="8.5391383"><ele>275.0</ele><time>2026-04-18T14:33:54.294Z</time></trkpt><trkpt lat="45.7271667" lon="8.5390467"><ele>275.7142857142857</ele><time>2026-04-18T14:33:58.292Z</time></trkpt><trkpt lat="45.7271433" lon="8.5389583"><ele>276.42857142857144</ele><time>2026-04-18T14:34:02.295Z</time></trkpt><trkpt lat="45.7271183" lon="8.53887"><ele>277.1428571428571</ele><time>2026-04-18T14:34:06.296Z</time></trkpt><trkpt lat="45.7270933" lon="8.5387717"><ele>277.8571428571429</ele><time>2026-04-18T14:34:10.292Z</time></trkpt><trkpt lat="45.7270667" lon="8.5386833"><ele>278.57142857142856</ele><time>2026-04-18T14:34:14.297Z</time></trkpt><trkpt lat="45.72712" lon="8.538785"><ele>279.2857142857143</ele><time>2026-04-18T14:35:17.295Z</time></trkpt><trkpt lat="45.7270767" lon="8.5387133"><ele>280.0</ele><time>2026-04-18T14:35:45.294Z</time></trkpt><trkpt lat="45.72705" lon="8.5386117"><ele>281.0</ele><time>2026-04-18T14:35:49.294Z</time></trkpt><trkpt lat="45.7270367" lon="8.53852"><ele>282.0</ele><time>2026-04-18T14:35:53.293Z</time></trkpt><trkpt lat="45.7270033" lon="8.5384283"><ele>283.0</ele><time>2026-04-18T14:35:58.293Z</time></trkpt><trkpt lat="45.7269867" lon="8.53834"><ele>284.0</ele><time>2026-04-18T14:36:02.293Z</time></trkpt><trkpt lat="45.7269717" lon="8.538225"><ele>285.0</ele><time>2026-04-18T14:36:06.294Z</time></trkpt><trkpt lat="45.7269483" lon="8.538125"><ele>286.0</ele><time>2026-04-18T14:36:10.295Z</time></trkpt><trkpt lat="45.7269417" lon="8.538035"><ele>287.0</ele><time>2026-04-18T14:36:14.296Z</time></trkpt><trkpt lat="45.7269233" lon="8.5379483"><ele>287.42857142857144</ele><time>2026-04-18T14:36:18.295Z</time></trkpt><trkpt lat="45.7269017" lon="8.5378383"><ele>287.8571428571429</ele><time>2026-04-18T14:36:23.291Z</time></trkpt><trkpt lat="45.72688" lon="8.53775"><ele>288.2857142857143</ele><time>2026-04-18T14:36:27.293Z</time></trkpt><trkpt lat="45.7268617" lon="8.53765"><ele>288.7142857142857</ele><time>2026-04-18T14:36:31.294Z</time></trkpt><trkpt lat="45.7268317" lon="8.5375567"><ele>289.14285714285717</ele><time>2026-04-18T14:36:35.291Z</time></trkpt><trkpt lat="45.7268067" lon="8.5374517"><ele>289.57142857142856</ele><time>2026-04-18T14:36:39.294Z</time></trkpt><trkpt lat="45.7267867" lon="8.5373633"><ele>290.0</ele><time>2026-04-18T14:36:43.292Z</time></trkpt><trkpt lat="45.7267817" lon="8.537245"><ele>290.0</ele><time>2026-04-18T14:36:47.292Z</time></trkpt><trkpt lat="45.7267517" lon="8.537155"><ele>290.0</ele><time>2026-04-18T14:36:50.292Z</time></trkpt><trkpt lat="45.7267133" lon="8.5370417"><ele>290.0</ele><time>2026-04-18T14:36:58.293Z</time></trkpt><trkpt lat="45.7267017" lon="8.536945"><ele>290.0</ele><time>2026-04-18T14:37:03.293Z</time></trkpt><trkpt lat="45.7266767" lon="8.5368367"><ele>290.0</ele><time>2026-04-18T14:37:08.298Z</time></trkpt><trkpt lat="45.72666" lon="8.5367467"><ele>290.0</ele><time>2026-04-18T14:37:12.293Z</time></trkpt><trkpt lat="45.7266383" lon="8.53665"><ele>290.0</ele><time>2026-04-18T14:37:17.296Z</time></trkpt><trkpt lat="45.7266217" lon="8.536555"><ele>291.0</ele><time>2026-04-18T14:37:22.292Z</time></trkpt><trkpt lat="45.7266017" lon="8.5364567"><ele>292.0</ele><time>2026-04-18T14:37:27.291Z</time></trkpt><trkpt lat="45.726575" lon="8.536365"><ele>293.0</ele><time>2026-04-18T14:37:32.295Z</time></trkpt><trkpt lat="45.726555" lon="8.5362683"><ele>294.0</ele><time>2026-04-18T14:37:37.294Z</time></trkpt><trkpt lat="45.7265417" lon="8.5361633"><ele>295.0</ele><time>2026-04-18T14:37:42.296Z</time></trkpt><trkpt lat="45.7265117" lon="8.5360667"><ele>296.0</ele><time>2026-04-18T14:37:48.294Z</time></trkpt><trkpt lat="45.7264867" lon="8.5359817"><ele>297.0</ele><time>2026-04-18T14:37:53.291Z</time></trkpt><trkpt lat="45.7264583" lon="8.5358767"><ele>297.7142857142857</ele><time>2026-04-18T14:37:58.29Z</time></trkpt><trkpt lat="45.7264417" lon="8.53577"><ele>298.42857142857144</ele><time>2026-04-18T14:38:02.291Z</time></trkpt><trkpt lat="45.72644" lon="8.53567"><ele>299.14285714285717</ele><time>2026-04-18T14:38:07.293Z</time></trkpt><trkpt lat="45.726415" lon="8.5355783"><ele>299.8571428571429</ele><time>2026-04-18T14:38:12.292Z</time></trkpt><trkpt lat="45.7263933" lon="8.5354933"><ele>300.57142857142856</ele><time>2026-04-18T14:38:16.294Z</time></trkpt><trkpt lat="45.72637" lon="8.5354067"><ele>301.28571428571433</ele><time>2026-04-18T14:38:20.294Z</time></trkpt><trkpt lat="45.7263433" lon="8.5353217"><ele>302.0</ele><time>2026-04-18T14:38:24.297Z</time></trkpt><trkpt lat="45.7263067" lon="8.5352383"><ele>303.0</ele><time>2026-04-18T14:38:29.293Z</time></trkpt><trkpt lat="45.7262967" lon="8.5351417"><ele>304.0</ele><time>2026-04-18T14:38:34.292Z</time></trkpt><trkpt lat="45.7262567" lon="8.53505"><ele>305.0</ele><time>2026-04-18T14:38:40.287Z</time></trkpt><trkpt lat="45.72612" lon="8.534885"><ele>306.0</ele><time>2026-04-18T14:40:42.294Z</time></trkpt><trkpt lat="45.7260517" lon="8.5348817"><ele>307.0</ele><time>2026-04-18T14:40:46.296Z</time></trkpt><trkpt lat="45.7259833" lon="8.5348933"><ele>307.57142857142856</ele><time>2026-04-18T14:40:49.3Z</time></trkpt><trkpt lat="45.7259083" lon="8.534915"><ele>308.1428571428571</ele><time>2026-04-18T14:40:52.293Z</time></trkpt><trkpt lat="45.7258367" lon="8.5349167"><ele>308.71428571428567</ele><time>2026-04-18T14:40:54.298Z</time></trkpt><trkpt lat="45.725765" lon="8.5349283"><ele>309.2857142857143</ele><time>2026-04-18T14:40:56.298Z</time></trkpt><trkpt lat="45.7256983" lon="8.5349283"><ele>309.8571428571429</ele><time>2026-04-18T14:40:58.295Z</time></trkpt><trkpt lat="45.72563" lon="8.5349233"><ele>310.4285714285714</ele><time>2026-04-18T14:41:00.293Z</time></trkpt><trkpt lat="45.7255617" lon="8.5349083"><ele>311.0</ele><time>2026-04-18T14:41:02.297Z</time></trkpt><trkpt lat="45.7254933" lon="8.5348833"><ele>311.0</ele><time>2026-04-18T14:41:04.294Z</time></trkpt><trkpt lat="45.7254183" lon="8.5348383"><ele>311.0</ele><time>2026-04-18T14:41:06.296Z</time></trkpt><trkpt lat="45.7253483" lon="8.5347817"><ele>311.0</ele><time>2026-04-18T14:41:08.294Z</time></trkpt><trkpt lat="45.7252867" lon="8.534715"><ele>311.0</ele><time>2026-04-18T14:41:10.292Z</time></trkpt><trkpt lat="45.7252217" lon="8.5346567"><ele>311.0</ele><time>2026-04-18T14:41:12.296Z</time></trkpt><trkpt lat="45.7251617" lon="8.5346033"><ele>311.0</ele><time>2026-04-18T14:41:14.293Z</time></trkpt><trkpt lat="45.7251017" lon="8.5345483"><ele>310.6666666666667</ele><time>2026-04-18T14:41:16.292Z</time></trkpt><trkpt lat="45.7250383" lon="8.534495"><ele>310.33333333333337</ele><time>2026-04-18T14:41:18.294Z</time></trkpt><trkpt lat="45.7249767" lon="8.5344333"><ele>310.0</ele><time>2026-04-18T14:41:20.295Z</time></trkpt><trkpt lat="45.7249117" lon="8.534375"><ele>309.6666666666667</ele><time>2026-04-18T14:41:22.289Z</time></trkpt><trkpt lat="45.7248483" lon="8.534315"><ele>309.3333333333333</ele><time>2026-04-18T14:41:24.292Z</time></trkpt><trkpt lat="45.7247833" lon="8.534255"><ele>309.0</ele><time>2026-04-18T14:41:26.288Z</time></trkpt><trkpt lat="45.724725" lon="8.53419"><ele>309.00000000000006</ele><time>2026-04-18T14:41:28.293Z</time></trkpt><trkpt lat="45.7246633" lon="8.5341417"><ele>309.0</ele><time>2026-04-18T14:41:30.293Z</time></trkpt><trkpt lat="45.7246133" lon="8.5340833"><ele>309.0</ele><time>2026-04-18T14:41:32.293Z</time></trkpt><trkpt lat="45.7245633" lon="8.5340217"><ele>309.0</ele><time>2026-04-18T14:41:34.293Z</time></trkpt><trkpt lat="45.7245067" lon="8.53397"><ele>309.0</ele><time>2026-04-18T14:41:36.296Z</time></trkpt><trkpt lat="45.7244467" lon="8.5339"><ele>309.00000000000006</ele><time>2026-04-18T14:41:38.296Z</time></trkpt><trkpt lat="45.72438" lon="8.5338467"><ele>309.0</ele><time>2026-04-18T14:41:40.294Z</time></trkpt><trkpt lat="45.724315" lon="8.5337917"><ele>308.6666666666667</ele><time>2026-04-18T14:41:42.291Z</time></trkpt><trkpt lat="45.7242517" lon="8.5337383"><ele>308.3333333333333</ele><time>2026-04-18T14:41:44.294Z</time></trkpt><trkpt lat="45.72417" lon="8.5336767"><ele>308.0</ele><time>2026-04-18T14:42:08.296Z</time></trkpt><trkpt lat="45.72411" lon="8.5336217"><ele>307.66666666666663</ele><time>2026-04-18T14:42:10.295Z</time></trkpt><trkpt lat="45.724055" lon="8.5335683"><ele>307.3333333333333</ele><time>2026-04-18T14:42:12.292Z</time></trkpt><trkpt lat="45.72399" lon="8.5334817"><ele>307.0</ele><time>2026-04-18T14:42:14.29Z</time></trkpt><trkpt lat="45.7239183" lon="8.533365"><ele>307.8</ele><time>2026-04-18T14:42:16.295Z</time></trkpt><trkpt lat="45.7238633" lon="8.5332417"><ele>308.6</ele><time>2026-04-18T14:42:18.294Z</time></trkpt><trkpt lat="45.72381" lon="8.5331267"><ele>309.40000000000003</ele><time>2026-04-18T14:42:20.293Z</time></trkpt><trkpt lat="45.7237533" lon="8.533"><ele>310.2</ele><time>2026-04-18T14:42:22.292Z</time></trkpt><trkpt lat="45.72369" lon="8.5328817"><ele>311.0</ele><time>2026-04-18T14:42:24.301Z</time></trkpt><trkpt lat="45.7236283" lon="8.5327733"><ele>311.0</ele><time>2026-04-18T14:42:26.291Z</time></trkpt><trkpt lat="45.7235683" lon="8.5326567"><ele>311.0</ele><time>2026-04-18T14:42:28.293Z</time></trkpt><trkpt lat="45.7234967" lon="8.5325317"><ele>311.0</ele><time>2026-04-18T14:42:30.293Z</time></trkpt><trkpt lat="45.7234233" lon="8.532395"><ele>311.0</ele><time>2026-04-18T14:42:32.296Z</time></trkpt><trkpt lat="45.7233567" lon="8.532265"><ele>311.0</ele><time>2026-04-18T14:42:34.294Z</time></trkpt><trkpt lat="45.7233" lon="8.53214"><ele>310.33333333333337</ele><time>2026-04-18T14:42:36.295Z</time></trkpt><trkpt lat="45.7232383" lon="8.5320117"><ele>309.6666666666667</ele><time>2026-04-18T14:42:38.297Z</time></trkpt><trkpt lat="45.7231983" lon="8.5319417"><ele>309.0</ele><time>2026-04-18T14:42:39.295Z</time></trkpt><trkpt lat="45.7231683" lon="8.5318567"><ele>308.3333333333333</ele><time>2026-04-18T14:42:40.294Z</time></trkpt><trkpt lat="45.7231217" lon="8.53179"><ele>307.66666666666663</ele><time>2026-04-18T14:42:41.294Z</time></trkpt><trkpt lat="45.7230583" lon="8.5316483"><ele>307.0</ele><time>2026-04-18T14:42:43.293Z</time></trkpt><trkpt lat="45.72299" lon="8.53152"><ele>307.0</ele><time>2026-04-18T14:42:45.294Z</time></trkpt><trkpt lat="45.7229283" lon="8.5313867"><ele>307.0</ele><time>2026-04-18T14:42:47.295Z</time></trkpt><trkpt lat="45.7228817" lon="8.5313133"><ele>307.0</ele><time>2026-04-18T14:42:48.292Z</time></trkpt><trkpt lat="45.7228467" lon="8.53123"><ele>307.0</ele><time>2026-04-18T14:42:49.29Z</time></trkpt><trkpt lat="45.722805" lon="8.53116"><ele>307.0</ele><time>2026-04-18T14:42:50.289Z</time></trkpt><trkpt lat="45.7227167" lon="8.53104"><ele>307.0</ele><time>2026-04-18T14:42:52.287Z</time></trkpt><trkpt lat="45.7226167" lon="8.5309533"><ele>307.3333333333333</ele><time>2026-04-18T14:42:54.291Z</time></trkpt><trkpt lat="45.7225267" lon="8.5308767"><ele>307.66666666666663</ele><time>2026-04-18T14:42:56.295Z</time></trkpt><trkpt lat="45.722445" lon="8.5308333"><ele>308.0</ele><time>2026-04-18T14:42:58.291Z</time></trkpt><trkpt lat="45.7223783" lon="8.530795"><ele>308.3333333333333</ele><time>2026-04-18T14:43:00.294Z</time></trkpt><trkpt lat="45.7223167" lon="8.53075"><ele>308.6666666666667</ele><time>2026-04-18T14:43:02.293Z</time></trkpt><trkpt lat="45.72225" lon="8.5307083"><ele>309.0</ele><time>2026-04-18T14:43:04.294Z</time></trkpt><trkpt lat="45.722185" lon="8.530655"><ele>309.00000000000006</ele><time>2026-04-18T14:43:06.294Z</time></trkpt><trkpt lat="45.7221267" lon="8.5306067"><ele>309.0</ele><time>2026-04-18T14:43:08.297Z</time></trkpt><trkpt lat="45.7220683" lon="8.5305633"><ele>309.0</ele><time>2026-04-18T14:43:10.295Z</time></trkpt><trkpt lat="45.7220067" lon="8.5305267"><ele>309.0</ele><time>2026-04-18T14:43:12.293Z</time></trkpt><trkpt lat="45.721945" lon="8.5304817"><ele>309.0</ele><time>2026-04-18T14:43:14.295Z</time></trkpt><trkpt lat="45.7218867" lon="8.5304283"><ele>309.00000000000006</ele><time>2026-04-18T14:43:16.295Z</time></trkpt><trkpt lat="45.7218233" lon="8.5303783"><ele>309.0</ele><time>2026-04-18T14:43:18.294Z</time></trkpt><trkpt lat="45.721765" lon="8.5303333"><ele>309.5714285714286</ele><time>2026-04-18T14:43:20.296Z</time></trkpt><trkpt lat="45.721705" lon="8.530285"><ele>310.14285714285717</ele><time>2026-04-18T14:43:22.294Z</time></trkpt><trkpt lat="45.7216483" lon="8.5302333"><ele>310.7142857142857</ele><time>2026-04-18T14:43:24.293Z</time></trkpt><trkpt lat="45.7215933" lon="8.5301817"><ele>311.28571428571433</ele><time>2026-04-18T14:43:26.301Z</time></trkpt><trkpt lat="45.721535" lon="8.53013"><ele>311.8571428571429</ele><time>2026-04-18T14:43:28.289Z</time></trkpt><trkpt lat="45.7214833" lon="8.5300767"><ele>312.42857142857144</ele><time>2026-04-18T14:43:30.294Z</time></trkpt><trkpt lat="45.721425" lon="8.5300233"><ele>313.0</ele><time>2026-04-18T14:43:32.292Z</time></trkpt><trkpt lat="45.721365" lon="8.529975"><ele>313.0</ele><time>2026-04-18T14:43:34.294Z</time></trkpt><trkpt lat="45.7213083" lon="8.52992"><ele>313.0</ele><time>2026-04-18T14:43:36.296Z</time></trkpt><trkpt lat="45.7212533" lon="8.5298667"><ele>313.0</ele><time>2026-04-18T14:43:38.294Z</time></trkpt><trkpt lat="45.7211733" lon="8.5297917"><ele>313.0</ele><time>2026-04-18T14:43:41.298Z</time></trkpt><trkpt lat="45.7211133" lon="8.5297433"><ele>313.0</ele><time>2026-04-18T14:43:43.295Z</time></trkpt><trkpt lat="45.721055" lon="8.5296933"><ele>313.0</ele><time>2026-04-18T14:43:45.296Z</time></trkpt><trkpt lat="45.7210017" lon="8.529645"><ele>313.0</ele><time>2026-04-18T14:43:47.296Z</time></trkpt><trkpt lat="45.7209267" lon="8.52958"><ele>314.5</ele><time>2026-04-18T14:43:50.297Z</time></trkpt><trkpt lat="45.7208717" lon="8.5295233"><ele>316.0</ele><time>2026-04-18T14:43:52.292Z</time></trkpt><trkpt lat="45.720815" lon="8.52947"><ele>317.5</ele><time>2026-04-18T14:43:54.294Z</time></trkpt><trkpt lat="45.720745" lon="8.5293983"><ele>319.0</ele><time>2026-04-18T14:43:57.294Z</time></trkpt><trkpt lat="45.7206717" lon="8.5293333"><ele>320.5</ele><time>2026-04-18T14:44:00.296Z</time></trkpt><trkpt lat="45.720605" lon="8.5292733"><ele>322.0</ele><time>2026-04-18T14:44:03.295Z</time></trkpt><trkpt lat="45.72055" lon="8.5292067"><ele>322.0</ele><time>2026-04-18T14:44:06.296Z</time></trkpt><trkpt lat="45.7204833" lon="8.52915"><ele>322.0</ele><time>2026-04-18T14:44:09.293Z</time></trkpt><trkpt lat="45.720425" lon="8.529105"><ele>322.0</ele><time>2026-04-18T14:44:12.296Z</time></trkpt><trkpt lat="45.7203633" lon="8.5290433"><ele>322.0</ele><time>2026-04-18T14:44:15.295Z</time></trkpt><trkpt lat="45.7203" lon="8.5289817"><ele>322.0</ele><time>2026-04-18T14:44:18.297Z</time></trkpt><trkpt lat="45.7202417" lon="8.5289183"><ele>322.0</ele><time>2026-04-18T14:44:21.294Z</time></trkpt><trkpt lat="45.7201767" lon="8.5288617"><ele>322.0</ele><time>2026-04-18T14:44:24.296Z</time></trkpt><trkpt lat="45.7201167" lon="8.528795"><ele>322.0</ele><time>2026-04-18T14:44:27.299Z</time></trkpt><trkpt lat="45.7200567" lon="8.5287417"><ele>322.0</ele><time>2026-04-18T14:44:30.295Z</time></trkpt><trkpt lat="45.719995" lon="8.5286867"><ele>322.0</ele><time>2026-04-18T14:44:33.295Z</time></trkpt><trkpt lat="45.7199383" lon="8.5286283"><ele>322.0</ele><time>2026-04-18T14:44:36.294Z</time></trkpt><trkpt lat="45.7198733" lon="8.52857"><ele>322.0</ele><time>2026-04-18T14:44:39.297Z</time></trkpt><trkpt lat="45.71981" lon="8.5285083"><ele>322.0</ele><time>2026-04-18T14:44:42.296Z</time></trkpt><trkpt lat="45.7197533" lon="8.52846"><ele>322.0</ele><time>2026-04-18T14:44:45.293Z</time></trkpt><trkpt lat="45.7196883" lon="8.5284133"><ele>322.57142857142856</ele><time>2026-04-18T14:44:48.293Z</time></trkpt><trkpt lat="45.719625" lon="8.5283533"><ele>323.1428571428571</ele><time>2026-04-18T14:44:51.296Z</time></trkpt><trkpt lat="45.7195717" lon="8.52829"><ele>323.7142857142857</ele><time>2026-04-18T14:44:54.294Z</time></trkpt><trkpt lat="45.7195167" lon="8.52824"><ele>324.2857142857143</ele><time>2026-04-18T14:44:57.295Z</time></trkpt><trkpt lat="45.7194633" lon="8.5281883"><ele>324.85714285714283</ele><time>2026-04-18T14:45:00.294Z</time></trkpt><trkpt lat="45.719405" lon="8.5281167"><ele>325.42857142857144</ele><time>2026-04-18T14:45:03.293Z</time></trkpt><trkpt lat="45.719345" lon="8.5280583"><ele>326.0</ele><time>2026-04-18T14:45:06.292Z</time></trkpt><trkpt lat="45.71928" lon="8.5280033"><ele>326.0</ele><time>2026-04-18T14:45:09.295Z</time></trkpt><trkpt lat="45.7192183" lon="8.5279467"><ele>326.0</ele><time>2026-04-18T14:45:12.296Z</time></trkpt><trkpt lat="45.7191567" lon="8.5278867"><ele>326.0</ele><time>2026-04-18T14:45:15.294Z</time></trkpt><trkpt lat="45.7190917" lon="8.5278283"><ele>326.0</ele><time>2026-04-18T14:45:18.295Z</time></trkpt><trkpt lat="45.71903" lon="8.5277717"><ele>326.0</ele><time>2026-04-18T14:45:21.295Z</time></trkpt><trkpt lat="45.7189683" lon="8.52771"><ele>326.0</ele><time>2026-04-18T14:45:24.296Z</time></trkpt><trkpt lat="45.718905" lon="8.52765"><ele>326.0</ele><time>2026-04-18T14:45:27.295Z</time></trkpt><trkpt lat="45.718845" lon="8.5275933"><ele>325.8571428571429</ele><time>2026-04-18T14:45:30.294Z</time></trkpt><trkpt lat="45.7187833" lon="8.5275367"><ele>325.71428571428567</ele><time>2026-04-18T14:45:33.294Z</time></trkpt><trkpt lat="45.718725" lon="8.5274867"><ele>325.57142857142856</ele><time>2026-04-18T14:45:36.294Z</time></trkpt><trkpt lat="45.7186717" lon="8.5274183"><ele>325.42857142857144</ele><time>2026-04-18T14:45:40.295Z</time></trkpt><trkpt lat="45.7186983" lon="8.527335"><ele>325.28571428571433</ele><time>2026-04-18T14:45:43.294Z</time></trkpt><trkpt lat="45.718735" lon="8.5272367"><ele>325.1428571428571</ele><time>2026-04-18T14:45:46.296Z</time></trkpt><trkpt lat="45.71877" lon="8.5271483"><ele>325.0</ele><time>2026-04-18T14:45:49.295Z</time></trkpt><trkpt lat="45.718815" lon="8.527075"><ele>326.0</ele><time>2026-04-18T14:45:52.295Z</time></trkpt><trkpt lat="45.7188617" lon="8.5269983"><ele>327.0</ele><time>2026-04-18T14:45:55.296Z</time></trkpt><trkpt lat="45.7189183" lon="8.5269067"><ele>328.0</ele><time>2026-04-18T14:45:58.294Z</time></trkpt><trkpt lat="45.718965" lon="8.526835"><ele>329.0</ele><time>2026-04-18T14:46:01.293Z</time></trkpt><trkpt lat="45.7190267" lon="8.52678"><ele>330.0</ele><time>2026-04-18T14:46:04.293Z</time></trkpt><trkpt lat="45.7190983" lon="8.5267217"><ele>331.0</ele><time>2026-04-18T14:46:07.297Z</time></trkpt><trkpt lat="45.719165" lon="8.5266533"><ele>331.0</ele><time>2026-04-18T14:46:10.294Z</time></trkpt><trkpt lat="45.71922" lon="8.5265833"><ele>331.0</ele><time>2026-04-18T14:46:13.293Z</time></trkpt><trkpt lat="45.7192667" lon="8.5265033"><ele>331.0</ele><time>2026-04-18T14:46:16.292Z</time></trkpt><trkpt lat="45.7193067" lon="8.5264217"><ele>331.0</ele><time>2026-04-18T14:46:19.293Z</time></trkpt><trkpt lat="45.719345" lon="8.5263483"><ele>331.0</ele><time>2026-04-18T14:46:22.293Z</time></trkpt><trkpt lat="45.7193817" lon="8.5262667"><ele>331.0</ele><time>2026-04-18T14:46:26.297Z</time></trkpt><trkpt lat="45.7194283" lon="8.52619"><ele>331.0</ele><time>2026-04-18T14:46:30.293Z</time></trkpt><trkpt lat="45.7194717" lon="8.5261167"><ele>330.8333333333333</ele><time>2026-04-18T14:46:33.288Z</time></trkpt><trkpt lat="45.7195267" lon="8.5260233"><ele>330.66666666666663</ele><time>2026-04-18T14:46:37.294Z</time></trkpt><trkpt lat="45.7195917" lon="8.5259683"><ele>330.5</ele><time>2026-04-18T14:46:41.296Z</time></trkpt><trkpt lat="45.7196683" lon="8.5258317"><ele>330.3333333333333</ele><time>2026-04-18T14:46:47.294Z</time></trkpt><trkpt lat="45.7197433" lon="8.5257833"><ele>330.1666666666667</ele><time>2026-04-18T14:46:51.293Z</time></trkpt><trkpt lat="45.7197967" lon="8.525735"><ele>330.0</ele><time>2026-04-18T14:46:54.296Z</time></trkpt><trkpt lat="45.719845" lon="8.52567"><ele>330.00000000000006</ele><time>2026-04-18T14:46:57.293Z</time></trkpt><trkpt lat="45.719905" lon="8.5255983"><ele>330.0</ele><time>2026-04-18T14:47:01.295Z</time></trkpt><trkpt lat="45.71995" lon="8.5255267"><ele>330.0</ele><time>2026-04-18T14:47:04.294Z</time></trkpt><trkpt lat="45.7199933" lon="8.525455"><ele>330.0</ele><time>2026-04-18T14:47:07.295Z</time></trkpt><trkpt lat="45.7200417" lon="8.5253817"><ele>330.0</ele><time>2026-04-18T14:47:11.294Z</time></trkpt><trkpt lat="45.7201" lon="8.5253033"><ele>330.00000000000006</ele><time>2026-04-18T14:47:15.295Z</time></trkpt><trkpt lat="45.720155" lon="8.5252267"><ele>330.0</ele><time>2026-04-18T14:47:19.293Z</time></trkpt><trkpt lat="45.7202117" lon="8.525155"><ele>330.42857142857144</ele><time>2026-04-18T14:47:23.296Z</time></trkpt><trkpt lat="45.7202767" lon="8.5250933"><ele>330.8571428571429</ele><time>2026-04-18T14:47:27.295Z</time></trkpt><trkpt lat="45.7203267" lon="8.52503"><ele>331.28571428571433</ele><time>2026-04-18T14:47:30.296Z</time></trkpt><trkpt lat="45.7203833" lon="8.5249767"><ele>331.7142857142857</ele><time>2026-04-18T14:47:33.296Z</time></trkpt><trkpt lat="45.7204333" lon="8.5249167"><ele>332.1428571428571</ele><time>2026-04-18T14:47:36.29Z</time></trkpt><trkpt lat="45.7204767" lon="8.5248483"><ele>332.5714285714286</ele><time>2026-04-18T14:47:39.302Z</time></trkpt><trkpt lat="45.7205367" lon="8.5247683"><ele>333.0</ele><time>2026-04-18T14:47:43.293Z</time></trkpt><trkpt lat="45.7206017" lon="8.5246917"><ele>333.0</ele><time>2026-04-18T14:47:47.292Z</time></trkpt><trkpt lat="45.72065" lon="8.5246317"><ele>333.0</ele><time>2026-04-18T14:47:50.294Z</time></trkpt><trkpt lat="45.7206967" lon="8.5245667"><ele>333.0</ele><time>2026-04-18T14:47:53.294Z</time></trkpt><trkpt lat="45.7207517" lon="8.52449"><ele>333.0</ele><time>2026-04-18T14:47:57.293Z</time></trkpt><trkpt lat="45.720805" lon="8.524415"><ele>333.0</ele><time>2026-04-18T14:48:00.295Z</time></trkpt><trkpt lat="45.7208517" lon="8.5243383"><ele>333.0</ele><time>2026-04-18T14:48:03.293Z</time></trkpt><trkpt lat="45.7209167" lon="8.52427"><ele>333.0</ele><time>2026-04-18T14:48:06.293Z</time></trkpt><trkpt lat="45.7209733" lon="8.5242117"><ele>333.1666666666667</ele><time>2026-04-18T14:48:09.293Z</time></trkpt><trkpt lat="45.7210367" lon="8.5241183"><ele>333.3333333333333</ele><time>2026-04-18T14:48:12.293Z</time></trkpt><trkpt lat="45.7210867" lon="8.5240517"><ele>333.5</ele><time>2026-04-18T14:48:14.295Z</time></trkpt><trkpt lat="45.721145" lon="8.523975"><ele>333.66666666666663</ele><time>2026-04-18T14:48:17.294Z</time></trkpt><trkpt lat="45.7212" lon="8.52391"><ele>333.8333333333333</ele><time>2026-04-18T14:48:20.295Z</time></trkpt><trkpt lat="45.7212617" lon="8.5238283"><ele>334.0</ele><time>2026-04-18T14:48:23.295Z</time></trkpt><trkpt lat="45.7213267" lon="8.5237567"><ele>335.42857142857144</ele><time>2026-04-18T14:48:26.294Z</time></trkpt><trkpt lat="45.721395" lon="8.523675"><ele>336.8571428571429</ele><time>2026-04-18T14:48:29.294Z</time></trkpt><trkpt lat="45.721455" lon="8.5236233"><ele>338.28571428571433</ele><time>2026-04-18T14:48:31.289Z</time></trkpt><trkpt lat="45.7215167" lon="8.5235733"><ele>339.7142857142857</ele><time>2026-04-18T14:48:33.295Z</time></trkpt><trkpt lat="45.7215717" lon="8.5235217"><ele>341.14285714285717</ele><time>2026-04-18T14:48:35.29Z</time></trkpt><trkpt lat="45.72163" lon="8.5234783"><ele>342.5714285714286</ele><time>2026-04-18T14:48:37.294Z</time></trkpt><trkpt lat="45.7216867" lon="8.5234383"><ele>344.0</ele><time>2026-04-18T14:48:39.295Z</time></trkpt><trkpt lat="45.7217583" lon="8.5233717"><ele>344.0</ele><time>2026-04-18T14:48:42.295Z</time></trkpt><trkpt lat="45.7218217" lon="8.5232867"><ele>344.0</ele><time>2026-04-18T14:48:45.295Z</time></trkpt><trkpt lat="45.7218967" lon="8.5232283"><ele>344.0</ele><time>2026-04-18T14:48:48.293Z</time></trkpt><trkpt lat="45.7219633" lon="8.5231517"><ele>344.0</ele><time>2026-04-18T14:48:51.293Z</time></trkpt><trkpt lat="45.7220267" lon="8.5230783"><ele>344.0</ele><time>2026-04-18T14:48:54.294Z</time></trkpt><trkpt lat="45.7220917" lon="8.5229933"><ele>344.0</ele><time>2026-04-18T14:48:57.297Z</time></trkpt><trkpt lat="45.7221533" lon="8.52291"><ele>343.42857142857144</ele><time>2026-04-18T14:49:00.293Z</time></trkpt><trkpt lat="45.7222017" lon="8.5228517"><ele>342.8571428571429</ele><time>2026-04-18T14:49:02.295Z</time></trkpt><trkpt lat="45.72227" lon="8.52277"><ele>342.28571428571433</ele><time>2026-04-18T14:49:05.296Z</time></trkpt><trkpt lat="45.722325" lon="8.5227"><ele>341.7142857142857</ele><time>2026-04-18T14:49:08.291Z</time></trkpt><trkpt lat="45.7223717" lon="8.52263"><ele>341.1428571428571</ele><time>2026-04-18T14:49:11.293Z</time></trkpt><trkpt lat="45.72241" lon="8.52255"><ele>340.5714285714286</ele><time>2026-04-18T14:49:14.297Z</time></trkpt><trkpt lat="45.7224567" lon="8.5224767"><ele>340.0</ele><time>2026-04-18T14:49:17.294Z</time></trkpt><trkpt lat="45.722515" lon="8.5224"><ele>340.0</ele><time>2026-04-18T14:49:20.298Z</time></trkpt><trkpt lat="45.7225817" lon="8.522335"><ele>340.0</ele><time>2026-04-18T14:49:23.289Z</time></trkpt><trkpt lat="45.7226383" lon="8.5222583"><ele>340.0</ele><time>2026-04-18T14:49:26.295Z</time></trkpt><trkpt lat="45.7227033" lon="8.52219"><ele>340.0</ele><time>2026-04-18T14:49:29.296Z</time></trkpt><trkpt lat="45.722755" lon="8.52212"><ele>340.0</ele><time>2026-04-18T14:49:32.295Z</time></trkpt><trkpt lat="45.7228167" lon="8.5220767"><ele>340.0</ele><time>2026-04-18T14:49:35.293Z</time></trkpt><trkpt lat="45.72288" lon="8.5220083"><ele>340.5</ele><time>2026-04-18T14:49:38.29Z</time></trkpt><trkpt lat="45.7229417" lon="8.5219467"><ele>341.0</ele><time>2026-04-18T14:49:41.294Z</time></trkpt><trkpt lat="45.723" lon="8.5218683"><ele>341.5</ele><time>2026-04-18T14:49:44.294Z</time></trkpt><trkpt lat="45.7230617" lon="8.521805"><ele>342.0</ele><time>2026-04-18T14:49:47.295Z</time></trkpt><trkpt lat="45.72312" lon="8.5217383"><ele>342.5</ele><time>2026-04-18T14:49:50.294Z</time></trkpt><trkpt lat="45.7231917" lon="8.5216783"><ele>343.0</ele><time>2026-04-18T14:49:53.293Z</time></trkpt><trkpt lat="45.7232617" lon="8.521625"><ele>343.0</ele><time>2026-04-18T14:49:56.29Z</time></trkpt><trkpt lat="45.7233217" lon="8.521565"><ele>343.0</ele><time>2026-04-18T14:49:59.291Z</time></trkpt><trkpt lat="45.72339" lon="8.5215117"><ele>343.0</ele><time>2026-04-18T14:50:02.296Z</time></trkpt><trkpt lat="45.72346" lon="8.5214467"><ele>343.0</ele><time>2026-04-18T14:50:05.293Z</time></trkpt><trkpt lat="45.7235133" lon="8.521385"><ele>343.0</ele><time>2026-04-18T14:50:08.296Z</time></trkpt><trkpt lat="45.7235733" lon="8.521315"><ele>343.0</ele><time>2026-04-18T14:50:12.294Z</time></trkpt><trkpt lat="45.723625" lon="8.5212533"><ele>343.0</ele><time>2026-04-18T14:50:15.293Z</time></trkpt><trkpt lat="45.7236833" lon="8.5211917"><ele>343.8333333333333</ele><time>2026-04-18T14:50:18.293Z</time></trkpt><trkpt lat="45.7237383" lon="8.5211367"><ele>344.66666666666663</ele><time>2026-04-18T14:50:21.294Z</time></trkpt><trkpt lat="45.7238017" lon="8.5210667"><ele>345.5</ele><time>2026-04-18T14:50:24.294Z</time></trkpt><trkpt lat="45.7238633" lon="8.5209817"><ele>346.3333333333333</ele><time>2026-04-18T14:50:27.291Z</time></trkpt><trkpt lat="45.7239283" lon="8.520925"><ele>347.1666666666667</ele><time>2026-04-18T14:50:30.293Z</time></trkpt><trkpt lat="45.7239817" lon="8.5208483"><ele>348.0</ele><time>2026-04-18T14:50:33.295Z</time></trkpt><trkpt lat="45.7240467" lon="8.5207917"><ele>348.0</ele><time>2026-04-18T14:50:36.292Z</time></trkpt><trkpt lat="45.7241117" lon="8.5207267"><ele>348.0</ele><time>2026-04-18T14:50:39.292Z</time></trkpt><trkpt lat="45.72418" lon="8.52065"><ele>348.0</ele><time>2026-04-18T14:50:42.293Z</time></trkpt><trkpt lat="45.7242417" lon="8.5205667"><ele>348.0</ele><time>2026-04-18T14:50:45.292Z</time></trkpt><trkpt lat="45.7243017" lon="8.520495"><ele>348.0</ele><time>2026-04-18T14:50:48.294Z</time></trkpt><trkpt lat="45.7243617" lon="8.5204183"><ele>348.0</ele><time>2026-04-18T14:50:51.295Z</time></trkpt><trkpt lat="45.7244233" lon="8.52035"><ele>348.3333333333333</ele><time>2026-04-18T14:50:54.297Z</time></trkpt><trkpt lat="45.7244867" lon="8.5202733"><ele>348.6666666666667</ele><time>2026-04-18T14:50:57.29Z</time></trkpt><trkpt lat="45.724545" lon="8.5201883"><ele>349.0</ele><time>2026-04-18T14:51:00.295Z</time></trkpt><trkpt lat="45.7246" lon="8.5201217"><ele>349.33333333333337</ele><time>2026-04-18T14:51:03.293Z</time></trkpt><trkpt lat="45.72466" lon="8.5200767"><ele>349.6666666666667</ele><time>2026-04-18T14:51:06.293Z</time></trkpt><trkpt lat="45.72471" lon="8.520005"><ele>350.0</ele><time>2026-04-18T14:51:09.304Z</time></trkpt><trkpt lat="45.7247617" lon="8.519915"><ele>350.0</ele><time>2026-04-18T14:51:12.293Z</time></trkpt><trkpt lat="45.7248217" lon="8.5198533"><ele>350.0</ele><time>2026-04-18T14:51:15.295Z</time></trkpt><trkpt lat="45.7248783" lon="8.519775"><ele>350.0</ele><time>2026-04-18T14:51:18.297Z</time></trkpt><trkpt lat="45.7249467" lon="8.519685"><ele>350.0</ele><time>2026-04-18T14:51:21.294Z</time></trkpt><trkpt lat="45.7250033" lon="8.5196067"><ele>350.0</ele><time>2026-04-18T14:51:24.293Z</time></trkpt><trkpt lat="45.72508" lon="8.5195483"><ele>350.0</ele><time>2026-04-18T14:51:27.293Z</time></trkpt><trkpt lat="45.7251383" lon="8.5194767"><ele>351.1666666666667</ele><time>2026-04-18T14:51:30.287Z</time></trkpt><trkpt lat="45.7251867" lon="8.51938"><ele>352.33333333333337</ele><time>2026-04-18T14:51:33.293Z</time></trkpt><trkpt lat="45.72519" lon="8.5192617"><ele>353.5</ele><time>2026-04-18T14:51:36.296Z</time></trkpt><trkpt lat="45.725175" lon="8.5191533"><ele>354.6666666666667</ele><time>2026-04-18T14:51:39.292Z</time></trkpt><trkpt lat="45.7251067" lon="8.5191467"><ele>355.8333333333333</ele><time>2026-04-18T14:51:42.298Z</time></trkpt><trkpt lat="45.7250567" lon="8.5192017"><ele>357.0</ele><time>2026-04-18T14:51:44.295Z</time></trkpt><trkpt lat="45.724985" lon="8.5192533"><ele>357.0</ele><time>2026-04-18T14:51:47.294Z</time></trkpt><trkpt lat="45.7249167" lon="8.5193033"><ele>357.0</ele><time>2026-04-18T14:51:50.294Z</time></trkpt><trkpt lat="45.7248567" lon="8.5193417"><ele>357.0</ele><time>2026-04-18T14:51:53.294Z</time></trkpt><trkpt lat="45.7247833" lon="8.5193817"><ele>357.0</ele><time>2026-04-18T14:51:57.295Z</time></trkpt><trkpt lat="45.7247183" lon="8.5194217"><ele>357.0</ele><time>2026-04-18T14:52:00.293Z</time></trkpt><trkpt lat="45.7246517" lon="8.5194617"><ele>357.0</ele><time>2026-04-18T14:52:03.295Z</time></trkpt><trkpt lat="45.724575" lon="8.5195117"><ele>357.0</ele><time>2026-04-18T14:52:06.295Z</time></trkpt><trkpt lat="45.72451" lon="8.519535"><ele>357.1666666666667</ele><time>2026-04-18T14:52:09.296Z</time></trkpt><trkpt lat="45.724435" lon="8.5195767"><ele>357.3333333333333</ele><time>2026-04-18T14:52:12.294Z</time></trkpt><trkpt lat="45.7243617" lon="8.5196133"><ele>357.5</ele><time>2026-04-18T14:52:15.297Z</time></trkpt><trkpt lat="45.7242883" lon="8.51963"><ele>357.66666666666663</ele><time>2026-04-18T14:52:18.296Z</time></trkpt><trkpt lat="45.7242167" lon="8.5196583"><ele>357.8333333333333</ele><time>2026-04-18T14:52:21.294Z</time></trkpt><trkpt lat="45.724135" lon="8.519685"><ele>358.0</ele><time>2026-04-18T14:52:24.296Z</time></trkpt><trkpt lat="45.72407" lon="8.5197283"><ele>358.0</ele><time>2026-04-18T14:52:27.294Z</time></trkpt><trkpt lat="45.7240067" lon="8.5197667"><ele>358.0</ele><time>2026-04-18T14:52:31.292Z</time></trkpt><trkpt lat="45.7239217" lon="8.5198117"><ele>358.0</ele><time>2026-04-18T14:52:34.294Z</time></trkpt><trkpt lat="45.72384" lon="8.5198783"><ele>358.0</ele><time>2026-04-18T14:52:37.295Z</time></trkpt><trkpt lat="45.7237733" lon="8.51991"><ele>358.0</ele><time>2026-04-18T14:52:40.292Z</time></trkpt><trkpt lat="45.7237067" lon="8.519955"><ele>358.0</ele><time>2026-04-18T14:52:44.296Z</time></trkpt><trkpt lat="45.7236233" lon="8.5200033"><ele>358.66666666666663</ele><time>2026-04-18T14:52:47.293Z</time></trkpt><trkpt lat="45.723545" lon="8.5200433"><ele>359.3333333333333</ele><time>2026-04-18T14:52:50.293Z</time></trkpt><trkpt lat="45.7234683" lon="8.5200933"><ele>360.0</ele><time>2026-04-18T14:52:53.293Z</time></trkpt><trkpt lat="45.7233983" lon="8.5201067"><ele>360.6666666666667</ele><time>2026-04-18T14:52:56.294Z</time></trkpt><trkpt lat="45.7233367" lon="8.5201517"><ele>361.33333333333337</ele><time>2026-04-18T14:52:59.295Z</time></trkpt><trkpt lat="45.7232617" lon="8.5201867"><ele>362.0</ele><time>2026-04-18T14:53:02.294Z</time></trkpt><trkpt lat="45.7231717" lon="8.520235"><ele>362.0</ele><time>2026-04-18T14:53:05.294Z</time></trkpt><trkpt lat="45.7230867" lon="8.5202633"><ele>362.0</ele><time>2026-04-18T14:53:08.293Z</time></trkpt><trkpt lat="45.723015" lon="8.5202933"><ele>362.0</ele><time>2026-04-18T14:53:11.293Z</time></trkpt><trkpt lat="45.722935" lon="8.52032"><ele>362.0</ele><time>2026-04-18T14:53:14.294Z</time></trkpt><trkpt lat="45.722865" lon="8.520365"><ele>362.0</ele><time>2026-04-18T14:53:18.293Z</time></trkpt><trkpt lat="45.722795" lon="8.5204133"><ele>362.0</ele><time>2026-04-18T14:53:21.294Z</time></trkpt><trkpt lat="45.7227183" lon="8.52048"><ele>362.0</ele><time>2026-04-18T14:53:24.294Z</time></trkpt><trkpt lat="45.722635" lon="8.520545"><ele>362.0</ele><time>2026-04-18T14:53:27.295Z</time></trkpt><trkpt lat="45.7225683" lon="8.52059"><ele>362.0</ele><time>2026-04-18T14:53:30.293Z</time></trkpt><trkpt lat="45.72251" lon="8.52064"><ele>362.0</ele><time>2026-04-18T14:53:33.297Z</time></trkpt><trkpt lat="45.7224517" lon="8.520695"><ele>362.0</ele><time>2026-04-18T14:53:36.293Z</time></trkpt><trkpt lat="45.7223933" lon="8.5207517"><ele>362.0</ele><time>2026-04-18T14:53:39.298Z</time></trkpt><trkpt lat="45.722325" lon="8.5207867"><ele>362.0</ele><time>2026-04-18T14:53:42.294Z</time></trkpt><trkpt lat="45.7222617" lon="8.52083"><ele>362.0</ele><time>2026-04-18T14:53:45.297Z</time></trkpt><trkpt lat="45.72218" lon="8.520885"><ele>362.0</ele><time>2026-04-18T14:53:48.294Z</time></trkpt><trkpt lat="45.7221217" lon="8.5209267"><ele>362.0</ele><time>2026-04-18T14:53:50.294Z</time></trkpt><trkpt lat="45.7220517" lon="8.52101"><ele>362.0</ele><time>2026-04-18T14:53:53.295Z</time></trkpt><trkpt lat="45.7219817" lon="8.521115"><ele>362.0</ele><time>2026-04-18T14:53:56.295Z</time></trkpt><trkpt lat="45.721935" lon="8.5211833"><ele>362.0</ele><time>2026-04-18T14:53:58.296Z</time></trkpt><trkpt lat="45.7218683" lon="8.52124"><ele>360.83333333333337</ele><time>2026-04-18T14:54:01.294Z</time></trkpt><trkpt lat="45.72179" lon="8.5212667"><ele>359.6666666666667</ele><time>2026-04-18T14:54:04.297Z</time></trkpt><trkpt lat="45.7217133" lon="8.5213017"><ele>358.5</ele><time>2026-04-18T14:54:07.292Z</time></trkpt><trkpt lat="45.7216283" lon="8.521355"><ele>357.3333333333333</ele><time>2026-04-18T14:54:10.294Z</time></trkpt><trkpt lat="45.721565" lon="8.52139"><ele>356.16666666666663</ele><time>2026-04-18T14:54:12.293Z</time></trkpt><trkpt lat="45.72149" lon="8.521435"><ele>355.0</ele><time>2026-04-18T14:54:15.293Z</time></trkpt><trkpt lat="45.72142" lon="8.5214867"><ele>355.0</ele><time>2026-04-18T14:54:18.294Z</time></trkpt><trkpt lat="45.72135" lon="8.5215267"><ele>355.0</ele><time>2026-04-18T14:54:21.293Z</time></trkpt><trkpt lat="45.7212717" lon="8.5215617"><ele>355.0</ele><time>2026-04-18T14:54:24.292Z</time></trkpt><trkpt lat="45.72119" lon="8.521575"><ele>355.0</ele><time>2026-04-18T14:54:27.294Z</time></trkpt><trkpt lat="45.721115" lon="8.52163"><ele>355.0</ele><time>2026-04-18T14:54:30.295Z</time></trkpt><trkpt lat="45.721045" lon="8.5216683"><ele>355.0</ele><time>2026-04-18T14:54:33.295Z</time></trkpt><trkpt lat="45.7209633" lon="8.5217033"><ele>355.3333333333333</ele><time>2026-04-18T14:54:36.295Z</time></trkpt><trkpt lat="45.7208933" lon="8.5216833"><ele>355.66666666666663</ele><time>2026-04-18T14:54:39.298Z</time></trkpt><trkpt lat="45.72083" lon="8.5216167"><ele>356.0</ele><time>2026-04-18T14:54:42.295Z</time></trkpt><trkpt lat="45.72078" lon="8.5215583"><ele>356.3333333333333</ele><time>2026-04-18T14:54:44.297Z</time></trkpt><trkpt lat="45.7207167" lon="8.5214867"><ele>356.6666666666667</ele><time>2026-04-18T14:54:47.294Z</time></trkpt><trkpt lat="45.7206633" lon="8.5214083"><ele>357.0</ele><time>2026-04-18T14:54:50.295Z</time></trkpt><trkpt lat="45.7206" lon="8.521315"><ele>357.0</ele><time>2026-04-18T14:54:53.295Z</time></trkpt><trkpt lat="45.7205517" lon="8.52124"><ele>357.0</ele><time>2026-04-18T14:54:56.293Z</time></trkpt><trkpt lat="45.72049" lon="8.521165"><ele>357.0</ele><time>2026-04-18T14:54:59.294Z</time></trkpt><trkpt lat="45.7204317" lon="8.5211217"><ele>357.0</ele><time>2026-04-18T14:55:02.292Z</time></trkpt><trkpt lat="45.72036" lon="8.5211333"><ele>357.0</ele><time>2026-04-18T14:55:04.293Z</time></trkpt><trkpt lat="45.7202983" lon="8.521165"><ele>357.0</ele><time>2026-04-18T14:55:07.294Z</time></trkpt><trkpt lat="45.7202217" lon="8.5212067"><ele>357.0</ele><time>2026-04-18T14:55:10.293Z</time></trkpt><trkpt lat="45.720155" lon="8.52123"><ele>357.1666666666667</ele><time>2026-04-18T14:55:13.295Z</time></trkpt><trkpt lat="45.7200717" lon="8.521265"><ele>357.3333333333333</ele><time>2026-04-18T14:55:16.298Z</time></trkpt><trkpt lat="45.7200133" lon="8.5213017"><ele>357.5</ele><time>2026-04-18T14:55:18.294Z</time></trkpt><trkpt lat="45.71993" lon="8.5213217"><ele>357.66666666666663</ele><time>2026-04-18T14:55:21.297Z</time></trkpt><trkpt lat="45.7198533" lon="8.5213233"><ele>357.8333333333333</ele><time>2026-04-18T14:55:24.299Z</time></trkpt><trkpt lat="45.7197583" lon="8.5213367"><ele>358.0</ele><time>2026-04-18T14:55:27.294Z</time></trkpt><trkpt lat="45.719665" lon="8.5213483"><ele>358.00000000000006</ele><time>2026-04-18T14:55:30.295Z</time></trkpt><trkpt lat="45.7195767" lon="8.52135"><ele>358.0</ele><time>2026-04-18T14:55:33.293Z</time></trkpt><trkpt lat="45.719515" lon="8.5213717"><ele>358.0</ele><time>2026-04-18T14:55:35.291Z</time></trkpt><trkpt lat="45.7194483" lon="8.5213717"><ele>358.0</ele><time>2026-04-18T14:55:37.296Z</time></trkpt><trkpt lat="45.7193833" lon="8.5213733"><ele>358.0</ele><time>2026-04-18T14:55:39.296Z</time></trkpt><trkpt lat="45.7193183" lon="8.5213917"><ele>358.00000000000006</ele><time>2026-04-18T14:55:41.295Z</time></trkpt><trkpt lat="45.7192567" lon="8.5214117"><ele>358.0</ele><time>2026-04-18T14:55:43.293Z</time></trkpt><trkpt lat="45.7191667" lon="8.5214433"><ele>358.5</ele><time>2026-04-18T14:55:46.294Z</time></trkpt><trkpt lat="45.7190817" lon="8.5214683"><ele>359.0</ele><time>2026-04-18T14:55:49.294Z</time></trkpt><trkpt lat="45.7189933" lon="8.5215"><ele>359.5</ele><time>2026-04-18T14:55:52.293Z</time></trkpt><trkpt lat="45.7189367" lon="8.5215467"><ele>360.0</ele><time>2026-04-18T14:55:54.294Z</time></trkpt><trkpt lat="45.7188683" lon="8.5215867"><ele>360.5</ele><time>2026-04-18T14:55:56.291Z</time></trkpt><trkpt lat="45.7188067" lon="8.5216167"><ele>361.0</ele><time>2026-04-18T14:55:58.295Z</time></trkpt><trkpt lat="45.7187217" lon="8.52167"><ele>361.0</ele><time>2026-04-18T14:56:01.294Z</time></trkpt><trkpt lat="45.7186483" lon="8.5217233"><ele>361.0</ele><time>2026-04-18T14:56:03.296Z</time></trkpt><trkpt lat="45.7185733" lon="8.5217583"><ele>361.0</ele><time>2026-04-18T14:56:05.297Z</time></trkpt><trkpt lat="45.7184933" lon="8.521805"><ele>361.0</ele><time>2026-04-18T14:56:08.295Z</time></trkpt><trkpt lat="45.7184317" lon="8.5218567"><ele>361.0</ele><time>2026-04-18T14:56:10.294Z</time></trkpt><trkpt lat="45.7183733" lon="8.5218983"><ele>361.0</ele><time>2026-04-18T14:56:12.296Z</time></trkpt><trkpt lat="45.7182917" lon="8.521935"><ele>361.2857142857143</ele><time>2026-04-18T14:56:15.289Z</time></trkpt><trkpt lat="45.7182267" lon="8.5219617"><ele>361.57142857142856</ele><time>2026-04-18T14:56:17.292Z</time></trkpt><trkpt lat="45.718155" lon="8.5219617"><ele>361.85714285714283</ele><time>2026-04-18T14:56:19.297Z</time></trkpt><trkpt lat="45.7180783" lon="8.5219267"><ele>362.1428571428571</ele><time>2026-04-18T14:56:21.298Z</time></trkpt><trkpt lat="45.7179983" lon="8.5219017"><ele>362.42857142857144</ele><time>2026-04-18T14:56:23.294Z</time></trkpt><trkpt lat="45.71792" lon="8.5218833"><ele>362.71428571428567</ele><time>2026-04-18T14:56:25.298Z</time></trkpt><trkpt lat="45.717855" lon="8.5218683"><ele>363.0</ele><time>2026-04-18T14:56:27.294Z</time></trkpt><trkpt lat="45.7177917" lon="8.5218617"><ele>362.8333333333333</ele><time>2026-04-18T14:56:29.297Z</time></trkpt><trkpt lat="45.7176967" lon="8.5218567"><ele>362.6666666666667</ele><time>2026-04-18T14:56:32.294Z</time></trkpt><trkpt lat="45.71762" lon="8.52186"><ele>362.5</ele><time>2026-04-18T14:56:34.293Z</time></trkpt><trkpt lat="45.71755" lon="8.52187"><ele>362.33333333333337</ele><time>2026-04-18T14:56:36.296Z</time></trkpt><trkpt lat="45.71748" lon="8.521885"><ele>362.1666666666667</ele><time>2026-04-18T14:56:38.296Z</time></trkpt><trkpt lat="45.717415" lon="8.5219033"><ele>362.0</ele><time>2026-04-18T14:56:40.296Z</time></trkpt><trkpt lat="45.7173267" lon="8.5219417"><ele>362.0</ele><time>2026-04-18T14:56:43.298Z</time></trkpt><trkpt lat="45.7172617" lon="8.521975"><ele>362.0</ele><time>2026-04-18T14:56:45.293Z</time></trkpt><trkpt lat="45.7171933" lon="8.5220183"><ele>362.0</ele><time>2026-04-18T14:56:47.293Z</time></trkpt><trkpt lat="45.7171283" lon="8.52206"><ele>362.0</ele><time>2026-04-18T14:56:49.295Z</time></trkpt><trkpt lat="45.7170617" lon="8.5220833"><ele>362.0</ele><time>2026-04-18T14:56:51.296Z</time></trkpt><trkpt lat="45.7169933" lon="8.5221117"><ele>362.0</ele><time>2026-04-18T14:56:53.293Z</time></trkpt><trkpt lat="45.71694" lon="8.5221683"><ele>362.0</ele><time>2026-04-18T14:56:55.299Z</time></trkpt><trkpt lat="45.7168867" lon="8.5222283"><ele>361.85714285714283</ele><time>2026-04-18T14:56:57.296Z</time></trkpt><trkpt lat="45.71683" lon="8.522285"><ele>361.71428571428567</ele><time>2026-04-18T14:56:59.294Z</time></trkpt><trkpt lat="45.71677" lon="8.5223317"><ele>361.57142857142856</ele><time>2026-04-18T14:57:01.295Z</time></trkpt><trkpt lat="45.71671" lon="8.5223667"><ele>361.42857142857144</ele><time>2026-04-18T14:57:03.293Z</time></trkpt><trkpt lat="45.716655" lon="8.5224233"><ele>361.2857142857143</ele><time>2026-04-18T14:57:05.294Z</time></trkpt><trkpt lat="45.7166" lon="8.52248"><ele>361.14285714285717</ele><time>2026-04-18T14:57:07.297Z</time></trkpt><trkpt lat="45.7165483" lon="8.522535"><ele>361.0</ele><time>2026-04-18T14:57:09.296Z</time></trkpt><trkpt lat="45.7164917" lon="8.5225783"><ele>361.0</ele><time>2026-04-18T14:57:11.295Z</time></trkpt><trkpt lat="45.7164283" lon="8.5226117"><ele>361.0</ele><time>2026-04-18T14:57:13.295Z</time></trkpt><trkpt lat="45.7163583" lon="8.52263"><ele>361.0</ele><time>2026-04-18T14:57:15.294Z</time></trkpt><trkpt lat="45.716285" lon="8.5226417"><ele>361.0</ele><time>2026-04-18T14:57:17.295Z</time></trkpt><trkpt lat="45.716215" lon="8.5226583"><ele>361.0</ele><time>2026-04-18T14:57:19.293Z</time></trkpt><trkpt lat="45.7161467" lon="8.5226633"><ele>361.0</ele><time>2026-04-18T14:57:21.293Z</time></trkpt><trkpt lat="45.7160717" lon="8.5226767"><ele>361.0</ele><time>2026-04-18T14:57:23.297Z</time></trkpt><trkpt lat="45.716" lon="8.522685"><ele>360.8333333333333</ele><time>2026-04-18T14:57:25.295Z</time></trkpt><trkpt lat="45.7159217" lon="8.52269"><ele>360.66666666666663</ele><time>2026-04-18T14:57:27.293Z</time></trkpt><trkpt lat="45.7158383" lon="8.5227017"><ele>360.5</ele><time>2026-04-18T14:57:29.292Z</time></trkpt><trkpt lat="45.715755" lon="8.5227033"><ele>360.3333333333333</ele><time>2026-04-18T14:57:31.291Z</time></trkpt><trkpt lat="45.7156683" lon="8.5226983"><ele>360.1666666666667</ele><time>2026-04-18T14:57:33.293Z</time></trkpt><trkpt lat="45.7155817" lon="8.5227"><ele>360.0</ele><time>2026-04-18T14:57:35.295Z</time></trkpt><trkpt lat="45.715495" lon="8.522695"><ele>360.0</ele><time>2026-04-18T14:57:37.294Z</time></trkpt><trkpt lat="45.7154033" lon="8.5226967"><ele>360.0</ele><time>2026-04-18T14:57:39.299Z</time></trkpt><trkpt lat="45.715315" lon="8.5226967"><ele>360.0</ele><time>2026-04-18T14:57:41.289Z</time></trkpt><trkpt lat="45.7152283" lon="8.5226933"><ele>360.0</ele><time>2026-04-18T14:57:43.293Z</time></trkpt><trkpt lat="45.7151417" lon="8.522695"><ele>360.0</ele><time>2026-04-18T14:57:45.293Z</time></trkpt><trkpt lat="45.715055" lon="8.5227033"><ele>360.0</ele><time>2026-04-18T14:57:47.294Z</time></trkpt><trkpt lat="45.71498" lon="8.522695"><ele>359.2</ele><time>2026-04-18T14:57:49.298Z</time></trkpt><trkpt lat="45.714865" lon="8.5226417"><ele>358.4</ele><time>2026-04-18T14:57:56.294Z</time></trkpt><trkpt lat="45.7148617" lon="8.5225133"><ele>357.6</ele><time>2026-04-18T14:57:59.293Z</time></trkpt><trkpt lat="45.7148433" lon="8.522395"><ele>356.8</ele><time>2026-04-18T14:58:02.297Z</time></trkpt><trkpt lat="45.71482" lon="8.5222683"><ele>356.0</ele><time>2026-04-18T14:58:05.29Z</time></trkpt><trkpt lat="45.7148017" lon="8.52218"><ele>355.99999999999994</ele><time>2026-04-18T14:58:07.294Z</time></trkpt><trkpt lat="45.7147917" lon="8.5220883"><ele>356.0</ele><time>2026-04-18T14:58:09.291Z</time></trkpt><trkpt lat="45.7147683" lon="8.5219567"><ele>356.0</ele><time>2026-04-18T14:58:12.294Z</time></trkpt><trkpt lat="45.71475" lon="8.5218683"><ele>356.0</ele><time>2026-04-18T14:58:14.296Z</time></trkpt><trkpt lat="45.7147283" lon="8.5217783"><ele>356.0</ele><time>2026-04-18T14:58:16.292Z</time></trkpt><trkpt lat="45.7147083" lon="8.5216867"><ele>355.99999999999994</ele><time>2026-04-18T14:58:18.297Z</time></trkpt><trkpt lat="45.7146683" lon="8.5215683"><ele>356.0</ele><time>2026-04-18T14:58:21.293Z</time></trkpt><trkpt lat="45.71459" lon="8.521515"><ele>356.6666666666667</ele><time>2026-04-18T14:58:24.295Z</time></trkpt><trkpt lat="45.7145267" lon="8.5215533"><ele>357.33333333333337</ele><time>2026-04-18T14:58:26.298Z</time></trkpt><trkpt lat="45.7144667" lon="8.5216333"><ele>358.0</ele><time>2026-04-18T14:58:28.293Z</time></trkpt><trkpt lat="45.7144033" lon="8.5217083"><ele>358.6666666666667</ele><time>2026-04-18T14:58:30.291Z</time></trkpt><trkpt lat="45.7143283" lon="8.5218017"><ele>359.3333333333333</ele><time>2026-04-18T14:58:32.296Z</time></trkpt><trkpt lat="45.714245" lon="8.521905"><ele>360.0</ele><time>2026-04-18T14:58:34.294Z</time></trkpt><trkpt lat="45.7141667" lon="8.522015"><ele>359.2</ele><time>2026-04-18T14:58:36.291Z</time></trkpt><trkpt lat="45.7140833" lon="8.5221183"><ele>358.4</ele><time>2026-04-18T14:58:38.297Z</time></trkpt><trkpt lat="45.7139967" lon="8.5222217"><ele>357.6</ele><time>2026-04-18T14:58:40.293Z</time></trkpt><trkpt lat="45.713905" lon="8.522315"><ele>356.8</ele><time>2026-04-18T14:58:42.293Z</time></trkpt><trkpt lat="45.713825" lon="8.5224217"><ele>356.0</ele><time>2026-04-18T14:58:44.295Z</time></trkpt><trkpt lat="45.7137433" lon="8.5225317"><ele>356.0</ele><time>2026-04-18T14:58:46.294Z</time></trkpt><trkpt lat="45.7136717" lon="8.52265"><ele>356.0</ele><time>2026-04-18T14:58:48.297Z</time></trkpt><trkpt lat="45.7135917" lon="8.5227717"><ele>356.0</ele><time>2026-04-18T14:58:50.296Z</time></trkpt><trkpt lat="45.7135017" lon="8.5228767"><ele>356.0</ele><time>2026-04-18T14:58:52.295Z</time></trkpt><trkpt lat="45.7133917" lon="8.52294"><ele>355.0</ele><time>2026-04-18T14:58:54.296Z</time></trkpt><trkpt lat="45.7132717" lon="8.522975"><ele>354.0</ele><time>2026-04-18T14:58:56.292Z</time></trkpt><trkpt lat="45.7131483" lon="8.523015"><ele>353.0</ele><time>2026-04-18T14:58:58.291Z</time></trkpt><trkpt lat="45.7130417" lon="8.5230667"><ele>352.0</ele><time>2026-04-18T14:59:00.292Z</time></trkpt><trkpt lat="45.71298" lon="8.5231817"><ele>352.0</ele><time>2026-04-18T14:59:02.294Z</time></trkpt><trkpt lat="45.712975" lon="8.5233283"><ele>352.0</ele><time>2026-04-18T14:59:04.293Z</time></trkpt><trkpt lat="45.7130067" lon="8.5234583"><ele>352.0</ele><time>2026-04-18T14:59:06.29Z</time></trkpt><trkpt lat="45.7130483" lon="8.5235833"><ele>352.0</ele><time>2026-04-18T14:59:08.291Z</time></trkpt><trkpt lat="45.7131133" lon="8.52379"><ele>351.0</ele><time>2026-04-18T15:00:01.288Z</time></trkpt></trkseg></trk></gpx>